Provisional Data: West Branch Pine Creek near Galeton, PA


Please select a monitoring station.
Please select start date.
Please select start date.

Toggle Unit: C/F Toggle Unit: C/F
Sample Time Temperature (C) Temperature (F) Specific Conductivity (mS/cm) pH   Turbidity (NTU+) DO (mg/L)
12/23/2021 12:00:00 AM 2.49 36.482 0.042 6.81 2.4 13.73
12/23/2021 12:15:00 AM 2.48 36.464 0.042 6.82 2.26 13.74
12/23/2021 12:30:00 AM 2.47 36.446 0.042 6.82 2.27 13.74
12/23/2021 12:45:00 AM 2.46 36.428 0.042 6.73 2.76 13.75
12/23/2021 1:00:00 AM 2.43 36.374 0.042 6.81 2.41 13.75
12/23/2021 1:15:00 AM 2.42 36.356 0.042 6.73 2.32 13.76
12/23/2021 1:30:00 AM 2.41 36.338 0.042 6.82 2.3 13.77
12/23/2021 1:45:00 AM 2.39 36.302 0.042 6.79 2.35 13.77
12/23/2021 2:00:00 AM 2.37 36.266 0.042 6.75 2.33 13.78
12/23/2021 2:15:00 AM 2.36 36.248 0.042 6.81 2.47 13.79
12/23/2021 2:30:00 AM 2.34 36.212 0.042 6.81 2.42 13.8
12/23/2021 2:45:00 AM 2.32 36.176 0.042 6.72 2.43 13.81
12/23/2021 3:00:00 AM 2.3 36.14 0.042 6.82 2.31 13.82
12/23/2021 3:15:00 AM 2.27 36.086 0.042 6.81 3.61 13.83
12/23/2021 3:30:00 AM 2.25 36.05 0.042 6.81 2.27 13.83
12/23/2021 3:45:00 AM 2.22 35.996 0.04 6.79 5.07 13.84
12/23/2021 4:00:00 AM 2.2 35.96 0.042 6.81 2.26 13.86
12/23/2021 4:15:00 AM 2.17 35.906 0.042 6.81 2.27 13.88
12/23/2021 4:30:00 AM 2.14 35.852 0.042 6.82 2.34 13.89
12/23/2021 4:45:00 AM 2.11 35.798 0.042 6.79 2.27 13.9
12/23/2021 5:00:00 AM 2.07 35.726 0.042 6.82 2.4 13.92
12/23/2021 5:15:00 AM 2.05 35.69 0.042 6.82 2.59 13.94
12/23/2021 5:30:00 AM 2.02 35.636 0.042 6.81 2.39 13.95
12/23/2021 5:45:00 AM 1.99 35.582 0.042 6.81 2.53 13.96
12/23/2021 6:00:00 AM 1.98 35.564 0.042 6.73 2.6 13.97
12/23/2021 6:15:00 AM 1.97 35.546 0.042 6.82 2.52 13.98
12/23/2021 6:30:00 AM 1.95 35.51 0.042 6.82 2.41 14
12/23/2021 6:45:00 AM 1.94 35.492 0.042 6.82 2.48 14.01
12/23/2021 7:00:00 AM 1.93 35.474 0.042 6.81 2.41 14.01
12/23/2021 7:15:00 AM 1.92 35.456 0.042 6.77 2.44 14.02
12/23/2021 7:30:00 AM 1.91 35.438 0.042 6.82 2.4 14.03
12/23/2021 7:45:00 AM 1.9 35.42 0.042 6.82 2.45 14.05
12/23/2021 8:00:00 AM 1.89 35.402 0.042 6.82 2.37 14.07
12/23/2021 8:15:00 AM 1.89 35.402 0.042 6.83 2.39 14.11
12/23/2021 8:30:00 AM 1.89 35.402 0.042 6.8 2.37 14.16
12/23/2021 8:45:00 AM 1.9 35.42 0.042 6.86 2.36 14.23
12/23/2021 9:00:00 AM 1.9 35.42 0.042 6.86 2.45 14.29
12/23/2021 9:15:00 AM 1.89 35.402 0.042 6.88 2.46 14.32
12/23/2021 9:30:00 AM 1.89 35.402 0.042 6.82 2.51 14.36
12/23/2021 9:45:00 AM 1.89 35.402 0.042 6.91 2.44 14.4
12/23/2021 10:00:00 AM 1.92 35.456 0.042 6.92 2.39 14.43
12/23/2021 10:15:00 AM 1.93 35.474 0.042 6.94 2.35 14.46
12/23/2021 10:30:00 AM 1.99 35.582 0.042 6.94 2.58 14.48
12/23/2021 10:45:00 AM 2.04 35.672 0.042 6.87 2.39 14.5
12/23/2021 11:00:00 AM 2.08 35.744 0.042 6.97 2.44 14.52
12/23/2021 11:15:00 AM 2.16 35.888 0.042 6.89 2.42 14.51
12/23/2021 11:30:00 AM 2.19 35.942 0.042 6.93 2.55 14.51
12/23/2021 11:45:00 AM 2.21 35.978 0.042 6.99 2.48 14.5
12/23/2021 12:00:00 PM 2.24 36.032 0.042 6.99 2.55 14.48
12/23/2021 12:15:00 PM 2.28 36.104 0.042 6.99 2.5 14.45
12/23/2021 12:30:00 PM 2.34 36.212 0.041 6.97 2.59 14.44
12/23/2021 12:45:00 PM 2.41 36.338 0.041 6.98 2.57 14.41
12/23/2021 1:00:00 PM 2.47 36.446 0.041 6.94 2.5 14.37
12/23/2021 1:15:00 PM 2.54 36.572 0.041 6.98 2.41 14.34
12/23/2021 1:30:00 PM 2.6 36.68 0.041 6.93 2.48 14.31
12/23/2021 1:45:00 PM 2.68 36.824 0.039 6.98 5.21 14.29
12/23/2021 2:00:00 PM 2.73 36.914 0.041 7 2.55 14.27
12/23/2021 2:15:00 PM 2.78 37.004 0.041 6.99 2.44 14.25
12/23/2021 2:30:00 PM 2.84 37.112 0.041 6.99 2.47 14.24
12/23/2021 2:45:00 PM 2.87 37.166 0.041 6.9 2.39 14.22
12/23/2021 3:00:00 PM 2.9 37.22 0.041 6.98 2.46 14.21
12/23/2021 3:15:00 PM 2.92 37.256 0.041 7 2.52 14.19
12/23/2021 3:30:00 PM 2.92 37.256 0.041 6.98 2.6 14.16
12/23/2021 3:45:00 PM 2.93 37.274 0.041 6.99 2.44 14.12
12/23/2021 4:00:00 PM 2.91 37.238 0.041 6.98 2.51 14.09
12/23/2021 4:15:00 PM 2.89 37.202 0.041 6.96 2.4 14.04
12/23/2021 4:30:00 PM 2.88 37.184 0.041 6.94 2.51 13.98
12/23/2021 4:45:00 PM 2.86 37.148 0.042 6.93 2.55 13.92
12/23/2021 5:00:00 PM 2.85 37.13 0.042 6.87 2.63 13.87
12/23/2021 5:15:00 PM 2.84 37.112 0.042 6.9 2.49 13.82
12/23/2021 5:30:00 PM 2.83 37.094 0.042 6.88 2.54 13.78
12/23/2021 5:45:00 PM 2.82 37.076 0.04 6.89 5.18 13.75
12/23/2021 6:00:00 PM 2.75 36.95 0.04 6.85 6.96 13.73
12/23/2021 6:15:00 PM 2.73 36.914 0.042 6.81 2.41 13.72
12/23/2021 6:30:00 PM 2.75 36.95 0.042 6.78 2.69 13.71
12/23/2021 6:45:00 PM 2.73 36.914 0.042 6.78 2.3 13.71
12/23/2021 7:00:00 PM 2.72 36.896 0.042 6.84 2.33 13.71
12/23/2021 7:15:00 PM 2.71 36.878 0.04 6.81 5.08 13.7
12/23/2021 7:30:00 PM 2.72 36.896 0.04 6.8 5.12 13.7
12/23/2021 7:45:00 PM 2.73 36.914 0.04 6.82 5.12 13.69
12/23/2021 8:00:00 PM 2.73 36.914 0.04 6.81 5.1 13.69
12/23/2021 8:15:00 PM 2.74 36.932 0.042 6.82 2.3 13.68
12/23/2021 8:30:00 PM 2.74 36.932 0.04 6.79 5.16 13.68
12/23/2021 8:45:00 PM 2.74 36.932 0.04 6.8 5.25 13.67
12/23/2021 9:00:00 PM 2.75 36.95 0.04 6.8 5.28 13.67
12/23/2021 9:15:00 PM 2.75 36.95 0.04 6.8 5.08 13.67
12/23/2021 9:30:00 PM 2.74 36.932 0.04 6.79 5.17 13.67
12/23/2021 9:45:00 PM 2.74 36.932 0.04 6.79 5.06 13.67
12/23/2021 10:00:00 PM 2.73 36.914 0.042 6.81 2.33 13.67
12/23/2021 10:15:00 PM 2.72 36.896 0.04 6.79 4.96 13.67
12/23/2021 10:30:00 PM 2.72 36.896 0.042 6.81 2.41 13.67
12/23/2021 10:45:00 PM 2.72 36.896 0.042 6.82 2.39 13.66
12/23/2021 11:00:00 PM 2.72 36.896 0.042 6.74 2.32 13.66
12/23/2021 11:15:00 PM 2.71 36.878 0.042 6.81 2.26 13.67
12/23/2021 11:30:00 PM 2.69 36.842 0.04 6.79 5.31 13.66
12/23/2021 11:45:00 PM 2.64 36.752 0.042 6.82 2.3 13.66
12/24/2021 12:00:00 AM 2.59 36.662 0.042 6.82 2.26 13.66
12/24/2021 12:15:00 AM 2.58 36.644 0.042 6.82 2.3 13.66
12/24/2021 12:30:00 AM 2.57 36.626 0.042 6.81 2.27 13.67
12/24/2021 12:45:00 AM 2.58 36.644 0.042 6.82 2.28 13.68
12/24/2021 1:00:00 AM 2.57 36.626 0.042 6.82 2.33 13.68
12/24/2021 1:15:00 AM 2.58 36.644 0.042 6.82 2.26 13.69
12/24/2021 1:30:00 AM 2.59 36.662 0.042 6.82 2.27 13.69
12/24/2021 1:45:00 AM 2.59 36.662 0.042 6.81 2.36 13.68
12/24/2021 2:00:00 AM 2.6 36.68 0.042 6.82 2.43 13.69
12/24/2021 2:15:00 AM 2.6 36.68 0.042 6.82 2.27 13.68
12/24/2021 2:30:00 AM 2.61 36.698 0.042 6.81 2.21 13.68
12/24/2021 2:45:00 AM 2.62 36.716 0.042 6.72 2.29 13.68
12/24/2021 3:00:00 AM 2.64 36.752 0.042 6.81 2.26 13.67
12/24/2021 3:15:00 AM 2.65 36.77 0.042 6.81 2.3 13.67
12/24/2021 3:30:00 AM 2.65 36.77 0.042 6.81 2.35 13.67
12/24/2021 3:45:00 AM 2.66 36.788 0.04 6.8 5.11 13.67
12/24/2021 4:00:00 AM 2.66 36.788 0.042 6.77 2.23 13.67
12/24/2021 4:15:00 AM 2.66 36.788 0.042 6.81 2.27 13.67
12/24/2021 4:30:00 AM 2.67 36.806 0.042 6.81 2.39 13.67
12/24/2021 4:45:00 AM 2.67 36.806 0.042 6.81 2.33 13.67
12/24/2021 5:00:00 AM 2.68 36.824 0.04 6.82 5.19 13.67
12/24/2021 5:15:00 AM 2.69 36.842 0.042 6.81 2.39 13.67
12/24/2021 5:30:00 AM 2.71 36.878 0.042 6.81 2.2 13.66
12/24/2021 5:45:00 AM 2.72 36.896 0.04 6.83 5.25 13.66
12/24/2021 6:00:00 AM 2.74 36.932 0.04 6.8 5.26 13.66
12/24/2021 6:15:00 AM 2.75 36.95 0.04 6.78 5.13 13.65
12/24/2021 6:30:00 AM 2.77 36.986 0.042 6.8 2.25 13.65
12/24/2021 6:45:00 AM 2.78 37.004 0.04 6.78 5.15 13.65
12/24/2021 7:00:00 AM 2.79 37.022 0.04 6.79 4.95 13.65
12/24/2021 7:15:00 AM 2.8 37.04 0.04 6.78 5.11 13.64
12/24/2021 7:30:00 AM 2.81 37.058 0.042 6.81 2.34 13.64
12/24/2021 7:45:00 AM 2.82 37.076 0.042 6.73 2.42 13.65
12/24/2021 8:00:00 AM 2.84 37.112 0.042 6.81 2.26 13.65
12/24/2021 8:15:00 AM 2.85 37.13 0.042 6.81 2.26 13.66
12/24/2021 8:30:00 AM 2.87 37.166 0.042 6.82 2.25 13.68
12/24/2021 8:45:00 AM 2.89 37.202 0.042 6.83 2.23 13.71
12/24/2021 9:00:00 AM 2.91 37.238 0.042 6.8 2.37 13.74
12/24/2021 9:15:00 AM 2.94 37.292 0.042 6.85 2.24 13.78
12/24/2021 9:30:00 AM 2.97 37.346 0.042 6.82 2.43 13.83
12/24/2021 9:45:00 AM 3 37.4 0.042 6.87 2.24 13.86
12/24/2021 10:00:00 AM 3.03 37.454 0.042 6.88 2.26 13.9
12/24/2021 10:15:00 AM 3.07 37.526 0.042 6.9 2.23 13.95
12/24/2021 10:30:00 AM 3.12 37.616 0.042 6.92 2.42 13.98
12/24/2021 10:45:00 AM 3.18 37.724 0.042 6.96 2.39 14.01
12/24/2021 11:00:00 AM 3.25 37.85 0.042 6.95 2.31 14.01
12/24/2021 11:15:00 AM 3.32 37.976 0.039 6.94 5.06 14.03
12/24/2021 11:30:00 AM 3.39 38.102 0.041 6.92 2.22 14.02
12/24/2021 11:45:00 AM 3.44 38.192 0.041 6.98 2.23 13.99
12/24/2021 12:00:00 PM 3.48 38.264 0.041 6.91 2.33 13.95
12/24/2021 12:15:00 PM 3.55 38.39 0.041 6.98 2.42 13.94
12/24/2021 12:30:00 PM 3.61 38.498 0.041 6.98 2.28 13.92
12/24/2021 12:45:00 PM 3.66 38.588 0.041 6.98 2.21 13.89
12/24/2021 1:00:00 PM 3.75 38.75 0.041 6.99 2.21 13.88
12/24/2021 1:15:00 PM 3.84 38.912 0.041 6.99 2.12 13.87
12/24/2021 1:30:00 PM 3.89 39.002 0.041 7 2.23 13.84
12/24/2021 1:45:00 PM 3.96 39.128 0.041 6.99 2.4 13.81
12/24/2021 2:00:00 PM 4.04 39.272 0.041 7 2.12 13.79
12/24/2021 2:15:00 PM 4.11 39.398 0.041 7 2.2 13.76
12/24/2021 2:30:00 PM 4.17 39.506 0.041 7 2.47 13.73
12/24/2021 2:45:00 PM 4.22 39.596 0.041 6.99 2.27 13.7
12/24/2021 3:00:00 PM 4.27 39.686 0.041 6.97 2.29 13.67
12/24/2021 3:15:00 PM 4.3 39.74 0.041 7 2.25 13.63
12/24/2021 3:30:00 PM 4.33 39.794 0.041 6.96 2.25 13.61
12/24/2021 3:45:00 PM 4.35 39.83 0.041 6.99 2.41 13.58
12/24/2021 4:00:00 PM 4.37 39.866 0.041 6.94 2.18 13.55
12/24/2021 4:15:00 PM 4.37 39.866 0.041 6.97 2.18 13.48
12/24/2021 4:30:00 PM 4.37 39.866 0.041 6.95 2.2 13.42
12/24/2021 4:45:00 PM 4.35 39.83 0.041 6.93 2.23 13.35
12/24/2021 5:00:00 PM 4.32 39.776 0.041 6.9 2.23 13.29
12/24/2021 5:15:00 PM 4.29 39.722 0.041 6.8 2.3 13.24
12/24/2021 5:30:00 PM 4.27 39.686 0.042 6.87 2.29 13.2
12/24/2021 5:45:00 PM 4.26 39.668 0.042 6.85 2.53 13.17
12/24/2021 6:00:00 PM 4.25 39.65 0.042 6.75 2.28 13.14
12/24/2021 6:15:00 PM 4.24 39.632 0.042 6.83 2.31 13.13
12/24/2021 6:30:00 PM 4.24 39.632 0.042 6.74 2.26 13.11
12/24/2021 6:45:00 PM 4.24 39.632 0.042 6.82 2.32 13.1
12/24/2021 7:00:00 PM 4.24 39.632 0.042 6.74 2.2 13.1
12/24/2021 7:15:00 PM 4.24 39.632 0.042 6.77 2.18 13.09
12/24/2021 7:30:00 PM 4.24 39.632 0.042 6.8 2.32 13.09
12/24/2021 7:45:00 PM 4.25 39.65 0.042 6.75 2.25 13.08
12/24/2021 8:00:00 PM 4.26 39.668 0.042 6.8 2.28 13.07
12/24/2021 8:15:00 PM 4.26 39.668 0.042 6.7 2.36 13.07
12/24/2021 8:30:00 PM 4.26 39.668 0.042 6.8 2.33 13.07
12/24/2021 8:45:00 PM 4.27 39.686 0.042 6.79 2.27 13.06
12/24/2021 9:00:00 PM 4.27 39.686 0.042 6.79 2.24 13.06
12/24/2021 9:15:00 PM 4.27 39.686 0.042 6.79 2.27 13.06
12/24/2021 9:30:00 PM 4.27 39.686 0.042 6.74 2.24 13.05
12/24/2021 9:45:00 PM 4.27 39.686 0.042 6.79 2.33 13.05
12/24/2021 10:00:00 PM 4.27 39.686 0.042 6.79 2.24 13.05
12/24/2021 10:15:00 PM 4.27 39.686 0.042 6.78 2.29 13.05
12/24/2021 10:30:00 PM 4.26 39.668 0.042 6.79 2.28 13.05
12/24/2021 10:45:00 PM 4.26 39.668 0.042 6.79 2.27 13.05
12/24/2021 11:00:00 PM 4.26 39.668 0.042 6.78 2.3 13.04
12/24/2021 11:15:00 PM 4.26 39.668 0.042 6.79 2.27 13.04
12/24/2021 11:30:00 PM 4.26 39.668 0.042 6.68 2.29 13.04
12/24/2021 11:45:00 PM 4.26 39.668 0.042 6.79 2.22 13.04
12/25/2021 12:00:00 AM 4.26 39.668 0.042 6.79 2.26 13.03
12/25/2021 12:15:00 AM 4.27 39.686 0.042 6.79 2.23 13.03
12/25/2021 12:30:00 AM 4.27 39.686 0.042 6.69 2.29 13.03
12/25/2021 12:45:00 AM 4.27 39.686 0.042 6.79 2.24 13.02
12/25/2021 1:00:00 AM 4.28 39.704 0.042 6.79 2.28 13.02
12/25/2021 1:15:00 AM 4.28 39.704 0.042 6.79 2.27 13.01
12/25/2021 1:30:00 AM 4.29 39.722 0.042 6.68 2.28 13.01
12/25/2021 1:45:00 AM 4.29 39.722 0.042 6.75 2.24 13
12/25/2021 2:00:00 AM 4.3 39.74 0.042 6.74 2.28 13
12/25/2021 2:15:00 AM 4.31 39.758 0.042 6.79 2.24 12.99
12/25/2021 2:30:00 AM 4.31 39.758 0.042 6.79 2.24 12.99
12/25/2021 2:45:00 AM 4.32 39.776 0.042 6.78 2.25 12.98
12/25/2021 3:00:00 AM 4.32 39.776 0.042 6.73 2.37 12.98
12/25/2021 3:15:00 AM 4.33 39.794 0.042 6.73 2.26 12.97
12/25/2021 3:30:00 AM 4.34 39.812 0.042 6.77 2.24 12.97
12/25/2021 3:45:00 AM 4.34 39.812 0.042 6.78 2.25 12.97
12/25/2021 4:00:00 AM 4.35 39.83 0.042 6.68 2.26 12.96
12/25/2021 4:15:00 AM 4.36 39.848 0.042 6.78 2.28 12.96
12/25/2021 4:30:00 AM 4.36 39.848 0.042 6.78 2.52 12.95
12/25/2021 4:45:00 AM 4.36 39.848 0.042 6.78 2.22 12.95
12/25/2021 5:00:00 AM 4.37 39.866 0.042 6.77 2.28 12.94
12/25/2021 5:15:00 AM 4.38 39.884 0.042 6.76 2.33 12.93
12/25/2021 5:30:00 AM 4.38 39.884 0.042 6.77 2.28 12.93
12/25/2021 5:45:00 AM 4.38 39.884 0.042 6.71 2.28 12.93
12/25/2021 6:00:00 AM 4.39 39.902 0.042 6.78 2.32 12.92
12/25/2021 6:15:00 AM 4.39 39.902 0.042 6.77 2.41 12.92
12/25/2021 6:30:00 AM 4.4 39.92 0.042 6.74 2.3 12.92
12/25/2021 6:45:00 AM 4.41 39.938 0.042 6.78 2.34 12.91
12/25/2021 7:00:00 AM 4.41 39.938 0.042 6.77 2.37 12.91
12/25/2021 7:15:00 AM 4.42 39.956 0.042 6.76 2.29 12.9
12/25/2021 7:30:00 AM 4.42 39.956 0.042 6.77 2.31 12.9
12/25/2021 7:45:00 AM 4.43 39.974 0.042 6.78 2.33 12.9
12/25/2021 8:00:00 AM 4.43 39.974 0.042 6.77 2.33 12.9
12/25/2021 8:15:00 AM 4.43 39.974 0.042 6.65 2.34 12.91
12/25/2021 8:30:00 AM 4.44 39.992 0.042 6.78 2.38 12.92
12/25/2021 8:45:00 AM 4.45 40.01 0.042 6.75 2.4 12.93
12/25/2021 9:00:00 AM 4.45 40.01 0.042 6.79 2.39 12.95
12/25/2021 9:15:00 AM 4.46 40.028 0.042 6.79 2.42 12.97
12/25/2021 9:30:00 AM 4.47 40.046 0.042 6.8 2.34 13
12/25/2021 9:45:00 AM 4.49 40.082 0.042 6.8 2.48 13.04
12/25/2021 10:00:00 AM 4.51 40.118 0.042 6.78 2.49 13.09
12/25/2021 10:15:00 AM 4.53 40.154 0.042 6.84 2.36 13.13
12/25/2021 10:30:00 AM 4.56 40.208 0.042 6.85 2.44 13.18
12/25/2021 10:45:00 AM 4.58 40.244 0.042 6.87 2.58 13.2
12/25/2021 11:00:00 AM 4.61 40.298 0.042 6.89 2.39 13.22
12/25/2021 11:15:00 AM 4.64 40.352 0.041 6.9 2.42 13.22
12/25/2021 11:30:00 AM 4.66 40.388 0.041 6.9 2.47 13.22
12/25/2021 11:45:00 AM 4.68 40.424 0.041 6.89 2.38 13.2
12/25/2021 12:00:00 PM 4.7 40.46 0.041 6.91 2.34 13.18
12/25/2021 12:15:00 PM 4.74 40.532 0.041 6.91 2.45 13.2
12/25/2021 12:30:00 PM 4.78 40.604 0.041 6.88 2.38 13.22
12/25/2021 12:45:00 PM 4.83 40.694 0.041 6.94 2.46 13.23
12/25/2021 1:00:00 PM 4.88 40.784 0.041 6.94 2.42 13.24
12/25/2021 1:15:00 PM 4.92 40.856 0.041 6.93 2.41 13.23
12/25/2021 1:30:00 PM 4.96 40.928 0.041 6.95 2.42 13.22
12/25/2021 1:45:00 PM 5.02 41.036 0.041 6.88 2.46 13.23
12/25/2021 2:00:00 PM 5.07 41.126 0.041 6.97 2.41 13.22
12/25/2021 2:15:00 PM 5.13 41.234 0.041 6.87 2.46 13.21
12/25/2021 2:30:00 PM 5.16 41.288 0.041 6.97 2.42 13.18
12/25/2021 2:45:00 PM 5.19 41.342 0.041 6.86 2.47 13.12
12/25/2021 3:00:00 PM 5.22 41.396 0.041 6.94 2.38 13.08
12/25/2021 3:15:00 PM 5.25 41.45 0.041 6.94 2.51 13.06
12/25/2021 3:30:00 PM 5.28 41.504 0.041 6.93 2.5 13.03
12/25/2021 3:45:00 PM 5.31 41.558 0.041 6.91 2.47 12.98
12/25/2021 4:00:00 PM 5.33 41.594 0.041 6.91 2.47 12.93
12/25/2021 4:15:00 PM 5.34 41.612 0.041 6.88 2.49 12.87
12/25/2021 4:30:00 PM 5.36 41.648 0.041 6.79 2.49 12.82
12/25/2021 4:45:00 PM 5.37 41.666 0.042 6.85 2.5 12.77
12/25/2021 5:00:00 PM 5.37 41.666 0.042 6.82 2.42 12.73
12/25/2021 5:15:00 PM 5.38 41.684 0.042 6.78 2.44 12.69
12/25/2021 5:30:00 PM 5.39 41.702 0.042 6.76 2.55 12.66
12/25/2021 5:45:00 PM 5.39 41.702 0.042 6.78 2.53 12.64
12/25/2021 6:00:00 PM 5.4 41.72 0.042 6.78 2.48 12.63
12/25/2021 6:15:00 PM 5.4 41.72 0.042 6.73 2.49 12.62
12/25/2021 6:30:00 PM 5.41 41.738 0.042 6.77 2.45 12.61
12/25/2021 6:45:00 PM 5.43 41.774 0.042 6.77 2.42 12.6
12/25/2021 7:00:00 PM 5.44 41.792 0.042 6.76 2.5 12.6
12/25/2021 7:15:00 PM 5.44 41.792 0.042 6.69 2.48 12.59
12/25/2021 7:30:00 PM 5.46 41.828 0.042 6.76 2.41 12.59
12/25/2021 7:45:00 PM 5.46 41.828 0.042 6.72 2.44 12.59
12/25/2021 8:00:00 PM 5.46 41.828 0.042 6.76 2.41 12.59
12/25/2021 8:15:00 PM 5.46 41.828 0.042 6.75 2.41 12.59
12/25/2021 8:30:00 PM 5.46 41.828 0.042 6.76 2.4 12.59
12/25/2021 8:45:00 PM 5.48 41.864 0.042 6.67 2.38 12.59
12/25/2021 9:00:00 PM 5.49 41.882 0.042 6.76 2.35 12.59
12/25/2021 9:15:00 PM 5.5 41.9 0.042 6.76 2.38 12.59
12/25/2021 9:30:00 PM 5.51 41.918 0.042 6.76 2.39 12.58
12/25/2021 9:45:00 PM 5.51 41.918 0.042 6.67 2.36 12.58
12/25/2021 10:00:00 PM 5.52 41.936 0.042 6.72 2.45 12.58
12/25/2021 10:15:00 PM 5.52 41.936 0.042 6.76 2.35 12.59
12/25/2021 10:30:00 PM 5.52 41.936 0.042 6.69 2.34 12.59
12/25/2021 10:45:00 PM 5.52 41.936 0.042 6.71 2.37 12.59
12/25/2021 11:00:00 PM 5.51 41.918 0.042 6.77 2.35 12.6
12/25/2021 11:15:00 PM 5.49 41.882 0.042 6.69 2.32 12.61
12/25/2021 11:30:00 PM 5.47 41.846 0.042 6.71 2.37 12.62
12/25/2021 11:45:00 PM 5.46 41.828 0.042 6.77 2.4 12.62
12/26/2021 12:00:00 AM 5.45 41.81 0.042 6.74 2.36 12.63
12/26/2021 12:15:00 AM 5.43 41.774 0.042 6.77 2.28 12.64
12/26/2021 12:30:00 AM 5.41 41.738 0.042 6.77 2.38 12.65
12/26/2021 12:45:00 AM 5.4 41.72 0.042 6.69 2.35 12.65
12/26/2021 1:00:00 AM 5.39 41.702 0.042 6.77 2.32 12.66
12/26/2021 1:15:00 AM 5.38 41.684 0.042 6.77 2.27 12.66
12/26/2021 1:30:00 AM 5.37 41.666 0.042 6.72 2.41 12.67
12/26/2021 1:45:00 AM 5.35 41.63 0.042 6.77 2.38 12.67
12/26/2021 2:00:00 AM 5.34 41.612 0.042 6.73 2.3 12.68
12/26/2021 2:15:00 AM 5.32 41.576 0.042 6.77 2.35 12.69
12/26/2021 2:30:00 AM 5.31 41.558 0.042 6.73 2.28 12.7
12/26/2021 2:45:00 AM 5.3 41.54 0.042 6.69 2.3 12.7
12/26/2021 3:00:00 AM 5.29 41.522 0.042 6.77 2.35 12.71
12/26/2021 3:15:00 AM 5.27 41.486 0.042 6.7 2.3 12.72
12/26/2021 3:30:00 AM 5.26 41.468 0.042 6.77 2.3 12.73
12/26/2021 3:45:00 AM 5.24 41.432 0.042 6.68 2.37 12.73
12/26/2021 4:00:00 AM 5.22 41.396 0.042 6.77 2.46 12.74
12/26/2021 4:15:00 AM 5.2 41.36 0.042 6.77 2.41 12.75
12/26/2021 4:30:00 AM 5.18 41.324 0.042 6.77 2.3 12.76
12/26/2021 4:45:00 AM 5.16 41.288 0.042 6.77 2.32 12.76
12/26/2021 5:00:00 AM 5.14 41.252 0.042 6.77 2.4 12.77
12/26/2021 5:15:00 AM 5.11 41.198 0.042 6.69 2.3 12.78
12/26/2021 5:30:00 AM 5.06 41.108 0.042 6.77 2.35 12.79
12/26/2021 5:45:00 AM 5.02 41.036 0.042 6.78 2.37 12.81
12/26/2021 6:00:00 AM 4.97 40.946 0.042 6.78 2.45 12.83
12/26/2021 6:15:00 AM 4.93 40.874 0.042 6.78 2.4 12.84
12/26/2021 6:30:00 AM 4.9 40.82 0.042 6.78 2.27 12.85
12/26/2021 6:45:00 AM 4.88 40.784 0.042 6.74 2.34 12.86
12/26/2021 7:00:00 AM 4.84 40.712 0.042 6.73 2.26 12.87
12/26/2021 7:15:00 AM 4.81 40.658 0.042 6.78 2.48 12.88
12/26/2021 7:30:00 AM 4.77 40.586 0.042 6.73 2.29 12.89
12/26/2021 7:45:00 AM 4.73 40.514 0.042 6.73 2.33 12.92
12/26/2021 8:00:00 AM 4.69 40.442 0.042 6.73 2.34 12.96
12/26/2021 8:15:00 AM 4.65 40.37 0.042 6.8 2.42 13.01
12/26/2021 8:30:00 AM 4.61 40.298 0.042 6.81 2.28 13.06
12/26/2021 8:45:00 AM 4.57 40.226 0.042 6.82 2.29 13.13
12/26/2021 9:00:00 AM 4.54 40.172 0.042 6.84 2.51 13.2
12/26/2021 9:15:00 AM 4.53 40.154 0.042 6.86 2.26 13.28
12/26/2021 9:30:00 AM 4.51 40.118 0.042 6.85 2.3 13.33
12/26/2021 9:45:00 AM 4.5 40.1 0.042 6.89 2.23 13.38
12/26/2021 10:00:00 AM 4.5 40.1 0.042 6.9 2.24 13.42
12/26/2021 10:15:00 AM 4.5 40.1 0.042 6.91 2.24 13.46
12/26/2021 10:30:00 AM 4.49 40.082 0.042 6.93 2.21 13.48
12/26/2021 10:45:00 AM 4.5 40.1 0.042 6.94 2.22 13.5
12/26/2021 11:00:00 AM 4.51 40.118 0.042 6.93 2.15 13.52
12/26/2021 11:15:00 AM 4.55 40.19 0.042 6.96 2.19 13.55
12/26/2021 11:30:00 AM 4.62 40.316 0.042 6.89 2.22 13.56
12/26/2021 11:45:00 AM 4.65 40.37 0.042 6.98 2.24 13.57
12/26/2021 12:00:00 PM 4.69 40.442 0.042 6.99 2.27 13.57
12/26/2021 12:15:00 PM 4.72 40.496 0.039 6.99 4.96 13.57
12/26/2021 12:30:00 PM 4.76 40.568 0.042 7 2.22 13.56
12/26/2021 12:45:00 PM 4.8 40.64 0.042 7.01 2.22 13.57
12/26/2021 1:00:00 PM 4.86 40.748 0.041 7.02 2.19 13.56
12/26/2021 1:15:00 PM 4.89 40.802 0.041 6.94 2.28 13.55
12/26/2021 1:30:00 PM 4.93 40.874 0.041 6.97 2.21 13.53
12/26/2021 1:45:00 PM 4.98 40.964 0.041 6.99 2.18 13.53
12/26/2021 2:00:00 PM 5 41 0.041 7.03 2.39 13.51
12/26/2021 2:15:00 PM 5.04 41.072 0.041 7.03 2.25 13.5
12/26/2021 2:30:00 PM 5.05 41.09 0.041 7.03 2.27 13.49
12/26/2021 2:45:00 PM 5.05 41.09 0.041 7.03 2.23 13.48
12/26/2021 3:00:00 PM 5.05 41.09 0.041 7.03 2.23 13.46
12/26/2021 3:15:00 PM 5.03 41.054 0.041 7.02 2.25 13.43
12/26/2021 3:30:00 PM 4.98 40.964 0.041 7 2.23 13.4
12/26/2021 3:45:00 PM 4.95 40.91 0.041 6.95 2.25 13.4
12/26/2021 4:00:00 PM 4.95 40.91 0.041 6.99 2.33 13.36
12/26/2021 4:15:00 PM 4.9 40.82 0.041 6.97 2.29 13.32
12/26/2021 4:30:00 PM 4.87 40.766 0.042 6.95 2.28 13.27
12/26/2021 4:45:00 PM 4.83 40.694 0.042 6.93 2.37 13.22
12/26/2021 5:00:00 PM 4.78 40.604 0.042 6.91 2.32 13.16
12/26/2021 5:15:00 PM 4.73 40.514 0.042 6.79 2.39 13.13
12/26/2021 5:30:00 PM 4.67 40.406 0.042 6.87 2.39 13.11
12/26/2021 5:45:00 PM 4.62 40.316 0.042 6.84 2.25 13.1
12/26/2021 6:00:00 PM 4.56 40.208 0.042 6.77 2.29 13.09
12/26/2021 6:15:00 PM 4.49 40.082 0.042 6.8 2.28 13.1
12/26/2021 6:30:00 PM 4.42 39.956 0.042 6.82 2.35 13.11
12/26/2021 6:45:00 PM 4.36 39.848 0.042 6.81 2.27 13.13
12/26/2021 7:00:00 PM 4.3 39.74 0.042 6.83 2.34 13.14
12/26/2021 7:15:00 PM 4.24 39.632 0.042 6.82 2.21 13.16
12/26/2021 7:30:00 PM 4.19 39.542 0.042 6.81 2.47 13.17
12/26/2021 7:45:00 PM 4.14 39.452 0.042 6.75 2.24 13.18
12/26/2021 8:00:00 PM 4.09 39.362 0.042 6.81 2.42 13.19
12/26/2021 8:15:00 PM 4.04 39.272 0.042 6.81 2.34 13.21
12/26/2021 8:30:00 PM 4 39.2 0.042 6.81 2.34 13.22
12/26/2021 8:45:00 PM 3.96 39.128 0.042 6.74 2.26 13.23
12/26/2021 9:00:00 PM 3.94 39.092 0.042 6.81 2.38 13.24
12/26/2021 9:15:00 PM 3.91 39.038 0.043 6.8 2.27 13.26
12/26/2021 9:30:00 PM 3.9 39.02 0.043 6.79 2.42 13.27
12/26/2021 9:45:00 PM 3.87 38.966 0.043 6.8 2.32 13.28
12/26/2021 10:00:00 PM 3.86 38.948 0.043 6.81 2.35 13.29
12/26/2021 10:15:00 PM 3.84 38.912 0.043 6.8 2.29 13.3
12/26/2021 10:30:00 PM 3.82 38.876 0.043 6.74 2.32 13.3
12/26/2021 10:45:00 PM 3.81 38.858 0.043 6.81 2.42 13.31
12/26/2021 11:00:00 PM 3.8 38.84 0.043 6.81 2.29 13.32
12/26/2021 11:15:00 PM 3.78 38.804 0.043 6.74 2.37 13.32
12/26/2021 11:30:00 PM 3.76 38.768 0.043 6.77 2.42 13.34
12/26/2021 11:45:00 PM 3.75 38.75 0.043 6.81 2.32 13.34
12/27/2021 12:00:00 AM 3.73 38.714 0.043 6.8 2.33 13.34
12/27/2021 12:15:00 AM 3.73 38.714 0.043 6.8 2.33 13.35
12/27/2021 12:30:00 AM 3.72 38.696 0.043 6.81 2.33 13.35
12/27/2021 12:45:00 AM 3.71 38.678 0.043 6.71 2.37 13.36
12/27/2021 1:00:00 AM 3.7 38.66 0.043 6.81 2.36 13.37
12/27/2021 1:15:00 AM 3.69 38.642 0.043 6.8 2.31 13.37
12/27/2021 1:30:00 AM 3.67 38.606 0.043 6.73 2.32 13.37
12/27/2021 1:45:00 AM 3.65 38.57 0.043 6.8 2.31 13.38
12/27/2021 2:00:00 AM 3.63 38.534 0.043 6.81 2.37 13.37
12/27/2021 2:15:00 AM 3.6 38.48 0.043 6.72 2.34 13.39
12/27/2021 2:30:00 AM 3.58 38.444 0.043 6.74 2.36 13.4
12/27/2021 2:45:00 AM 3.55 38.39 0.043 6.81 2.43 13.41
12/27/2021 3:00:00 AM 3.52 38.336 0.043 6.81 2.39 13.4
12/27/2021 3:15:00 AM 3.49 38.282 0.043 6.74 2.33 13.41
12/27/2021 3:30:00 AM 3.47 38.246 0.043 6.81 2.37 13.44
12/27/2021 3:45:00 AM 3.45 38.21 0.043 6.81 2.3 13.43
12/27/2021 4:00:00 AM 3.43 38.174 0.043 6.8 2.31 13.44
12/27/2021 4:15:00 AM 3.42 38.156 0.043 6.79 2.28 13.44
12/27/2021 4:30:00 AM 3.41 38.138 0.043 6.81 2.51 13.46
12/27/2021 4:45:00 AM 3.4 38.12 0.043 6.73 2.31 13.46
12/27/2021 5:00:00 AM 3.39 38.102 0.043 6.74 2.42 13.45
12/27/2021 5:15:00 AM 3.38 38.084 0.043 6.75 2.42 13.46
12/27/2021 5:30:00 AM 3.36 38.048 0.043 6.8 2.4 13.47
12/27/2021 5:45:00 AM 3.35 38.03 0.04 6.78 5.12 13.46
12/27/2021 6:00:00 AM 3.35 38.03 0.041 6.76 5.15 13.46
12/27/2021 6:15:00 AM 3.34 38.012 0.043 6.8 2.38 13.48
12/27/2021 6:30:00 AM 3.33 37.994 0.043 6.8 2.34 13.47
12/27/2021 6:45:00 AM 3.32 37.976 0.04 6.77 5.03 13.47
12/27/2021 7:00:00 AM 3.31 37.958 0.043 6.8 2.29 13.47
12/27/2021 7:15:00 AM 3.31 37.958 0.043 6.8 2.38 13.48
12/27/2021 7:30:00 AM 3.3 37.94 0.043 6.72 2.35 13.48
12/27/2021 7:45:00 AM 3.3 37.94 0.043 6.81 2.29 13.49
12/27/2021 8:00:00 AM 3.3 37.94 0.043 6.75 2.3 13.49
12/27/2021 8:15:00 AM 3.3 37.94 0.043 6.8 2.33 13.5
12/27/2021 8:30:00 AM 3.29 37.922 0.043 6.72 2.33 13.51
12/27/2021 8:45:00 AM 3.29 37.922 0.043 6.76 2.3 13.52
12/27/2021 9:00:00 AM 3.24 37.832 0.043 6.81 2.32 13.54
12/27/2021 9:15:00 AM 3.19 37.742 0.043 6.77 2.3 13.57
12/27/2021 9:30:00 AM 3.15 37.67 0.043 6.83 2.3 13.63
12/27/2021 9:45:00 AM 3.15 37.67 0.043 6.77 2.4 13.7
12/27/2021 10:00:00 AM 3.16 37.688 0.042 6.87 2.33 13.78
12/27/2021 10:15:00 AM 3.18 37.724 0.042 6.9 2.65 13.85
12/27/2021 10:30:00 AM 3.19 37.742 0.042 6.91 2.31 13.89
12/27/2021 10:45:00 AM 3.22 37.796 0.042 6.93 2.28 13.93
12/27/2021 11:00:00 AM 3.25 37.85 0.042 6.89 2.37 13.96
12/27/2021 11:15:00 AM 3.28 37.904 0.042 6.96 2.38 13.98
12/27/2021 11:30:00 AM 3.32 37.976 0.042 6.97 2.29 13.98
12/27/2021 11:45:00 AM 3.35 38.03 0.042 6.94 2.32 13.98
12/27/2021 12:00:00 PM 3.32 37.976 0.042 6.99 2.4 13.97
12/27/2021 12:15:00 PM 3.35 38.03 0.042 6.91 2.47 13.95
12/27/2021 12:30:00 PM 3.37 38.066 0.042 6.99 2.29 13.92
12/27/2021 12:45:00 PM 3.38 38.084 0.042 6.98 2.43 13.88
12/27/2021 1:00:00 PM 3.38 38.084 0.04 6.96 5.26 13.88
12/27/2021 1:15:00 PM 3.38 38.084 0.042 6.98 2.26 13.88
12/27/2021 1:30:00 PM 3.39 38.102 0.042 6.97 2.26 13.87
12/27/2021 1:45:00 PM 3.39 38.102 0.04 6.86 5.1 13.83
12/27/2021 2:00:00 PM 3.41 38.138 0.042 6.97 2.29 13.79
12/27/2021 2:15:00 PM 3.42 38.156 0.042 6.97 2.23 13.77
12/27/2021 2:30:00 PM 3.44 38.192 0.042 6.94 2.31 13.74
12/27/2021 2:45:00 PM 3.45 38.21 0.042 6.95 2.25 13.73
12/27/2021 3:00:00 PM 3.46 38.228 0.042 6.87 2.23 13.69
12/27/2021 3:15:00 PM 3.47 38.246 0.042 6.88 2.22 13.67
12/27/2021 3:30:00 PM 3.48 38.264 0.042 6.93 2.23 13.63
12/27/2021 3:45:00 PM 3.47 38.246 0.042 6.91 2.27 13.6
12/27/2021 4:00:00 PM 3.48 38.264 0.042 6.91 2.25 13.57
12/27/2021 4:15:00 PM 3.48 38.264 0.04 6.75 4.99 13.53
12/27/2021 4:30:00 PM 3.48 38.264 0.042 6.89 2.26 13.49
12/27/2021 4:45:00 PM 3.48 38.264 0.042 6.87 2.35 13.46
12/27/2021 5:00:00 PM 3.48 38.264 0.042 6.87 2.25 13.43
12/27/2021 5:15:00 PM 3.48 38.264 0.042 6.86 2.22 13.4
12/27/2021 5:30:00 PM 3.49 38.282 0.042 6.84 2.28 13.37
12/27/2021 5:45:00 PM 3.5 38.3 0.04 6.82 5.18 13.35
12/27/2021 6:00:00 PM 3.51 38.318 0.042 6.74 2.26 13.35
12/27/2021 6:15:00 PM 3.51 38.318 0.042 6.83 2.25 13.33
12/27/2021 6:30:00 PM 3.51 38.318 0.042 6.83 2.27 13.32
12/27/2021 6:45:00 PM 3.52 38.336 0.042 6.82 2.27 13.32
12/27/2021 7:00:00 PM 3.52 38.336 0.042 6.81 2.29 13.31
12/27/2021 7:15:00 PM 3.53 38.354 0.04 6.68 5.12 13.3
12/27/2021 7:30:00 PM 3.53 38.354 0.042 6.82 2.34 13.3
12/27/2021 7:45:00 PM 3.54 38.372 0.042 6.74 2.32 13.29
12/27/2021 8:00:00 PM 3.54 38.372 0.042 6.75 2.37 13.29
12/27/2021 8:15:00 PM 3.55 38.39 0.042 6.81 2.33 13.28
12/27/2021 8:30:00 PM 3.55 38.39 0.043 6.73 2.31 13.28
12/27/2021 8:45:00 PM 3.56 38.408 0.043 6.81 2.33 13.27
12/27/2021 9:00:00 PM 3.56 38.408 0.043 6.81 2.26 13.27
12/27/2021 9:15:00 PM 3.56 38.408 0.043 6.81 2.25 13.26
12/27/2021 9:30:00 PM 3.57 38.426 0.043 6.81 2.34 13.26
12/27/2021 9:45:00 PM 3.57 38.426 0.043 6.8 2.28 13.26
12/27/2021 10:00:00 PM 3.58 38.444 0.043 6.81 2.28 13.26
12/27/2021 10:15:00 PM 3.58 38.444 0.043 6.81 2.31 13.25
12/27/2021 10:30:00 PM 3.58 38.444 0.043 6.71 2.24 13.26
12/27/2021 10:45:00 PM 3.59 38.462 0.043 6.81 2.25 13.25
12/27/2021 11:00:00 PM 3.6 38.48 0.043 6.8 2.33 13.24
12/27/2021 11:15:00 PM 3.6 38.48 0.043 6.78 2.26 13.25
12/27/2021 11:30:00 PM 3.61 38.498 0.043 6.81 2.29 13.24
12/27/2021 11:45:00 PM 3.61 38.498 0.043 6.81 2.3 13.23
12/28/2021 12:00:00 AM 3.62 38.516 0.043 6.79 2.27 13.23
12/28/2021 12:15:00 AM 3.63 38.534 0.043 6.74 2.28 13.23
12/28/2021 12:30:00 AM 3.63 38.534 0.043 6.81 2.26 13.24
12/28/2021 12:45:00 AM 3.64 38.552 0.043 6.81 2.27 13.23
12/28/2021 1:00:00 AM 3.65 38.57 0.043 6.8 2.27 13.24
12/28/2021 1:15:00 AM 3.66 38.588 0.043 6.73 2.23 13.24
12/28/2021 1:30:00 AM 3.67 38.606 0.043 6.79 2.28 13.22
12/28/2021 1:45:00 AM 3.69 38.642 0.043 6.75 2.28 13.22
12/28/2021 2:00:00 AM 3.7 38.66 0.043 6.81 2.29 13.22
12/28/2021 2:15:00 AM 3.7 38.66 0.043 6.8 2.29 13.22
12/28/2021 2:30:00 AM 3.71 38.678 0.043 6.8 2.37 13.22
12/28/2021 2:45:00 AM 3.73 38.714 0.043 6.72 2.3 13.21
12/28/2021 3:00:00 AM 3.73 38.714 0.043 6.8 2.28 13.22
12/28/2021 3:15:00 AM 3.72 38.696 0.043 6.71 2.25 13.21
12/28/2021 3:30:00 AM 3.71 38.678 0.043 6.76 2.25 13.22
12/28/2021 3:45:00 AM 3.7 38.66 0.043 6.8 2.3 13.21
12/28/2021 4:00:00 AM 3.68 38.624 0.043 6.8 2.27 13.21
12/28/2021 4:15:00 AM 3.67 38.606 0.043 6.8 2.27 13.22
12/28/2021 4:30:00 AM 3.66 38.588 0.043 6.79 2.27 13.22
12/28/2021 4:45:00 AM 3.64 38.552 0.043 6.8 2.25 13.23
12/28/2021 5:00:00 AM 3.62 38.516 0.043 6.8 2.26 13.24
12/28/2021 5:15:00 AM 3.6 38.48 0.043 6.8 2.24 13.24
12/28/2021 5:30:00 AM 3.57 38.426 0.043 6.69 2.28 13.25
12/28/2021 5:45:00 AM 3.54 38.372 0.043 6.8 2.31 13.27
12/28/2021 6:00:00 AM 3.51 38.318 0.043 6.79 2.33 13.28
12/28/2021 6:15:00 AM 3.48 38.264 0.043 6.8 2.29 13.28
12/28/2021 6:30:00 AM 3.45 38.21 0.043 6.8 2.31 13.31
12/28/2021 6:45:00 AM 3.42 38.156 0.041 6.79 5.3 13.32
12/28/2021 7:00:00 AM 3.39 38.102 0.043 6.79 2.3 13.34
12/28/2021 7:15:00 AM 3.36 38.048 0.043 6.71 2.32 13.34
12/28/2021 7:30:00 AM 3.32 37.976 0.043 6.77 2.35 13.36
12/28/2021 7:45:00 AM 3.29 37.922 0.043 6.8 2.33 13.39
12/28/2021 8:00:00 AM 3.26 37.868 0.043 6.8 2.4 13.44
12/28/2021 8:15:00 AM 3.23 37.814 0.043 6.82 2.29 13.48
12/28/2021 8:30:00 AM 3.2 37.76 0.043 6.83 2.28 13.53
12/28/2021 8:45:00 AM 3.18 37.724 0.043 6.77 2.31 13.58
12/28/2021 9:00:00 AM 3.16 37.688 0.043 6.85 2.25 13.63
12/28/2021 9:15:00 AM 3.15 37.67 0.043 6.87 2.25 13.69
12/28/2021 9:30:00 AM 3.14 37.652 0.043 6.79 2.31 13.74
12/28/2021 9:45:00 AM 3.14 37.652 0.043 6.89 2.2 13.78
12/28/2021 10:00:00 AM 3.18 37.724 0.042 6.83 2.25 13.83
12/28/2021 10:15:00 AM 3.24 37.832 0.042 6.9 2.23 13.89
12/28/2021 10:30:00 AM 3.29 37.922 0.042 6.95 2.29 13.92
12/28/2021 10:45:00 AM 3.34 38.012 0.042 6.88 2.25 13.93
12/28/2021 11:00:00 AM 3.41 38.138 0.042 6.92 2.21 13.93
12/28/2021 11:15:00 AM 3.46 38.228 0.042 6.98 2.24 13.93
12/28/2021 11:30:00 AM 3.55 38.39 0.042 6.98 2.25 13.94
12/28/2021 11:45:00 AM 3.64 38.552 0.042 7 2.23 13.92
12/28/2021 12:00:00 PM 3.74 38.732 0.042 7.01 2.25 13.9
12/28/2021 12:15:00 PM 3.81 38.858 0.042 7.01 2.16 13.89
12/28/2021 12:30:00 PM 3.87 38.966 0.042 7 2.2 13.85
12/28/2021 12:45:00 PM 3.92 39.056 0.042 7.01 2.25 13.82
12/28/2021 1:00:00 PM 3.94 39.092 0.042 7.01 2.25 13.8
12/28/2021 1:15:00 PM 3.97 39.146 0.042 7 2.19 13.76
12/28/2021 1:30:00 PM 4 39.2 0.042 7 2.2 13.72
12/28/2021 1:45:00 PM 4.03 39.254 0.042 7 2.22 13.68
12/28/2021 2:00:00 PM 4.05 39.29 0.042 6.99 2.19 13.66
12/28/2021 2:15:00 PM 4.08 39.344 0.042 6.95 2.23 13.65
12/28/2021 2:30:00 PM 4.1 39.38 0.042 6.99 2.18 13.62
12/28/2021 2:45:00 PM 4.12 39.416 0.042 6.88 2.21 13.59
12/28/2021 3:00:00 PM 4.13 39.434 0.042 6.97 2.26 13.55
12/28/2021 3:15:00 PM 4.14 39.452 0.042 6.87 2.19 13.5
12/28/2021 3:30:00 PM 4.14 39.452 0.04 6.92 5.17 13.45
12/28/2021 3:45:00 PM 4.15 39.47 0.042 6.92 2.29 13.42
12/28/2021 4:00:00 PM 4.15 39.47 0.042 6.85 2.26 13.38
12/28/2021 4:15:00 PM 4.15 39.47 0.042 6.89 2.18 13.34
12/28/2021 4:30:00 PM 4.14 39.452 0.042 6.88 2.33 13.3
12/28/2021 4:45:00 PM 4.14 39.452 0.042 6.87 2.23 13.26
12/28/2021 5:00:00 PM 4.14 39.452 0.042 6.85 2.25 13.23
12/28/2021 5:15:00 PM 4.14 39.452 0.042 6.83 2.22 13.2
12/28/2021 5:30:00 PM 4.14 39.452 0.042 6.76 2.25 13.18
12/28/2021 5:45:00 PM 4.11 39.398 0.042 6.77 2.27 13.17
12/28/2021 6:00:00 PM 4.08 39.344 0.04 6.81 5.12 13.16
12/28/2021 6:15:00 PM 4.02 39.236 0.042 6.82 2.28 13.15
12/28/2021 6:30:00 PM 3.89 39.002 0.042 6.81 2.33 13.14
12/28/2021 6:45:00 PM 3.82 38.876 0.042 6.73 2.53 13.15
12/28/2021 7:00:00 PM 3.72 38.696 0.042 6.82 2.29 13.17
12/28/2021 7:15:00 PM 3.61 38.498 0.042 6.81 2.32 13.19
12/28/2021 7:30:00 PM 3.51 38.318 0.042 6.81 2.31 13.22
12/28/2021 7:45:00 PM 3.41 38.138 0.04 6.81 4.97 13.26
12/28/2021 8:00:00 PM 3.31 37.958 0.042 6.81 2.3 13.28
12/28/2021 8:15:00 PM 3.18 37.724 0.042 6.74 2.37 13.32
12/28/2021 8:30:00 PM 3.08 37.544 0.042 6.82 2.36 13.35
12/28/2021 8:45:00 PM 3.08 37.544 0.042 6.82 2.3 13.37
12/28/2021 9:00:00 PM 3.09 37.562 0.042 6.8 2.31 13.4
12/28/2021 9:15:00 PM 3.11 37.598 0.042 6.75 2.35 13.41
12/28/2021 9:30:00 PM 3.12 37.616 0.042 6.75 2.41 13.42
12/28/2021 9:45:00 PM 3.15 37.67 0.042 6.81 2.28 13.42
12/28/2021 10:00:00 PM 3.17 37.706 0.042 6.77 2.3 13.42
12/28/2021 10:15:00 PM 3.19 37.742 0.042 6.81 2.26 13.41
12/28/2021 10:30:00 PM 3.2 37.76 0.042 6.7 2.33 13.41
12/28/2021 10:45:00 PM 3.21 37.778 0.042 6.75 2.31 13.41
12/28/2021 11:00:00 PM 3.23 37.814 0.042 6.81 2.32 13.41
12/28/2021 11:15:00 PM 3.24 37.832 0.042 6.75 2.27 13.4
12/28/2021 11:30:00 PM 3.24 37.832 0.042 6.8 2.36 13.4
12/28/2021 11:45:00 PM 3.24 37.832 0.042 6.75 2.3 13.4
12/29/2021 12:00:00 AM 3.24 37.832 0.042 6.81 2.31 13.41
12/29/2021 12:15:00 AM 3.24 37.832 0.042 6.8 2.43 13.4
12/29/2021 12:30:00 AM 3.24 37.832 0.042 6.8 2.36 13.4
12/29/2021 12:45:00 AM 3.25 37.85 0.042 6.69 2.51 13.39
12/29/2021 1:00:00 AM 3.26 37.868 0.042 6.76 2.28 13.39
12/29/2021 1:15:00 AM 3.27 37.886 0.042 6.75 2.32 13.38
12/29/2021 1:30:00 AM 3.29 37.922 0.042 6.8 2.32 13.37
12/29/2021 1:45:00 AM 3.3 37.94 0.042 6.8 2.36 13.36
12/29/2021 2:00:00 AM 3.32 37.976 0.042 6.8 2.33 13.35
12/29/2021 2:15:00 AM 3.34 38.012 0.042 6.76 2.39 13.35
12/29/2021 2:30:00 AM 3.36 38.048 0.042 6.8 2.31 13.33
12/29/2021 2:45:00 AM 3.37 38.066 0.042 6.8 2.33 13.33
12/29/2021 3:00:00 AM 3.39 38.102 0.042 6.74 2.43 13.33
12/29/2021 3:15:00 AM 3.41 38.138 0.042 6.76 2.33 13.32
12/29/2021 3:30:00 AM 3.43 38.174 0.042 6.74 2.3 13.31
12/29/2021 3:45:00 AM 3.45 38.21 0.042 6.79 2.3 13.3
12/29/2021 4:00:00 AM 3.46 38.228 0.042 6.73 2.34 13.29
12/29/2021 4:15:00 AM 3.48 38.264 0.042 6.79 2.32 13.28
12/29/2021 4:30:00 AM 3.49 38.282 0.042 6.79 2.33 13.28
12/29/2021 4:45:00 AM 3.51 38.318 0.042 6.79 2.31 13.28
12/29/2021 5:00:00 AM 3.52 38.336 0.042 6.79 2.33 13.27
12/29/2021 5:15:00 AM 3.53 38.354 0.042 6.79 2.34 13.27
12/29/2021 5:30:00 AM 3.54 38.372 0.042 6.7 2.33 13.26
12/29/2021 5:45:00 AM 3.56 38.408 0.042 6.79 2.36 13.26
12/29/2021 6:00:00 AM 3.57 38.426 0.042 6.78 2.39 13.26
12/29/2021 6:15:00 AM 3.58 38.444 0.042 6.79 2.36 13.26
12/29/2021 6:30:00 AM 3.59 38.462 0.042 6.77 2.38 13.26
12/29/2021 6:45:00 AM 3.6 38.48 0.042 6.73 2.33 13.26
12/29/2021 7:00:00 AM 3.61 38.498 0.042 6.75 2.32 13.25
12/29/2021 7:15:00 AM 3.62 38.516 0.042 6.79 2.36 13.25
12/29/2021 7:30:00 AM 3.63 38.534 0.042 6.78 2.33 13.24
12/29/2021 7:45:00 AM 3.64 38.552 0.042 6.78 2.44 13.25
12/29/2021 8:00:00 AM 3.65 38.57 0.042 6.78 2.33 13.27
12/29/2021 8:15:00 AM 3.66 38.588 0.042 6.79 2.34 13.28
12/29/2021 8:30:00 AM 3.67 38.606 0.042 6.79 2.54 13.3
12/29/2021 8:45:00 AM 3.69 38.642 0.042 6.8 2.35 13.32
12/29/2021 9:00:00 AM 3.71 38.678 0.042 6.8 2.31 13.37
12/29/2021 9:15:00 AM 3.73 38.714 0.042 6.82 2.36 13.42
12/29/2021 9:30:00 AM 3.76 38.768 0.042 6.84 2.31 13.49
12/29/2021 9:45:00 AM 3.8 38.84 0.042 6.85 2.29 13.55
12/29/2021 10:00:00 AM 3.84 38.912 0.042 6.87 2.3 13.61
12/29/2021 10:15:00 AM 3.88 38.984 0.042 6.9 2.33 13.64
12/29/2021 10:30:00 AM 3.91 39.038 0.042 6.91 2.32 13.66
12/29/2021 10:45:00 AM 3.95 39.11 0.042 6.93 2.29 13.68
12/29/2021 11:00:00 AM 4 39.2 0.042 6.94 2.26 13.7
12/29/2021 11:15:00 AM 4.05 39.29 0.042 6.89 2.31 13.71
12/29/2021 11:30:00 AM 4.1 39.38 0.042 6.97 2.33 13.72
12/29/2021 11:45:00 AM 4.14 39.452 0.042 6.97 2.3 13.71
12/29/2021 12:00:00 PM 4.18 39.524 0.042 6.98 2.33 13.7
12/29/2021 12:15:00 PM 4.23 39.614 0.042 6.9 2.31 13.69
12/29/2021 12:30:00 PM 4.27 39.686 0.042 6.98 2.32 13.68
12/29/2021 12:45:00 PM 4.31 39.758 0.042 6.99 2.31 13.67
12/29/2021 1:00:00 PM 4.37 39.866 0.042 7 2.29 13.66
12/29/2021 1:15:00 PM 4.41 39.938 0.042 7 2.3 13.64
12/29/2021 1:30:00 PM 4.46 40.028 0.042 7.01 2.31 13.62
12/29/2021 1:45:00 PM 4.5 40.1 0.042 6.9 2.33 13.6
12/29/2021 2:00:00 PM 4.54 40.172 0.042 7.01 2.42 13.58
12/29/2021 2:15:00 PM 4.57 40.226 0.042 6.99 2.47 13.57
12/29/2021 2:30:00 PM 4.61 40.298 0.042 7.01 2.45 13.55
12/29/2021 2:45:00 PM 4.64 40.352 0.041 7 5.46 13.53
12/29/2021 3:00:00 PM 4.66 40.388 0.042 6.96 2.59 13.49
12/29/2021 3:15:00 PM 4.68 40.424 0.04 6.98 5.5 13.46
12/29/2021 3:30:00 PM 4.7 40.46 0.042 6.98 2.68 13.42
12/29/2021 3:45:00 PM 4.72 40.496 0.042 6.96 2.72 13.38
12/29/2021 4:00:00 PM 4.73 40.514 0.042 6.95 2.8 13.32
12/29/2021 4:15:00 PM 4.73 40.514 0.042 6.85 2.94 13.26
12/29/2021 4:30:00 PM 4.73 40.514 0.042 6.91 2.82 13.2
12/29/2021 4:45:00 PM 4.73 40.514 0.042 6.89 2.75 13.15
12/29/2021 5:00:00 PM 4.73 40.514 0.043 6.82 2.75 13.11
12/29/2021 5:15:00 PM 4.73 40.514 0.043 6.86 2.73 13.06
12/29/2021 5:30:00 PM 4.72 40.496 0.043 6.85 2.67 13.03
12/29/2021 5:45:00 PM 4.72 40.496 0.043 6.83 2.73 13
12/29/2021 6:00:00 PM 4.72 40.496 0.043 6.76 2.66 12.99
12/29/2021 6:15:00 PM 4.72 40.496 0.043 6.82 2.7 12.98
12/29/2021 6:30:00 PM 4.72 40.496 0.043 6.81 2.63 12.97
12/29/2021 6:45:00 PM 4.72 40.496 0.04 6.67 5.41 12.97
12/29/2021 7:00:00 PM 4.72 40.496 0.043 6.8 2.6 12.96
12/29/2021 7:15:00 PM 4.71 40.478 0.043 6.79 2.58 12.96
12/29/2021 7:30:00 PM 4.71 40.478 0.043 6.75 2.58 12.96
12/29/2021 7:45:00 PM 4.71 40.478 0.043 6.79 2.56 12.96
12/29/2021 8:00:00 PM 4.71 40.478 0.043 6.79 2.53 12.96
12/29/2021 8:15:00 PM 4.7 40.46 0.043 6.7 2.58 12.96
12/29/2021 8:30:00 PM 4.7 40.46 0.043 6.79 2.59 12.95
12/29/2021 8:45:00 PM 4.7 40.46 0.043 6.78 2.54 12.96
12/29/2021 9:00:00 PM 4.69 40.442 0.043 6.78 2.59 12.96
12/29/2021 9:15:00 PM 4.69 40.442 0.043 6.7 2.6 12.96
12/29/2021 9:30:00 PM 4.68 40.424 0.043 6.76 2.55 12.96
12/29/2021 9:45:00 PM 4.67 40.406 0.043 6.72 2.68 12.96
12/29/2021 10:00:00 PM 4.67 40.406 0.043 6.78 2.51 12.96
12/29/2021 10:15:00 PM 4.66 40.388 0.043 6.75 2.53 12.97
12/29/2021 10:30:00 PM 4.65 40.37 0.041 6.75 5.19 12.97
12/29/2021 10:45:00 PM 4.65 40.37 0.041 6.77 5.3 12.97
12/29/2021 11:00:00 PM 4.64 40.352 0.043 6.77 2.56 12.97
12/29/2021 11:15:00 PM 4.63 40.334 0.043 6.74 2.55 12.97
12/29/2021 11:30:00 PM 4.62 40.316 0.043 6.78 2.46 12.97
12/29/2021 11:45:00 PM 4.62 40.316 0.041 6.76 5.36 12.98
12/30/2021 12:00:00 AM 4.61 40.298 0.043 6.78 2.47 12.97
12/30/2021 12:15:00 AM 4.61 40.298 0.043 6.71 2.47 12.98
12/30/2021 12:30:00 AM 4.61 40.298 0.043 6.72 2.49 12.98
12/30/2021 12:45:00 AM 4.6 40.28 0.043 6.77 2.5 12.98
12/30/2021 1:00:00 AM 4.6 40.28 0.043 6.69 2.47 12.98
12/30/2021 1:15:00 AM 4.6 40.28 0.043 6.78 2.45 12.98
12/30/2021 1:30:00 AM 4.6 40.28 0.043 6.7 2.54 12.97
12/30/2021 1:45:00 AM 4.6 40.28 0.043 6.77 2.45 12.98
12/30/2021 2:00:00 AM 4.6 40.28 0.043 6.77 2.42 12.97
12/30/2021 2:15:00 AM 4.6 40.28 0.043 6.73 2.45 12.97
12/30/2021 2:30:00 AM 4.6 40.28 0.041 6.74 5.24 12.98
12/30/2021 2:45:00 AM 4.6 40.28 0.043 6.72 2.46 12.97
12/30/2021 3:00:00 AM 4.6 40.28 0.043 6.72 2.45 12.97
12/30/2021 3:15:00 AM 4.6 40.28 0.043 6.74 2.42 12.97
12/30/2021 3:30:00 AM 4.6 40.28 0.043 6.77 2.47 12.97
12/30/2021 3:45:00 AM 4.6 40.28 0.043 6.77 2.42 12.97
12/30/2021 4:00:00 AM 4.6 40.28 0.043 6.77 2.43 12.96
12/30/2021 4:15:00 AM 4.6 40.28 0.043 6.77 2.43 12.96
12/30/2021 4:30:00 AM 4.6 40.28 0.043 6.7 2.4 12.97
12/30/2021 4:45:00 AM 4.6 40.28 0.043 6.77 2.35 12.97
12/30/2021 5:00:00 AM 4.6 40.28 0.043 6.71 2.38 12.97
12/30/2021 5:15:00 AM 4.6 40.28 0.043 6.77 2.43 12.97
12/30/2021 5:30:00 AM 4.6 40.28 0.043 6.77 2.44 12.97
12/30/2021 5:45:00 AM 4.6 40.28 0.043 6.68 2.43 12.96
12/30/2021 6:00:00 AM 4.6 40.28 0.043 6.77 2.43 12.97
12/30/2021 6:15:00 AM 4.61 40.298 0.043 6.77 2.43 12.97
12/30/2021 6:30:00 AM 4.61 40.298 0.043 6.76 2.39 12.97
12/30/2021 6:45:00 AM 4.61 40.298 0.043 6.77 2.52 12.97
12/30/2021 7:00:00 AM 4.61 40.298 0.043 6.69 2.41 12.97
12/30/2021 7:15:00 AM 4.61 40.298 0.043 6.77 2.46 12.97
12/30/2021 7:30:00 AM 4.61 40.298 0.043 6.77 2.46 12.97
12/30/2021 7:45:00 AM 4.61 40.298 0.043 6.77 2.43 12.98
12/30/2021 8:00:00 AM 4.62 40.316 0.043 6.77 2.41 12.98
12/30/2021 8:15:00 AM 4.62 40.316 0.043 6.77 2.4 12.99
12/30/2021 8:30:00 AM 4.62 40.316 0.043 6.69 2.49 13.01
12/30/2021 8:45:00 AM 4.63 40.334 0.043 6.78 2.46 13.04
12/30/2021 9:00:00 AM 4.64 40.352 0.043 6.72 2.41 13.06
12/30/2021 9:15:00 AM 4.65 40.37 0.043 6.8 2.4 13.08
12/30/2021 9:30:00 AM 4.66 40.388 0.043 6.71 2.41 13.13
12/30/2021 9:45:00 AM 4.68 40.424 0.043 6.82 2.44 13.17
12/30/2021 10:00:00 AM 4.69 40.442 0.043 6.78 2.34 13.22
12/30/2021 10:15:00 AM 4.72 40.496 0.043 6.85 2.31 13.27
12/30/2021 10:30:00 AM 4.76 40.568 0.043 6.87 2.32 13.33
12/30/2021 10:45:00 AM 4.79 40.622 0.043 6.89 2.33 13.36
12/30/2021 11:00:00 AM 4.82 40.676 0.043 6.79 2.34 13.37
12/30/2021 11:15:00 AM 4.87 40.766 0.043 6.92 2.32 13.41
12/30/2021 11:30:00 AM 4.91 40.838 0.043 6.93 2.25 13.43
12/30/2021 11:45:00 AM 4.96 40.928 0.042 6.94 2.29 13.44
12/30/2021 12:00:00 PM 5.01 41.018 0.042 6.89 2.28 13.44
12/30/2021 12:15:00 PM 5.04 41.072 0.042 6.96 2.27 13.43
12/30/2021 12:30:00 PM 5.08 41.144 0.042 6.9 2.27 13.41
12/30/2021 12:45:00 PM 5.12 41.216 0.042 6.97 2.28 13.4
12/30/2021 1:00:00 PM 5.16 41.288 0.042 6.93 2.26 13.39
12/30/2021 1:15:00 PM 5.19 41.342 0.042 6.98 2.29 13.38
12/30/2021 1:30:00 PM 5.22 41.396 0.042 6.99 2.31 13.35
12/30/2021 1:45:00 PM 5.25 41.45 0.042 6.98 2.28 13.33
12/30/2021 2:00:00 PM 5.28 41.504 0.042 6.89 2.24 13.31
12/30/2021 2:15:00 PM 5.29 41.522 0.042 6.92 2.31 13.27
12/30/2021 2:30:00 PM 5.3 41.54 0.042 6.97 2.27 13.22
12/30/2021 2:45:00 PM 5.32 41.576 0.042 6.96 2.3 13.2
12/30/2021 3:00:00 PM 5.35 41.63 0.042 6.95 2.32 13.18
12/30/2021 3:15:00 PM 5.37 41.666 0.042 6.88 2.3 13.17
12/30/2021 3:30:00 PM 5.39 41.702 0.042 6.92 2.28 13.12
12/30/2021 3:45:00 PM 5.41 41.738 0.042 6.92 2.29 13.08
12/30/2021 4:00:00 PM 5.42 41.756 0.042 6.91 2.23 13.02
12/30/2021 4:15:00 PM 5.44 41.792 0.042 6.88 2.29 12.96
12/30/2021 4:30:00 PM 5.44 41.792 0.042 6.87 2.26 12.93
12/30/2021 4:45:00 PM 5.45 41.81 0.042 6.85 2.31 12.87
12/30/2021 5:00:00 PM 5.46 41.828 0.042 6.75 2.46 12.83
12/30/2021 5:15:00 PM 5.46 41.828 0.042 6.77 2.33 12.8
12/30/2021 5:30:00 PM 5.46 41.828 0.042 6.81 2.36 12.76
12/30/2021 5:45:00 PM 5.46 41.828 0.042 6.79 2.31 12.74
12/30/2021 6:00:00 PM 5.47 41.846 0.043 6.79 2.34 12.72
12/30/2021 6:15:00 PM 5.47 41.846 0.043 6.77 2.41 12.71
12/30/2021 6:30:00 PM 5.48 41.864 0.043 6.78 2.42 12.7
12/30/2021 6:45:00 PM 5.48 41.864 0.043 6.77 2.31 12.69
12/30/2021 7:00:00 PM 5.48 41.864 0.043 6.76 2.41 12.69
12/30/2021 7:15:00 PM 5.48 41.864 0.043 6.66 2.44 12.69
12/30/2021 7:30:00 PM 5.48 41.864 0.043 6.76 2.48 12.69
12/30/2021 7:45:00 PM 5.48 41.864 0.043 6.65 2.32 12.68
12/30/2021 8:00:00 PM 5.47 41.846 0.043 6.75 2.4 12.68
12/30/2021 8:15:00 PM 5.47 41.846 0.043 6.74 2.4 12.68
12/30/2021 8:30:00 PM 5.46 41.828 0.043 6.75 2.47 12.68
12/30/2021 8:45:00 PM 5.45 41.81 0.043 6.75 2.49 12.68
12/30/2021 9:00:00 PM 5.45 41.81 0.043 6.73 2.47 12.68
12/30/2021 9:15:00 PM 5.44 41.792 0.043 6.67 2.47 12.68
12/30/2021 9:30:00 PM 5.43 41.774 0.043 6.73 2.46 12.69
12/30/2021 9:45:00 PM 5.43 41.774 0.043 6.74 2.44 12.69
12/30/2021 10:00:00 PM 5.42 41.756 0.043 6.74 2.48 12.69
12/30/2021 10:15:00 PM 5.41 41.738 0.043 6.74 2.45 12.69
12/30/2021 10:30:00 PM 5.39 41.702 0.043 6.68 2.46 12.7
12/30/2021 10:45:00 PM 5.37 41.666 0.043 6.74 2.49 12.7
12/30/2021 11:00:00 PM 5.36 41.648 0.043 6.74 2.44 12.71
12/30/2021 11:15:00 PM 5.35 41.63 0.043 6.75 2.44 12.71
12/30/2021 11:30:00 PM 5.34 41.612 0.043 6.74 2.43 12.72
12/30/2021 11:45:00 PM 5.34 41.612 0.043 6.74 2.43 12.72
12/31/2021 12:00:00 AM 5.32 41.576 0.043 6.74 2.5 12.72
12/31/2021 12:15:00 AM 5.32 41.576 0.043 6.75 2.53 12.73
12/31/2021 12:30:00 AM 5.31 41.558 0.043 6.65 2.48 12.73
12/31/2021 12:45:00 AM 5.3 41.54 0.043 6.74 2.5 12.74
12/31/2021 1:00:00 AM 5.29 41.522 0.043 6.74 2.48 12.73
12/31/2021 1:15:00 AM 5.29 41.522 0.043 6.74 2.51 12.74
12/31/2021 1:30:00 AM 5.28 41.504 0.043 6.74 2.48 12.74
12/31/2021 1:45:00 AM 5.28 41.504 0.043 6.69 2.39 12.74
12/31/2021 2:00:00 AM 5.28 41.504 0.043 6.68 2.46 12.74
12/31/2021 2:15:00 AM 5.27 41.486 0.043 6.74 2.51 12.74
12/31/2021 2:30:00 AM 5.27 41.486 0.043 6.66 2.43 12.74
12/31/2021 2:45:00 AM 5.27 41.486 0.043 6.74 2.4 12.74
12/31/2021 3:00:00 AM 5.26 41.468 0.043 6.67 2.48 12.74
12/31/2021 3:15:00 AM 5.26 41.468 0.043 6.74 2.49 12.74
12/31/2021 3:30:00 AM 5.26 41.468 0.043 6.73 2.45 12.75
12/31/2021 3:45:00 AM 5.25 41.45 0.043 6.73 2.44 12.74
12/31/2021 4:00:00 AM 5.25 41.45 0.043 6.66 2.5 12.74
12/31/2021 4:15:00 AM 5.25 41.45 0.043 6.73 2.38 12.74
12/31/2021 4:30:00 AM 5.25 41.45 0.043 6.65 2.54 12.74
12/31/2021 4:45:00 AM 5.25 41.45 0.043 6.73 2.38 12.74
12/31/2021 5:00:00 AM 5.24 41.432 0.043 6.73 2.43 12.74
12/31/2021 5:15:00 AM 5.24 41.432 0.043 6.73 2.45 12.74
12/31/2021 5:30:00 AM 5.25 41.45 0.043 6.73 2.38 12.74
12/31/2021 5:45:00 AM 5.25 41.45 0.043 6.73 2.59 12.74
12/31/2021 6:00:00 AM 5.25 41.45 0.043 6.73 2.52 12.74
12/31/2021 6:15:00 AM 5.25 41.45 0.043 6.72 2.5 12.74
12/31/2021 6:30:00 AM 5.25 41.45 0.043 6.66 2.41 12.74
12/31/2021 6:45:00 AM 5.25 41.45 0.043 6.73 2.45 12.74
12/31/2021 7:00:00 AM 5.25 41.45 0.043 6.65 2.45 12.74
12/31/2021 7:15:00 AM 5.25 41.45 0.043 6.68 2.53 12.74
12/31/2021 7:30:00 AM 5.25 41.45 0.043 6.68 2.5 12.74
12/31/2021 7:45:00 AM 5.25 41.45 0.043 6.73 2.44 12.74
12/31/2021 8:00:00 AM 5.25 41.45 0.043 6.73 2.47 12.76
12/31/2021 8:15:00 AM 5.25 41.45 0.043 6.74 2.42 12.78
12/31/2021 8:30:00 AM 5.26 41.468 0.043 6.7 2.37 12.82
12/31/2021 8:45:00 AM 5.26 41.468 0.043 6.7 2.42 12.84
12/31/2021 9:00:00 AM 5.27 41.486 0.043 6.76 2.48 12.87
12/31/2021 9:15:00 AM 5.29 41.522 0.043 6.74 2.41 12.92
12/31/2021 9:30:00 AM 5.32 41.576 0.043 6.79 2.43 12.99
12/31/2021 9:45:00 AM 5.35 41.63 0.043 6.82 2.55 13.06
12/31/2021 10:00:00 AM 5.41 41.738 0.043 6.84 2.49 13.13
12/31/2021 10:15:00 AM 5.46 41.828 0.043 6.87 2.4 13.19
12/31/2021 10:30:00 AM 5.51 41.918 0.043 6.89 2.39 13.22
12/31/2021 10:45:00 AM 5.56 42.008 0.042 6.9 2.35 13.24
12/31/2021 11:00:00 AM 5.61 42.098 0.042 6.92 2.31 13.24
12/31/2021 11:15:00 AM 5.66 42.188 0.042 6.94 2.38 13.22
12/31/2021 11:30:00 AM 5.71 42.278 0.042 6.95 2.36 13.21
12/31/2021 11:45:00 AM 5.76 42.368 0.042 6.96 2.37 13.21
12/31/2021 12:00:00 PM 5.82 42.476 0.042 6.87 2.34 13.19
12/31/2021 12:15:00 PM 5.82 42.476 0.042 6.92 2.35 13.18
12/31/2021 12:30:00 PM 5.92 42.656 0.042 6.96 2.46 13.18
12/31/2021 12:45:00 PM 5.96 42.728 0.042 6.94 2.32 13.18
12/31/2021 1:00:00 PM 6.01 42.818 0.042 6.96 2.33 13.17
12/31/2021 1:15:00 PM 6.09 42.962 0.042 7 2.31 13.16
12/31/2021 1:30:00 PM 6.15 43.07 0.042 6.98 2.35 13.14
12/31/2021 1:45:00 PM 6.19 43.142 0.042 6.94 2.41 13.11
12/31/2021 2:00:00 PM 6.24 43.232 0.042 7.01 2.39 13.08
12/31/2021 2:15:00 PM 6.28 43.304 0.042 7.01 2.3 13.08
12/31/2021 2:30:00 PM 6.31 43.358 0.042 7.01 2.32 13.06
12/31/2021 2:45:00 PM 6.35 43.43 0.042 7.01 2.36 13.04
12/31/2021 3:00:00 PM 6.36 43.448 0.042 6.93 2.38 13.01
12/31/2021 3:15:00 PM 6.39 43.502 0.042 7 2.32 12.98
12/31/2021 3:30:00 PM 6.4 43.52 0.042 6.98 2.4 12.94
12/31/2021 3:45:00 PM 6.4 43.52 0.042 6.89 2.38 12.89
12/31/2021 4:00:00 PM 6.4 43.52 0.042 6.96 2.37 12.84
12/31/2021 4:15:00 PM 6.39 43.502 0.042 6.92 2.33 12.77
12/31/2021 4:30:00 PM 6.38 43.484 0.042 6.9 2.37 12.7
12/31/2021 4:45:00 PM 6.36 43.448 0.042 6.88 2.37 12.64
12/31/2021 5:00:00 PM 6.34 43.412 0.042 6.85 2.36 12.58
12/31/2021 5:15:00 PM 6.31 43.358 0.042 6.83 2.38 12.54
12/31/2021 5:30:00 PM 6.29 43.322 0.042 6.81 2.35 12.51
12/31/2021 5:45:00 PM 6.26 43.268 0.042 6.8 2.45 12.47
12/31/2021 6:00:00 PM 6.24 43.232 0.042 6.68 2.45 12.46
12/31/2021 6:15:00 PM 6.21 43.178 0.042 6.71 2.5 12.46
12/31/2021 6:30:00 PM 6.19 43.142 0.042 6.76 2.38 12.46
12/31/2021 6:45:00 PM 6.17 43.106 0.043 6.76 2.49 12.46
12/31/2021 7:00:00 PM 6.14 43.052 0.043 6.74 2.51 12.46
12/31/2021 7:15:00 PM 6.12 43.016 0.043 6.7 2.4 12.46
12/31/2021 7:30:00 PM 6.1 42.98 0.043 6.75 2.48 12.46
12/31/2021 7:45:00 PM 6.08 42.944 0.043 6.75 2.4 12.46
12/31/2021 8:00:00 PM 6.05 42.89 0.043 6.75 2.44 12.47
12/31/2021 8:15:00 PM 6.01 42.818 0.043 6.74 2.48 12.48
12/31/2021 8:30:00 PM 5.98 42.764 0.043 6.74 2.45 12.48
12/31/2021 8:45:00 PM 5.94 42.692 0.043 6.74 2.64 12.49
12/31/2021 9:00:00 PM 5.91 42.638 0.043 6.74 2.44 12.5
12/31/2021 9:15:00 PM 5.87 42.566 0.043 6.74 2.42 12.51
12/31/2021 9:30:00 PM 5.83 42.494 0.043 6.74 2.5 12.52
12/31/2021 9:45:00 PM 5.81 42.458 0.043 6.74 2.47 12.53
12/31/2021 10:00:00 PM 5.79 42.422 0.043 6.62 2.38 12.54
12/31/2021 10:15:00 PM 5.77 42.386 0.043 6.74 2.42 12.54
12/31/2021 10:30:00 PM 5.76 42.368 0.043 6.74 2.42 12.55
12/31/2021 10:45:00 PM 5.75 42.35 0.043 6.74 2.48 12.55
12/31/2021 11:00:00 PM 5.74 42.332 0.043 6.68 2.47 12.56
12/31/2021 11:15:00 PM 5.74 42.332 0.043 6.68 2.51 12.56
12/31/2021 11:30:00 PM 5.73 42.314 0.043 6.74 2.5 12.56
12/31/2021 11:45:00 PM 5.72 42.296 0.043 6.74 2.45 12.57
1/1/2022 12:00:00 AM 5.71 42.278 0.043 6.72 2.48 12.57
1/1/2022 12:15:00 AM 5.7 42.26 0.041 6.73 5.27 12.57
1/1/2022 12:30:00 AM 5.7 42.26 0.043 6.74 2.5 12.57
1/1/2022 12:45:00 AM 5.69 42.242 0.043 6.66 2.48 12.57
1/1/2022 1:00:00 AM 5.68 42.224 0.043 6.7 2.51 12.57
1/1/2022 1:15:00 AM 5.68 42.224 0.043 6.66 2.43 12.57
1/1/2022 1:30:00 AM 5.67 42.206 0.043 6.73 2.5 12.57
1/1/2022 1:45:00 AM 5.67 42.206 0.043 6.74 2.54 12.57
1/1/2022 2:00:00 AM 5.67 42.206 0.043 6.74 2.46 12.57
1/1/2022 2:15:00 AM 5.68 42.224 0.043 6.67 2.46 12.57
1/1/2022 2:30:00 AM 5.69 42.242 0.043 6.73 2.49 12.57
1/1/2022 2:45:00 AM 5.69 42.242 0.043 6.73 2.43 12.56
1/1/2022 3:00:00 AM 5.71 42.278 0.043 6.66 2.43 12.56
1/1/2022 3:15:00 AM 5.72 42.296 0.043 6.72 2.48 12.55
1/1/2022 3:30:00 AM 5.74 42.332 0.043 6.71 2.4 12.55
1/1/2022 3:45:00 AM 5.76 42.368 0.043 6.73 2.49 12.54
1/1/2022 4:00:00 AM 5.78 42.404 0.043 6.73 2.44 12.53
1/1/2022 4:15:00 AM 5.81 42.458 0.043 6.73 2.4 12.52
1/1/2022 4:30:00 AM 5.83 42.494 0.043 6.73 2.51 12.52
1/1/2022 4:45:00 AM 5.85 42.53 0.043 6.73 2.46 12.5
1/1/2022 5:00:00 AM 5.88 42.584 0.043 6.64 2.42 12.49
1/1/2022 5:15:00 AM 5.9 42.62 0.043 6.73 2.43 12.48
1/1/2022 5:30:00 AM 5.9 42.62 0.043 6.67 2.45 12.48
1/1/2022 5:45:00 AM 5.91 42.638 0.043 6.7 2.41 12.49
1/1/2022 6:00:00 AM 5.91 42.638 0.043 6.68 2.52 12.48
1/1/2022 6:15:00 AM 5.91 42.638 0.043 6.67 2.43 12.47
1/1/2022 6:30:00 AM 5.91 42.638 0.043 6.69 2.56 12.47
1/1/2022 6:45:00 AM 5.92 42.656 0.043 6.72 2.45 12.48
1/1/2022 7:00:00 AM 5.92 42.656 0.043 6.65 2.42 12.47
1/1/2022 7:15:00 AM 5.93 42.674 0.043 6.72 2.49 12.46
1/1/2022 7:30:00 AM 5.94 42.692 0.043 6.72 2.48 12.46
1/1/2022 7:45:00 AM 5.95 42.71 0.043 6.71 2.4 12.46
1/1/2022 8:00:00 AM 5.96 42.728 0.043 6.71 2.4 12.47
1/1/2022 8:15:00 AM 5.97 42.746 0.043 6.72 2.55 12.48
1/1/2022 8:30:00 AM 5.98 42.764 0.043 6.73 2.43 12.51
1/1/2022 8:45:00 AM 5.98 42.764 0.043 6.73 2.48 12.54
1/1/2022 9:00:00 AM 6 42.8 0.043 6.74 2.39 12.57
1/1/2022 9:15:00 AM 6.02 42.836 0.043 6.75 2.41 12.59
1/1/2022 9:30:00 AM 6.04 42.872 0.043 6.76 2.39 12.63
1/1/2022 9:45:00 AM 6.06 42.908 0.043 6.77 2.44 12.65
1/1/2022 10:00:00 AM 6.08 42.944 0.043 6.79 2.75 12.69
1/1/2022 10:15:00 AM 6.12 43.016 0.042 6.72 2.42 12.74
1/1/2022 10:30:00 AM 6.15 43.07 0.042 6.82 2.39 12.75
1/1/2022 10:45:00 AM 6.18 43.124 0.042 6.82 2.38 12.78
1/1/2022 11:00:00 AM 6.22 43.196 0.042 6.81 2.38 12.81
1/1/2022 11:15:00 AM 6.26 43.268 0.042 6.84 2.37 12.85
1/1/2022 11:30:00 AM 6.32 43.376 0.042 6.85 2.35 12.87
1/1/2022 11:45:00 AM 6.39 43.502 0.042 6.89 2.33 12.89
1/1/2022 12:00:00 PM 6.44 43.592 0.042 6.84 2.41 12.88
1/1/2022 12:15:00 PM 6.5 43.7 0.042 6.87 2.35 12.87
1/1/2022 12:30:00 PM 6.57 43.826 0.042 6.93 2.38 12.86
1/1/2022 12:45:00 PM 6.64 43.952 0.042 6.87 2.38 12.85
1/1/2022 1:00:00 PM 6.7 44.06 0.042 6.95 2.49 12.85
1/1/2022 1:15:00 PM 6.73 44.114 0.042 6.95 2.36 12.83
1/1/2022 1:30:00 PM 6.77 44.186 0.042 6.94 2.34 12.8
1/1/2022 1:45:00 PM 6.81 44.258 0.042 6.96 2.36 12.78
1/1/2022 2:00:00 PM 6.85 44.33 0.042 6.95 2.33 12.74
1/1/2022 2:15:00 PM 6.88 44.384 0.042 6.94 2.37 12.7
1/1/2022 2:30:00 PM 6.91 44.438 0.042 6.88 2.38 12.67
1/1/2022 2:45:00 PM 6.93 44.474 0.042 6.92 2.37 12.62
1/1/2022 3:00:00 PM 6.94 44.492 0.042 6.92 2.46 12.58
1/1/2022 3:15:00 PM 6.95 44.51 0.042 6.9 2.36 12.53
1/1/2022 3:30:00 PM 6.96 44.528 0.042 6.89 2.37 12.48
1/1/2022 3:45:00 PM 6.96 44.528 0.042 6.87 2.45 12.44
1/1/2022 4:00:00 PM 6.96 44.528 0.042 6.85 2.42 12.4
1/1/2022 4:15:00 PM 6.96 44.528 0.042 6.83 2.38 12.36
1/1/2022 4:30:00 PM 6.96 44.528 0.042 6.81 2.43 12.33
1/1/2022 4:45:00 PM 6.96 44.528 0.042 6.75 2.42 12.28
1/1/2022 5:00:00 PM 6.95 44.51 0.042 6.79 2.39 12.25
1/1/2022 5:15:00 PM 6.95 44.51 0.042 6.68 2.44 12.22
1/1/2022 5:30:00 PM 6.95 44.51 0.042 6.76 2.41 12.2
1/1/2022 5:45:00 PM 6.94 44.492 0.042 6.75 2.45 12.19
1/1/2022 6:00:00 PM 6.94 44.492 0.042 6.73 2.41 12.18
1/1/2022 6:15:00 PM 6.93 44.474 0.042 6.73 2.55 12.17
1/1/2022 6:30:00 PM 6.93 44.474 0.042 6.72 2.52 12.16
1/1/2022 6:45:00 PM 6.92 44.456 0.042 6.71 2.5 12.16
1/1/2022 7:00:00 PM 6.91 44.438 0.042 6.71 2.61 12.16
1/1/2022 7:15:00 PM 6.91 44.438 0.042 6.62 2.49 12.15
1/1/2022 7:30:00 PM 6.9 44.42 0.042 6.7 2.57 12.16
1/1/2022 7:45:00 PM 6.9 44.42 0.042 6.66 2.58 12.15
1/1/2022 8:00:00 PM 6.89 44.402 0.042 6.69 2.64 12.15
1/1/2022 8:15:00 PM 6.89 44.402 0.042 6.69 2.59 12.14
1/1/2022 8:30:00 PM 6.88 44.384 0.042 6.69 2.66 12.15
1/1/2022 8:45:00 PM 6.87 44.366 0.042 6.6 2.61 12.15
1/1/2022 9:00:00 PM 6.87 44.366 0.042 6.7 2.61 12.14
1/1/2022 9:15:00 PM 6.86 44.348 0.042 6.69 2.56 12.14
1/1/2022 9:30:00 PM 6.86 44.348 0.042 6.69 2.58 12.14
1/1/2022 9:45:00 PM 6.86 44.348 0.042 6.69 2.68 12.14
1/1/2022 10:00:00 PM 6.85 44.33 0.042 6.63 2.67 12.14
1/1/2022 10:15:00 PM 6.85 44.33 0.042 6.7 2.7 12.14
1/1/2022 10:30:00 PM 6.85 44.33 0.042 6.67 2.68 12.14
1/1/2022 10:45:00 PM 6.85 44.33 0.042 6.69 2.68 12.13
1/1/2022 11:00:00 PM 6.84 44.312 0.042 6.7 2.74 12.14
1/1/2022 11:15:00 PM 6.83 44.294 0.042 6.7 2.84 12.14
1/1/2022 11:30:00 PM 6.82 44.276 0.042 6.7 2.85 12.15
1/1/2022 11:45:00 PM 6.8 44.24 0.042 6.7 2.88 12.15
1/2/2022 12:00:00 AM 6.77 44.186 0.042 6.64 2.91 12.16
1/2/2022 12:15:00 AM 6.75 44.15 0.042 6.71 2.98 12.16
1/2/2022 12:30:00 AM 6.72 44.096 0.042 6.62 2.89 12.17
1/2/2022 12:45:00 AM 6.7 44.06 0.042 6.66 3.04 12.18
1/2/2022 1:00:00 AM 6.67 44.006 0.042 6.72 3.15 12.18
1/2/2022 1:15:00 AM 6.65 43.97 0.042 6.65 2.99 12.19
1/2/2022 1:30:00 AM 6.63 43.934 0.042 6.71 3.1 12.19
1/2/2022 1:45:00 AM 6.6 43.88 0.042 6.72 3.15 12.2
1/2/2022 2:00:00 AM 6.58 43.844 0.042 6.72 3.17 12.2
1/2/2022 2:15:00 AM 6.55 43.79 0.042 6.72 3.32 12.22
1/2/2022 2:30:00 AM 6.53 43.754 0.042 6.72 3.38 12.22
1/2/2022 2:45:00 AM 6.5 43.7 0.042 6.7 3.32 12.23
1/2/2022 3:00:00 AM 6.47 43.646 0.042 6.72 3.36 12.24
1/2/2022 3:15:00 AM 6.44 43.592 0.042 6.72 3.47 12.25
1/2/2022 3:30:00 AM 6.42 43.556 0.042 6.72 3.64 12.26
1/2/2022 3:45:00 AM 6.39 43.502 0.042 6.71 3.56 12.27
1/2/2022 4:00:00 AM 6.36 43.448 0.042 6.64 3.51 12.28
1/2/2022 4:15:00 AM 6.33 43.394 0.042 6.72 3.52 12.28
1/2/2022 4:30:00 AM 6.3 43.34 0.042 6.72 3.5 12.29
1/2/2022 4:45:00 AM 6.27 43.286 0.042 6.72 3.69 12.31
1/2/2022 5:00:00 AM 6.24 43.232 0.042 6.71 3.73 12.32
1/2/2022 5:15:00 AM 6.21 43.178 0.042 6.72 3.71 12.32
1/2/2022 5:30:00 AM 6.18 43.124 0.042 6.72 3.7 12.34
1/2/2022 5:45:00 AM 6.15 43.07 0.042 6.72 3.69 12.33
1/2/2022 6:00:00 AM 6.12 43.016 0.042 6.71 3.73 12.35
1/2/2022 6:15:00 AM 6.1 42.98 0.042 6.65 3.6 12.36
1/2/2022 6:30:00 AM 6.07 42.926 0.042 6.67 3.59 12.36
1/2/2022 6:45:00 AM 6.05 42.89 0.042 6.68 3.59 12.37
1/2/2022 7:00:00 AM 6.03 42.854 0.042 6.72 3.48 12.38
1/2/2022 7:15:00 AM 6 42.8 0.042 6.73 3.44 12.38
1/2/2022 7:30:00 AM 5.98 42.764 0.042 6.73 3.34 12.4
1/2/2022 7:45:00 AM 5.96 42.728 0.042 6.73 3.29 12.4
1/2/2022 8:00:00 AM 5.94 42.692 0.042 6.72 3.3 12.43
1/2/2022 8:15:00 AM 5.92 42.656 0.042 6.66 3.2 12.44
1/2/2022 8:30:00 AM 5.89 42.602 0.042 6.74 3.25 12.46
1/2/2022 8:45:00 AM 5.87 42.566 0.042 6.65 3.15 12.5
1/2/2022 9:00:00 AM 5.85 42.53 0.042 6.75 3.08 12.53
1/2/2022 9:15:00 AM 5.83 42.494 0.042 6.69 3.2 12.59
1/2/2022 9:30:00 AM 5.81 42.458 0.042 6.77 3.01 12.61
1/2/2022 9:45:00 AM 5.8 42.44 0.042 6.78 2.9 12.65
1/2/2022 10:00:00 AM 5.79 42.422 0.042 6.8 2.99 12.7
1/2/2022 10:15:00 AM 5.78 42.404 0.042 6.82 2.84 12.76
1/2/2022 10:30:00 AM 5.77 42.386 0.042 6.78 3.03 12.8
1/2/2022 10:45:00 AM 5.76 42.368 0.042 6.84 3 12.84
1/2/2022 11:00:00 AM 5.74 42.332 0.042 6.78 2.76 12.88
1/2/2022 11:15:00 AM 5.74 42.332 0.042 6.82 2.81 12.91
1/2/2022 11:30:00 AM 5.75 42.35 0.042 6.88 2.79 12.95
1/2/2022 11:45:00 AM 5.75 42.35 0.042 6.89 2.68 12.97
1/2/2022 12:00:00 PM 5.75 42.35 0.042 6.86 2.68 12.98
1/2/2022 12:15:00 PM 5.74 42.332 0.042 6.91 2.7 13
1/2/2022 12:30:00 PM 5.73 42.314 0.042 6.91 2.7 13.01
1/2/2022 12:45:00 PM 5.73 42.314 0.042 6.92 2.69 13.01
1/2/2022 1:00:00 PM 5.73 42.314 0.042 6.92 2.76 13.01
1/2/2022 1:15:00 PM 5.72 42.296 0.042 6.92 2.66 13.01
1/2/2022 1:30:00 PM 5.7 42.26 0.042 6.85 2.78 13.01
1/2/2022 1:45:00 PM 5.68 42.224 0.042 6.94 2.68 13.03
1/2/2022 2:00:00 PM 5.67 42.206 0.042 6.93 2.74 13.03
1/2/2022 2:15:00 PM 5.65 42.17 0.042 6.94 2.68 13.05
1/2/2022 2:30:00 PM 5.62 42.116 0.042 6.92 2.7 13.05
1/2/2022 2:45:00 PM 5.59 42.062 0.042 6.93 2.66 13.04
1/2/2022 3:00:00 PM 5.56 42.008 0.042 6.92 2.64 13.03
1/2/2022 3:15:00 PM 5.52 41.936 0.042 6.91 2.69 13
1/2/2022 3:30:00 PM 5.47 41.846 0.042 6.9 2.68 12.97
1/2/2022 3:45:00 PM 5.42 41.756 0.042 6.88 2.63 12.95
1/2/2022 4:00:00 PM 5.38 41.684 0.042 6.86 2.68 12.92
1/2/2022 4:15:00 PM 5.33 41.594 0.042 6.86 2.65 12.92
1/2/2022 4:30:00 PM 5.28 41.504 0.042 6.82 2.6 12.89
1/2/2022 4:45:00 PM 5.24 41.432 0.042 6.78 2.68 12.88
1/2/2022 5:00:00 PM 5.19 41.342 0.042 6.81 2.68 12.86
1/2/2022 5:15:00 PM 5.15 41.27 0.042 6.81 2.65 12.85
1/2/2022 5:30:00 PM 5.11 41.198 0.042 6.8 2.66 12.84
1/2/2022 5:45:00 PM 5.07 41.126 0.042 6.79 2.66 12.84
1/2/2022 6:00:00 PM 5.03 41.054 0.042 6.7 2.69 12.85
1/2/2022 6:15:00 PM 4.99 40.982 0.042 6.72 2.71 12.86
1/2/2022 6:30:00 PM 4.95 40.91 0.042 6.78 2.65 12.87
1/2/2022 6:45:00 PM 4.91 40.838 0.042 6.77 2.68 12.88
1/2/2022 7:00:00 PM 4.86 40.748 0.042 6.77 2.66 12.9
1/2/2022 7:15:00 PM 4.82 40.676 0.042 6.68 2.62 12.91
1/2/2022 7:30:00 PM 4.78 40.604 0.042 6.71 2.65 12.92
1/2/2022 7:45:00 PM 4.74 40.532 0.042 6.72 2.61 12.94
1/2/2022 8:00:00 PM 4.7 40.46 0.042 6.69 2.71 12.95
1/2/2022 8:15:00 PM 4.67 40.406 0.042 6.76 2.61 12.97
1/2/2022 8:30:00 PM 4.64 40.352 0.042 6.77 2.71 12.98
1/2/2022 8:45:00 PM 4.6 40.28 0.042 6.76 2.62 13
1/2/2022 9:00:00 PM 4.55 40.19 0.042 6.77 2.67 13.02
1/2/2022 9:15:00 PM 4.52 40.136 0.042 6.77 2.61 13.03
1/2/2022 9:30:00 PM 4.48 40.064 0.042 6.75 2.75 13.05
1/2/2022 9:45:00 PM 4.42 39.956 0.042 6.77 2.81 13.06
1/2/2022 10:00:00 PM 4.38 39.884 0.042 6.77 2.6 13.08
1/2/2022 10:15:00 PM 4.34 39.812 0.042 6.7 2.65 13.1
1/2/2022 10:30:00 PM 4.31 39.758 0.042 6.74 2.62 13.11
1/2/2022 10:45:00 PM 4.28 39.704 0.042 6.76 2.6 13.12
1/2/2022 11:00:00 PM 4.24 39.632 0.042 6.72 2.64 13.13
1/2/2022 11:15:00 PM 4.19 39.542 0.042 6.77 2.59 13.14
1/2/2022 11:30:00 PM 4.15 39.47 0.042 6.77 2.63 13.16
1/2/2022 11:45:00 PM 4.1 39.38 0.042 6.77 2.69 13.18
1/3/2022 12:00:00 AM 4.06 39.308 0.042 6.68 2.61 13.19
1/3/2022 12:15:00 AM 4.02 39.236 0.042 6.77 2.64 13.2
1/3/2022 12:30:00 AM 3.98 39.164 0.042 6.7 2.65 13.22
1/3/2022 12:45:00 AM 3.94 39.092 0.042 6.77 2.62 13.24
1/3/2022 1:00:00 AM 3.92 39.056 0.042 6.77 2.62 13.25
1/3/2022 1:15:00 AM 3.89 39.002 0.042 6.75 2.7 13.26
1/3/2022 1:30:00 AM 3.86 38.948 0.042 6.77 2.59 13.28
1/3/2022 1:45:00 AM 3.83 38.894 0.042 6.77 2.61 13.29
1/3/2022 2:00:00 AM 3.79 38.822 0.042 6.76 2.53 13.3
1/3/2022 2:15:00 AM 3.75 38.75 0.042 6.68 2.58 13.32
1/3/2022 2:30:00 AM 3.71 38.678 0.042 6.77 2.6 13.35
1/3/2022 2:45:00 AM 3.68 38.624 0.042 6.73 2.55 13.35
1/3/2022 3:00:00 AM 3.66 38.588 0.042 6.71 2.57 13.37
1/3/2022 3:15:00 AM 3.62 38.516 0.042 6.77 2.56 13.38
1/3/2022 3:30:00 AM 3.56 38.408 0.042 6.77 2.56 13.41
1/3/2022 3:45:00 AM 3.52 38.336 0.042 6.77 2.57 13.42
1/3/2022 4:00:00 AM 3.49 38.282 0.04 6.75 5.43 13.42
1/3/2022 4:15:00 AM 3.44 38.192 0.042 6.77 2.64 13.45
1/3/2022 4:30:00 AM 3.41 38.138 0.042 6.77 2.6 13.45
1/3/2022 4:45:00 AM 3.37 38.066 0.042 6.67 2.51 13.47
1/3/2022 5:00:00 AM 3.31 37.958 0.042 6.77 2.51 13.48
1/3/2022 5:15:00 AM 3.27 37.886 0.042 6.77 2.67 13.49
1/3/2022 5:30:00 AM 3.23 37.814 0.042 6.77 2.65 13.5
1/3/2022 5:45:00 AM 3.19 37.742 0.042 6.77 2.62 13.52
1/3/2022 6:00:00 AM 3.16 37.688 0.042 6.77 2.54 13.53
1/3/2022 6:15:00 AM 3.13 37.634 0.042 6.73 2.64 13.54
1/3/2022 6:30:00 AM 3.08 37.544 0.042 6.77 2.57 13.55
1/3/2022 6:45:00 AM 3.05 37.49 0.042 6.76 2.57 13.57
1/3/2022 7:00:00 AM 3.02 37.436 0.042 6.77 2.57 13.58
1/3/2022 7:15:00 AM 2.98 37.364 0.042 6.68 2.57 13.6
1/3/2022 7:30:00 AM 2.94 37.292 0.042 6.78 2.6 13.61
1/3/2022 7:45:00 AM 2.9 37.22 0.042 6.68 2.57 13.64
1/3/2022 8:00:00 AM 2.86 37.148 0.042 6.78 2.57 13.66
1/3/2022 8:15:00 AM 2.82 37.076 0.042 6.7 2.48 13.7
1/3/2022 8:30:00 AM 2.78 37.004 0.04 6.78 5.38 13.75
1/3/2022 8:45:00 AM 2.75 36.95 0.04 6.78 5.64 13.8
1/3/2022 9:00:00 AM 2.71 36.878 0.042 6.73 2.52 13.87
1/3/2022 9:15:00 AM 2.69 36.842 0.042 6.83 2.5 13.93
1/3/2022 9:30:00 AM 2.67 36.806 0.042 6.78 2.54 14.01
1/3/2022 9:45:00 AM 2.66 36.788 0.04 6.85 5.23 14.07
1/3/2022 10:00:00 AM 2.67 36.806 0.042 6.88 2.46 14.13
1/3/2022 10:15:00 AM 2.67 36.806 0.042 6.9 2.46 14.17
1/3/2022 10:30:00 AM 2.66 36.788 0.042 6.91 2.43 14.21
1/3/2022 10:45:00 AM 2.66 36.788 0.04 6.79 5.3 14.24
1/3/2022 11:00:00 AM 2.66 36.788 0.042 6.93 2.44 14.24
1/3/2022 11:15:00 AM 2.67 36.806 0.042 6.93 2.43 14.25
1/3/2022 11:30:00 AM 2.66 36.788 0.042 6.92 2.48 14.27
1/3/2022 11:45:00 AM 2.65 36.77 0.042 6.92 2.46 14.26
1/3/2022 12:00:00 PM 2.66 36.788 0.042 6.94 2.46 14.25
1/3/2022 12:15:00 PM 2.66 36.788 0.042 6.95 2.41 14.27
1/3/2022 12:30:00 PM 2.68 36.824 0.042 6.9 2.4 14.26
1/3/2022 12:45:00 PM 2.71 36.878 0.042 6.89 2.4 14.25
1/3/2022 1:00:00 PM 2.73 36.914 0.042 6.91 2.39 14.24
1/3/2022 1:15:00 PM 2.74 36.932 0.042 6.95 2.39 14.22
1/3/2022 1:30:00 PM 2.77 36.986 0.042 6.93 2.38 14.21
1/3/2022 1:45:00 PM 2.77 36.986 0.042 6.95 2.44 14.19
1/3/2022 2:00:00 PM 2.79 37.022 0.04 6.92 5.16 14.17
1/3/2022 2:15:00 PM 2.82 37.076 0.042 6.93 2.52 14.15
1/3/2022 2:30:00 PM 2.82 37.076 0.04 6.82 5.21 14.13
1/3/2022 2:45:00 PM 2.83 37.094 0.042 6.93 2.39 14.12
1/3/2022 3:00:00 PM 2.81 37.058 0.04 6.91 5.3 14.11
1/3/2022 3:15:00 PM 2.81 37.058 0.042 6.85 2.4 14.1
1/3/2022 3:30:00 PM 2.8 37.04 0.042 6.92 2.35 14.09
1/3/2022 3:45:00 PM 2.76 36.968 0.042 6.85 2.39 14.09
1/3/2022 4:00:00 PM 2.72 36.896 0.042 6.92 2.37 14.09
1/3/2022 4:15:00 PM 2.67 36.806 0.042 6.84 2.44 14.07
1/3/2022 4:30:00 PM 2.62 36.716 0.042 6.89 2.36 14.06
1/3/2022 4:45:00 PM 2.58 36.644 0.042 6.9 2.45 14.03
1/3/2022 5:00:00 PM 2.52 36.536 0.042 6.88 2.41 14
1/3/2022 5:15:00 PM 2.47 36.446 0.042 6.86 2.39 13.97
1/3/2022 5:30:00 PM 2.42 36.356 0.042 6.78 2.43 13.94
1/3/2022 5:45:00 PM 2.37 36.266 0.042 6.75 2.5 13.94
1/3/2022 6:00:00 PM 2.32 36.176 0.042 6.78 2.45 13.93
1/3/2022 6:15:00 PM 2.28 36.104 0.042 6.8 2.43 13.93
1/3/2022 6:30:00 PM 2.24 36.032 0.04 6.8 5.18 13.94
1/3/2022 6:45:00 PM 2.21 35.978 0.042 6.81 2.44 13.95
1/3/2022 7:00:00 PM 2.18 35.924 0.04 6.8 5.13 13.95
1/3/2022 7:15:00 PM 2.15 35.87 0.04 6.81 5.11 13.96
1/3/2022 7:30:00 PM 2.12 35.816 0.042 6.81 2.42 13.97
1/3/2022 7:45:00 PM 2.09 35.762 0.042 6.81 2.46 13.98
1/3/2022 8:00:00 PM 2.06 35.708 0.042 6.81 2.47 14
1/3/2022 8:15:00 PM 2.03 35.654 0.042 6.7 2.49 14.01
1/3/2022 8:30:00 PM 1.99 35.582 0.042 6.8 2.45 14.03
1/3/2022 8:45:00 PM 1.96 35.528 0.042 6.81 2.5 14.04
1/3/2022 9:00:00 PM 1.92 35.456 0.042 6.8 2.49 14.06
1/3/2022 9:15:00 PM 1.88 35.384 0.042 6.8 2.47 14.07
1/3/2022 9:30:00 PM 1.84 35.312 0.043 6.71 2.46 14.09
1/3/2022 9:45:00 PM 1.8 35.24 0.043 6.8 2.52 14.11
1/3/2022 10:00:00 PM 1.76 35.168 0.043 6.72 2.45 14.12
1/3/2022 10:15:00 PM 1.73 35.114 0.043 6.8 2.47 14.13
1/3/2022 10:30:00 PM 1.69 35.042 0.043 6.75 2.43 14.15
1/3/2022 10:45:00 PM 1.66 34.988 0.043 6.8 2.46 14.16
1/3/2022 11:00:00 PM 1.62 34.916 0.043 6.8 2.47 14.17
1/3/2022 11:15:00 PM 1.59 34.862 0.043 6.8 2.41 14.18
1/3/2022 11:30:00 PM 1.57 34.826 0.043 6.8 2.47 14.19
1/3/2022 11:45:00 PM 1.53 34.754 0.043 6.8 2.56 14.2
1/4/2022 12:00:00 AM 1.51 34.718 0.043 6.8 2.48 14.22
1/4/2022 12:15:00 AM 1.48 34.664 0.04 6.77 5.51 14.23
1/4/2022 12:30:00 AM 1.46 34.628 0.043 6.8 2.5 14.24
1/4/2022 12:45:00 AM 1.43 34.574 0.043 6.8 2.49 14.25
1/4/2022 1:00:00 AM 1.4 34.52 0.043 6.8 2.49 14.26
1/4/2022 1:15:00 AM 1.38 34.484 0.043 6.7 2.47 14.27
1/4/2022 1:30:00 AM 1.36 34.448 0.043 6.8 2.45 14.28
1/4/2022 1:45:00 AM 1.34 34.412 0.043 6.8 2.46 14.29
1/4/2022 2:00:00 AM 1.33 34.394 0.043 6.8 2.5 14.3
1/4/2022 2:15:00 AM 1.33 34.394 0.043 6.79 2.45 14.31
1/4/2022 2:30:00 AM 1.33 34.394 0.043 6.8 2.43 14.32
1/4/2022 2:45:00 AM 1.33 34.394 0.043 6.8 2.49 14.32
1/4/2022 3:00:00 AM 1.33 34.394 0.043 6.8 2.5 14.32
1/4/2022 3:15:00 AM 1.32 34.376 0.043 6.68 2.44 14.33
1/4/2022 3:30:00 AM 1.31 34.358 0.043 6.8 2.49 14.33
1/4/2022 3:45:00 AM 1.29 34.322 0.043 6.72 2.42 14.33
1/4/2022 4:00:00 AM 1.27 34.286 0.043 6.8 2.45 14.34
1/4/2022 4:15:00 AM 1.25 34.25 0.043 6.8 2.45 14.34
1/4/2022 4:30:00 AM 1.24 34.232 0.043 6.8 2.42 14.35
1/4/2022 4:45:00 AM 1.22 34.196 0.043 6.79 2.44 14.36
1/4/2022 5:00:00 AM 1.21 34.178 0.043 6.8 2.37 14.36
1/4/2022 5:15:00 AM 1.19 34.142 0.043 6.8 2.38 14.38
1/4/2022 5:30:00 AM 1.18 34.124 0.043 6.8 2.37 14.38
1/4/2022 5:45:00 AM 1.16 34.088 0.043 6.79 2.5 14.38
1/4/2022 6:00:00 AM 1.14 34.052 0.043 6.74 2.41 14.39
1/4/2022 6:15:00 AM 1.13 34.034 0.043 6.8 2.47 14.39
1/4/2022 6:30:00 AM 1.11 33.998 0.043 6.79 2.44 14.4
1/4/2022 6:45:00 AM 1.1 33.98 0.043 6.8 2.59 14.4
1/4/2022 7:00:00 AM 1.09 33.962 0.043 6.8 2.52 14.41
1/4/2022 7:15:00 AM 1.08 33.944 0.043 6.8 2.59 14.41
1/4/2022 7:30:00 AM 1.06 33.908 0.043 6.8 2.42 14.41
1/4/2022 7:45:00 AM 1.05 33.89 0.043 6.8 2.5 14.43
1/4/2022 8:00:00 AM 1.05 33.89 0.043 6.74 2.57 14.45
1/4/2022 8:15:00 AM 1.04 33.872 0.043 6.81 2.56 14.48
1/4/2022 8:30:00 AM 1.04 33.872 0.043 6.82 2.47 14.51
1/4/2022 8:45:00 AM 1.04 33.872 0.042 6.66 2.52 14.55
1/4/2022 9:00:00 AM 1.05 33.89 0.042 6.84 2.43 14.6
1/4/2022 9:15:00 AM 1.06 33.908 0.042 6.8 2.58 14.62
1/4/2022 9:30:00 AM 1.07 33.926 0.042 6.86 2.44 14.66
1/4/2022 9:45:00 AM 1.1 33.98 0.042 6.86 2.48 14.68
1/4/2022 10:00:00 AM 1.13 34.034 0.042 6.88 2.47 14.7
1/4/2022 10:15:00 AM 1.18 34.124 0.042 6.88 2.47 14.71
1/4/2022 10:30:00 AM 1.24 34.232 0.042 6.89 2.46 14.72
1/4/2022 10:45:00 AM 1.31 34.358 0.042 6.8 2.48 14.72
1/4/2022 11:00:00 AM 1.38 34.484 0.042 6.9 2.45 14.72
1/4/2022 11:15:00 AM 1.45 34.61 0.04 6.89 5.05 14.71
1/4/2022 11:30:00 AM 1.52 34.736 0.042 6.86 2.46 14.69
1/4/2022 11:45:00 AM 1.6 34.88 0.042 6.92 2.42 14.66
1/4/2022 12:00:00 PM 1.67 35.006 0.042 6.92 2.37 14.64
1/4/2022 12:15:00 PM 1.77 35.186 0.042 6.82 2.38 14.6
1/4/2022 12:30:00 PM 1.85 35.33 0.042 6.87 2.42 14.57
1/4/2022 12:45:00 PM 1.94 35.492 0.042 6.93 2.4 14.53
1/4/2022 1:00:00 PM 2.03 35.654 0.042 6.92 2.36 14.49
1/4/2022 1:15:00 PM 2.14 35.852 0.04 6.89 5.15 14.47
1/4/2022 1:30:00 PM 2.22 35.996 0.039 6.92 5.22 14.44
1/4/2022 1:45:00 PM 2.31 36.158 0.042 6.92 2.38 14.41
1/4/2022 2:00:00 PM 2.41 36.338 0.042 6.84 2.4 14.38
1/4/2022 2:15:00 PM 2.48 36.464 0.042 6.91 2.39 14.35
1/4/2022 2:30:00 PM 2.55 36.59 0.042 6.87 2.36 14.3
1/4/2022 2:45:00 PM 2.61 36.698 0.042 6.93 2.35 14.27
1/4/2022 3:00:00 PM 2.65 36.77 0.042 6.85 2.33 14.23
1/4/2022 3:15:00 PM 2.7 36.86 0.042 6.92 2.35 14.2
1/4/2022 3:30:00 PM 2.75 36.95 0.039 6.89 5.2 14.16
1/4/2022 3:45:00 PM 2.77 36.986 0.039 6.89 5.07 14.13
1/4/2022 4:00:00 PM 2.79 37.022 0.039 6.88 5.13 14.1
1/4/2022 4:15:00 PM 2.8 37.04 0.042 6.9 2.35 14.08
1/4/2022 4:30:00 PM 2.8 37.04 0.039 6.76 5.44 14.03
1/4/2022 4:45:00 PM 2.81 37.058 0.04 6.87 5.17 13.98
1/4/2022 5:00:00 PM 2.8 37.04 0.042 6.87 2.42 13.92
1/4/2022 5:15:00 PM 2.8 37.04 0.04 6.84 5.19 13.88
1/4/2022 5:30:00 PM 2.78 37.004 0.042 6.84 2.44 13.84
1/4/2022 5:45:00 PM 2.77 36.986 0.042 6.82 2.41 13.81
1/4/2022 6:00:00 PM 2.76 36.968 0.042 6.79 2.41 13.78
1/4/2022 6:15:00 PM 2.74 36.932 0.042 6.82 2.49 13.77
1/4/2022 6:30:00 PM 2.73 36.914 0.04 6.77 5.35 13.77
1/4/2022 6:45:00 PM 2.71 36.878 0.042 6.81 2.5 13.76
1/4/2022 7:00:00 PM 2.7 36.86 0.042 6.71 2.44 13.75
1/4/2022 7:15:00 PM 2.69 36.842 0.04 6.78 5.31 13.76
1/4/2022 7:30:00 PM 2.68 36.824 0.042 6.71 2.46 13.75
1/4/2022 7:45:00 PM 2.67 36.806 0.04 6.77 5.3 13.75
1/4/2022 8:00:00 PM 2.66 36.788 0.042 6.79 2.44 13.75
1/4/2022 8:15:00 PM 2.64 36.752 0.042 6.79 2.43 13.75
1/4/2022 8:30:00 PM 2.62 36.716 0.042 6.7 2.46 13.75
1/4/2022 8:45:00 PM 2.59 36.662 0.042 6.73 2.4 13.76
1/4/2022 9:00:00 PM 2.57 36.626 0.042 6.79 2.5 13.76
1/4/2022 9:15:00 PM 2.55 36.59 0.042 6.78 2.4 13.77
1/4/2022 9:30:00 PM 2.53 36.554 0.042 6.79 2.49 13.78
1/4/2022 9:45:00 PM 2.51 36.518 0.042 6.72 2.48 13.78
1/4/2022 10:00:00 PM 2.49 36.482 0.042 6.79 2.4 13.78
1/4/2022 10:15:00 PM 2.47 36.446 0.042 6.74 2.39 13.79
1/4/2022 10:30:00 PM 2.44 36.392 0.042 6.7 2.47 13.8
1/4/2022 10:45:00 PM 2.43 36.374 0.042 6.79 2.44 13.8
1/4/2022 11:00:00 PM 2.42 36.356 0.042 6.79 2.41 13.8
1/4/2022 11:15:00 PM 2.41 36.338 0.042 6.78 2.44 13.8
1/4/2022 11:30:00 PM 2.4 36.32 0.042 6.79 2.49 13.81
1/4/2022 11:45:00 PM 2.4 36.32 0.042 6.78 2.46 13.8
1/5/2022 12:00:00 AM 2.39 36.302 0.042 6.75 2.49 13.81
1/5/2022 12:15:00 AM 2.38 36.284 0.042 6.79 2.46 13.81
1/5/2022 12:30:00 AM 2.38 36.284 0.042 6.79 2.41 13.8
1/5/2022 12:45:00 AM 2.38 36.284 0.042 6.73 2.45 13.81
1/5/2022 1:00:00 AM 2.37 36.266 0.042 6.78 2.43 13.8
1/5/2022 1:15:00 AM 2.37 36.266 0.042 6.76 2.43 13.81
1/5/2022 1:30:00 AM 2.37 36.266 0.042 6.79 2.39 13.8
1/5/2022 1:45:00 AM 2.37 36.266 0.042 6.71 2.43 13.8
1/5/2022 2:00:00 AM 2.36 36.248 0.042 6.79 2.4 13.8
1/5/2022 2:15:00 AM 2.36 36.248 0.042 6.7 2.43 13.81
1/5/2022 2:30:00 AM 2.35 36.23 0.042 6.79 2.44 13.8
1/5/2022 2:45:00 AM 2.35 36.23 0.042 6.78 2.51 13.8
1/5/2022 3:00:00 AM 2.34 36.212 0.042 6.78 2.45 13.8
1/5/2022 3:15:00 AM 2.34 36.212 0.042 6.79 2.46 13.8
1/5/2022 3:30:00 AM 2.33 36.194 0.042 6.79 2.46 13.8
1/5/2022 3:45:00 AM 2.33 36.194 0.042 6.75 2.39 13.8
1/5/2022 4:00:00 AM 2.32 36.176 0.042 6.79 2.43 13.8
1/5/2022 4:15:00 AM 2.32 36.176 0.042 6.78 2.48 13.79
1/5/2022 4:30:00 AM 2.31 36.158 0.042 6.78 2.41 13.79
1/5/2022 4:45:00 AM 2.31 36.158 0.042 6.78 2.42 13.79
1/5/2022 5:00:00 AM 2.3 36.14 0.042 6.69 2.4 13.79
1/5/2022 5:15:00 AM 2.31 36.158 0.042 6.78 2.42 13.78
1/5/2022 5:30:00 AM 2.31 36.158 0.042 6.79 2.48 13.78
1/5/2022 5:45:00 AM 2.31 36.158 0.042 6.78 2.44 13.77
1/5/2022 6:00:00 AM 2.31 36.158 0.042 6.77 2.44 13.77
1/5/2022 6:15:00 AM 2.31 36.158 0.042 6.78 2.43 13.77
1/5/2022 6:30:00 AM 2.3 36.14 0.042 6.79 2.43 13.77
1/5/2022 6:45:00 AM 2.3 36.14 0.042 6.78 2.5 13.76
1/5/2022 7:00:00 AM 2.29 36.122 0.042 6.79 2.4 13.76
1/5/2022 7:15:00 AM 2.29 36.122 0.042 6.78 2.48 13.75
1/5/2022 7:30:00 AM 2.29 36.122 0.042 6.78 2.52 13.75
1/5/2022 7:45:00 AM 2.29 36.122 0.042 6.79 2.4 13.75
1/5/2022 8:00:00 AM 2.3 36.14 0.04 6.79 5.17 13.78
1/5/2022 8:15:00 AM 2.31 36.158 0.04 6.64 5.29 13.8
1/5/2022 8:30:00 AM 2.32 36.176 0.042 6.81 2.42 13.84
1/5/2022 8:45:00 AM 2.33 36.194 0.042 6.82 2.42 13.88
1/5/2022 9:00:00 AM 2.36 36.248 0.042 6.83 2.46 13.94
1/5/2022 9:15:00 AM 2.38 36.284 0.042 6.79 2.43 13.98
1/5/2022 9:30:00 AM 2.41 36.338 0.042 6.81 2.39 14.02
1/5/2022 9:45:00 AM 2.44 36.392 0.042 6.88 2.43 14.05
1/5/2022 10:00:00 AM 2.48 36.464 0.042 6.9 2.42 14.07
1/5/2022 10:15:00 AM 2.52 36.536 0.042 6.81 2.48 14.07
1/5/2022 10:30:00 AM 2.58 36.644 0.042 6.86 2.35 14.08
1/5/2022 10:45:00 AM 2.63 36.734 0.039 6.91 5.22 14.07
1/5/2022 11:00:00 AM 2.69 36.842 0.039 6.92 5.06 14.07
1/5/2022 11:15:00 AM 2.77 36.986 0.039 6.91 4.95 14.07
1/5/2022 11:30:00 AM 2.85 37.13 0.039 6.92 5.13 14.05
1/5/2022 11:45:00 AM 2.92 37.256 0.041 6.95 2.37 14.04
1/5/2022 12:00:00 PM 3 37.4 0.041 6.95 2.39 14.02
1/5/2022 12:15:00 PM 3.07 37.526 0.041 6.87 2.36 14
1/5/2022 12:30:00 PM 3.15 37.67 0.041 6.9 2.37 13.98
1/5/2022 12:45:00 PM 3.21 37.778 0.041 6.94 2.41 13.94
1/5/2022 1:00:00 PM 3.26 37.868 0.041 6.96 2.39 13.91
1/5/2022 1:15:00 PM 3.34 38.012 0.041 6.96 2.38 13.87
1/5/2022 1:30:00 PM 3.43 38.174 0.041 6.96 2.36 13.84
1/5/2022 1:45:00 PM 3.52 38.336 0.041 6.96 2.34 13.81
1/5/2022 2:00:00 PM 3.64 38.552 0.041 6.96 2.37 13.79
1/5/2022 2:15:00 PM 3.7 38.66 0.041 6.96 2.34 13.76
1/5/2022 2:30:00 PM 3.77 38.786 0.041 6.96 2.41 13.71
1/5/2022 2:45:00 PM 3.83 38.894 0.041 6.95 2.35 13.68
1/5/2022 3:00:00 PM 3.88 38.984 0.041 6.96 2.33 13.66
1/5/2022 3:15:00 PM 3.91 39.038 0.041 6.86 2.31 13.62
1/5/2022 3:30:00 PM 3.95 39.11 0.041 6.93 2.34 13.59
1/5/2022 3:45:00 PM 3.97 39.146 0.041 6.94 2.32 13.56
1/5/2022 4:00:00 PM 3.98 39.164 0.041 6.94 2.37 13.53
1/5/2022 4:15:00 PM 3.99 39.182 0.041 6.92 2.38 13.48
1/5/2022 4:30:00 PM 3.99 39.182 0.041 6.82 2.36 13.43
1/5/2022 4:45:00 PM 3.98 39.164 0.041 6.89 2.42 13.37
1/5/2022 5:00:00 PM 3.97 39.146 0.041 6.87 2.4 13.31
1/5/2022 5:15:00 PM 3.96 39.128 0.041 6.85 2.39 13.25
1/5/2022 5:30:00 PM 3.95 39.11 0.041 6.75 2.42 13.22
1/5/2022 5:45:00 PM 3.94 39.092 0.042 6.82 2.54 13.18
1/5/2022 6:00:00 PM 3.93 39.074 0.042 6.81 2.43 13.16
1/5/2022 6:15:00 PM 3.92 39.056 0.042 6.8 2.47 13.15
1/5/2022 6:30:00 PM 3.9 39.02 0.042 6.8 2.43 13.13
1/5/2022 6:45:00 PM 3.88 38.984 0.042 6.79 2.36 13.13
1/5/2022 7:00:00 PM 3.85 38.93 0.042 6.79 2.43 13.13
1/5/2022 7:15:00 PM 3.83 38.894 0.042 6.79 2.67 13.14
1/5/2022 7:30:00 PM 3.79 38.822 0.042 6.78 2.61 13.14
1/5/2022 7:45:00 PM 3.76 38.768 0.042 6.69 2.55 13.15
1/5/2022 8:00:00 PM 3.73 38.714 0.042 6.78 2.38 13.16
1/5/2022 8:15:00 PM 3.69 38.642 0.042 6.78 2.46 13.15
1/5/2022 8:30:00 PM 3.65 38.57 0.042 6.77 2.4 13.16
1/5/2022 8:45:00 PM 3.62 38.516 0.042 6.77 2.45 13.17
1/5/2022 9:00:00 PM 3.59 38.462 0.042 6.77 2.41 13.18
1/5/2022 9:15:00 PM 3.56 38.408 0.042 6.77 2.43 13.19
1/5/2022 9:30:00 PM 3.54 38.372 0.042 6.77 2.43 13.21
1/5/2022 9:45:00 PM 3.53 38.354 0.042 6.77 2.37 13.21
1/5/2022 10:00:00 PM 3.52 38.336 0.042 6.67 2.4 13.21
1/5/2022 10:15:00 PM 3.49 38.282 0.042 6.76 2.48 13.21
1/5/2022 10:30:00 PM 3.47 38.246 0.042 6.72 2.56 13.22
1/5/2022 10:45:00 PM 3.45 38.21 0.042 6.77 2.43 13.23
1/5/2022 11:00:00 PM 3.44 38.192 0.042 6.76 2.47 13.24
1/5/2022 11:15:00 PM 3.44 38.192 0.042 6.77 2.41 13.24
1/5/2022 11:30:00 PM 3.44 38.192 0.042 6.66 2.43 13.25
1/5/2022 11:45:00 PM 3.44 38.192 0.042 6.75 2.38 13.26
1/6/2022 12:00:00 AM 3.41 38.138 0.042 6.77 2.43 13.26
1/6/2022 12:15:00 AM 3.39 38.102 0.042 6.77 2.46 13.26
1/6/2022 12:30:00 AM 3.36 38.048 0.042 6.77 2.43 13.28
1/6/2022 12:45:00 AM 3.33 37.994 0.042 6.77 2.36 13.29
1/6/2022 1:00:00 AM 3.29 37.922 0.042 6.77 2.41 13.29
1/6/2022 1:15:00 AM 3.25 37.85 0.042 6.77 2.46 13.31
1/6/2022 1:30:00 AM 3.21 37.778 0.042 6.78 2.41 13.33
1/6/2022 1:45:00 AM 3.18 37.724 0.042 6.78 2.39 13.34
1/6/2022 2:00:00 AM 3.14 37.652 0.042 6.78 2.44 13.35
1/6/2022 2:15:00 AM 3.12 37.616 0.042 6.69 2.44 13.37
1/6/2022 2:30:00 AM 3.09 37.562 0.042 6.78 2.42 13.39
1/6/2022 2:45:00 AM 3.06 37.508 0.042 6.78 2.37 13.4
1/6/2022 3:00:00 AM 3.02 37.436 0.042 6.78 2.45 13.42
1/6/2022 3:15:00 AM 3 37.4 0.042 6.78 2.35 13.43
1/6/2022 3:30:00 AM 2.97 37.346 0.042 6.69 2.41 13.45
1/6/2022 3:45:00 AM 2.94 37.292 0.042 6.78 2.39 13.47
1/6/2022 4:00:00 AM 2.91 37.238 0.042 6.77 2.41 13.48
1/6/2022 4:15:00 AM 2.87 37.166 0.042 6.72 2.38 13.49
1/6/2022 4:30:00 AM 2.83 37.094 0.042 6.78 2.44 13.51
1/6/2022 4:45:00 AM 2.79 37.022 0.042 6.78 2.42 13.53
1/6/2022 5:00:00 AM 2.76 36.968 0.042 6.76 2.39 13.54
1/6/2022 5:15:00 AM 2.73 36.914 0.041 6.76 5.17 13.56
1/6/2022 5:30:00 AM 2.69 36.842 0.042 6.71 2.39 13.57
1/6/2022 5:45:00 AM 2.66 36.788 0.04 6.75 5.33 13.58
1/6/2022 6:00:00 AM 2.61 36.698 0.042 6.78 2.41 13.6
1/6/2022 6:15:00 AM 2.55 36.59 0.042 6.78 2.4 13.61
1/6/2022 6:30:00 AM 2.51 36.518 0.042 6.78 2.49 13.64
1/6/2022 6:45:00 AM 2.48 36.464 0.042 6.78 2.41 13.65
1/6/2022 7:00:00 AM 2.43 36.374 0.042 6.78 2.37 13.66
1/6/2022 7:15:00 AM 2.39 36.302 0.042 6.78 2.43 13.69
1/6/2022 7:30:00 AM 2.35 36.23 0.042 6.68 2.47 13.7
1/6/2022 7:45:00 AM 2.32 36.176 0.042 6.75 2.52 13.72
1/6/2022 8:00:00 AM 2.31 36.158 0.042 6.76 2.47 13.75
1/6/2022 8:15:00 AM 2.29 36.122 0.042 6.8 2.44 13.78
1/6/2022 8:30:00 AM 2.26 36.068 0.041 6.78 5 13.83
1/6/2022 8:45:00 AM 2.25 36.05 0.04 6.76 5.24 13.88
1/6/2022 9:00:00 AM 2.24 36.032 0.042 6.82 2.49 13.94
1/6/2022 9:15:00 AM 2.24 36.032 0.042 6.82 2.42 14
1/6/2022 9:30:00 AM 2.24 36.032 0.042 6.86 2.43 14.07
1/6/2022 9:45:00 AM 2.25 36.05 0.042 6.81 2.36 14.12
1/6/2022 10:00:00 AM 2.26 36.068 0.042 6.89 2.36 14.17
1/6/2022 10:15:00 AM 2.26 36.068 0.042 6.9 2.4 14.21
1/6/2022 10:30:00 AM 2.26 36.068 0.039 6.75 5.13 14.24
1/6/2022 10:45:00 AM 2.3 36.14 0.039 6.9 5.21 14.25
1/6/2022 11:00:00 AM 2.29 36.122 0.039 6.9 5.07 14.27
1/6/2022 11:15:00 AM 2.33 36.194 0.042 6.93 2.36 14.27
1/6/2022 11:30:00 AM 2.29 36.122 0.04 6.92 5.36 14.28
1/6/2022 11:45:00 AM 2.38 36.284 0.042 6.95 2.33 14.28
1/6/2022 12:00:00 PM 2.37 36.266 0.042 6.95 2.31 14.27
1/6/2022 12:15:00 PM 2.4 36.32 0.041 6.95 2.3 14.25
1/6/2022 12:30:00 PM 2.46 36.428 0.041 6.95 2.26 14.23
1/6/2022 12:45:00 PM 2.49 36.482 0.041 6.86 2.31 14.22
1/6/2022 1:00:00 PM 2.53 36.554 0.041 6.95 2.29 14.2
1/6/2022 1:15:00 PM 2.56 36.608 0.041 6.95 2.4 14.19
1/6/2022 1:30:00 PM 2.6 36.68 0.041 6.94 2.27 14.17
1/6/2022 1:45:00 PM 2.64 36.752 0.041 6.96 2.28 14.18
1/6/2022 2:00:00 PM 2.68 36.824 0.039 6.94 4.94 14.17
1/6/2022 2:15:00 PM 2.71 36.878 0.041 6.95 2.27 14.16
1/6/2022 2:30:00 PM 2.74 36.932 0.041 6.96 2.24 14.15
1/6/2022 2:45:00 PM 2.76 36.968 0.039 6.93 4.9 14.15
1/6/2022 3:00:00 PM 2.77 36.986 0.041 6.96 2.26 14.14
1/6/2022 3:15:00 PM 2.76 36.968 0.039 6.94 5.08 14.12
1/6/2022 3:30:00 PM 2.75 36.95 0.039 6.93 5.03 14.1
1/6/2022 3:45:00 PM 2.74 36.932 0.039 6.92 4.87 14.07
1/6/2022 4:00:00 PM 2.71 36.878 0.041 6.94 2.31 14.04
1/6/2022 4:15:00 PM 2.69 36.842 0.041 6.93 2.29 14
1/6/2022 4:30:00 PM 2.68 36.824 0.041 6.9 2.29 13.95
1/6/2022 4:45:00 PM 2.65 36.77 0.041 6.89 2.27 13.89
1/6/2022 5:00:00 PM 2.64 36.752 0.042 6.84 2.29 13.85
1/6/2022 5:15:00 PM 2.62 36.716 0.042 6.86 2.29 13.81
1/6/2022 5:30:00 PM 2.61 36.698 0.042 6.84 2.37 13.78
1/6/2022 5:45:00 PM 2.6 36.68 0.042 6.83 2.33 13.75
1/6/2022 6:00:00 PM 2.59 36.662 0.042 6.79 2.4 13.73
1/6/2022 6:15:00 PM 2.58 36.644 0.042 6.81 2.37 13.72
1/6/2022 6:30:00 PM 2.57 36.626 0.042 6.81 2.32 13.71
1/6/2022 6:45:00 PM 2.57 36.626 0.042 6.74 2.37 13.71
1/6/2022 7:00:00 PM 2.56 36.608 0.042 6.75 2.26 13.7
1/6/2022 7:15:00 PM 2.55 36.59 0.042 6.8 2.25 13.7
1/6/2022 7:30:00 PM 2.55 36.59 0.042 6.71 2.27 13.7
1/6/2022 7:45:00 PM 2.54 36.572 0.042 6.79 2.26 13.7
1/6/2022 8:00:00 PM 2.53 36.554 0.042 6.73 2.32 13.7
1/6/2022 8:15:00 PM 2.51 36.518 0.042 6.79 2.32 13.7
1/6/2022 8:30:00 PM 2.5 36.5 0.042 6.73 2.34 13.7
1/6/2022 8:45:00 PM 2.48 36.464 0.042 6.74 2.36 13.71
1/6/2022 9:00:00 PM 2.46 36.428 0.042 6.78 2.33 13.71
1/6/2022 9:15:00 PM 2.42 36.356 0.042 6.76 2.33 13.72
1/6/2022 9:30:00 PM 2.4 36.32 0.042 6.79 2.46 13.72
1/6/2022 9:45:00 PM 2.38 36.284 0.042 6.78 2.32 13.73
1/6/2022 10:00:00 PM 2.35 36.23 0.042 6.79 2.36 13.74
1/6/2022 10:15:00 PM 2.33 36.194 0.042 6.74 2.29 13.75
1/6/2022 10:30:00 PM 2.32 36.176 0.042 6.74 2.33 13.75
1/6/2022 10:45:00 PM 2.31 36.158 0.042 6.78 2.36 13.75
1/6/2022 11:00:00 PM 2.3 36.14 0.042 6.73 2.28 13.76
1/6/2022 11:15:00 PM 2.28 36.104 0.04 6.77 5.26 13.76
1/6/2022 11:30:00 PM 2.27 36.086 0.04 6.76 4.96 13.77
1/6/2022 11:45:00 PM 2.26 36.068 0.042 6.78 2.37 13.77
1/7/2022 12:00:00 AM 2.25 36.05 0.04 6.75 5.13 13.78
1/7/2022 12:15:00 AM 2.23 36.014 0.04 6.77 5.05 13.77
1/7/2022 12:30:00 AM 2.22 35.996 0.04 6.75 5.09 13.78
1/7/2022 12:45:00 AM 2.21 35.978 0.042 6.72 2.29 13.78
1/7/2022 1:00:00 AM 2.19 35.942 0.04 6.75 4.94 13.78
1/7/2022 1:15:00 AM 2.18 35.924 0.042 6.79 2.33 13.79
1/7/2022 1:30:00 AM 2.17 35.906 0.04 6.76 5.13 13.79
1/7/2022 1:45:00 AM 2.16 35.888 0.042 6.78 2.31 13.79
1/7/2022 2:00:00 AM 2.13 35.834 0.042 6.76 2.34 13.79
1/7/2022 2:15:00 AM 2.12 35.816 0.04 6.76 5.1 13.81
1/7/2022 2:30:00 AM 2.1 35.78 0.042 6.78 2.3 13.82
1/7/2022 2:45:00 AM 2.09 35.762 0.04 6.76 5.21 13.82
1/7/2022 3:00:00 AM 2.09 35.762 0.04 6.76 4.98 13.83
1/7/2022 3:15:00 AM 2.08 35.744 0.04 6.78 5.13 13.84
1/7/2022 3:30:00 AM 2.07 35.726 0.042 6.77 2.3 13.84
1/7/2022 3:45:00 AM 2.06 35.708 0.042 6.78 2.36 13.84
1/7/2022 4:00:00 AM 2.05 35.69 0.042 6.78 2.29 13.85
1/7/2022 4:15:00 AM 2.05 35.69 0.042 6.7 2.32 13.85
1/7/2022 4:30:00 AM 2.04 35.672 0.042 6.78 2.24 13.86
1/7/2022 4:45:00 AM 2.04 35.672 0.042 6.72 2.31 13.86
1/7/2022 5:00:00 AM 2.03 35.654 0.041 6.76 5.21 13.86
1/7/2022 5:15:00 AM 2.03 35.654 0.042 6.71 2.35 13.86
1/7/2022 5:30:00 AM 2.02 35.636 0.042 6.78 2.28 13.87
1/7/2022 5:45:00 AM 2.02 35.636 0.042 6.74 2.25 13.87
1/7/2022 6:00:00 AM 2.02 35.636 0.042 6.78 2.26 13.88
1/7/2022 6:15:00 AM 2.01 35.618 0.042 6.78 2.32 13.88
1/7/2022 6:30:00 AM 2 35.6 0.04 6.71 5.1 13.88
1/7/2022 6:45:00 AM 1.99 35.582 0.042 6.78 2.35 13.89
1/7/2022 7:00:00 AM 1.98 35.564 0.042 6.78 2.29 13.89
1/7/2022 7:15:00 AM 1.97 35.546 0.042 6.78 2.3 13.89
1/7/2022 7:30:00 AM 1.96 35.528 0.042 6.69 2.31 13.9
1/7/2022 7:45:00 AM 1.95 35.51 0.042 6.73 2.39 13.91
1/7/2022 8:00:00 AM 1.94 35.492 0.042 6.78 2.29 13.94
1/7/2022 8:15:00 AM 1.92 35.456 0.042 6.8 2.45 13.97
1/7/2022 8:30:00 AM 1.92 35.456 0.042 6.8 2.3 14.02
1/7/2022 8:45:00 AM 1.92 35.456 0.042 6.74 2.36 14.07
1/7/2022 9:00:00 AM 1.93 35.474 0.042 6.78 2.34 14.14
1/7/2022 9:15:00 AM 1.93 35.474 0.042 6.85 2.34 14.2
1/7/2022 9:30:00 AM 1.93 35.474 0.042 6.87 2.38 14.24
1/7/2022 9:45:00 AM 1.94 35.492 0.042 6.88 2.35 14.29
1/7/2022 10:00:00 AM 1.96 35.528 0.042 6.83 2.32 14.32
1/7/2022 10:15:00 AM 1.97 35.546 0.042 6.9 2.29 14.35
1/7/2022 10:30:00 AM 1.98 35.564 0.042 6.92 2.34 14.37
1/7/2022 10:45:00 AM 2.01 35.618 0.039 6.91 4.98 14.38
1/7/2022 11:00:00 AM 2.05 35.69 0.042 6.94 2.29 14.39
1/7/2022 11:15:00 AM 2.09 35.762 0.041 6.94 2.24 14.4
1/7/2022 11:30:00 AM 2.11 35.798 0.039 6.91 5.06 14.4
1/7/2022 11:45:00 AM 2.16 35.888 0.039 6.92 5.02 14.39
1/7/2022 12:00:00 PM 2.2 35.96 0.039 6.94 4.97 14.38
1/7/2022 12:15:00 PM 2.24 36.032 0.039 6.94 5.08 14.38
1/7/2022 12:30:00 PM 2.23 36.014 0.039 6.92 5.13 14.37
1/7/2022 12:45:00 PM 2.28 36.104 0.039 6.94 4.97 14.37
1/7/2022 1:00:00 PM 2.32 36.176 0.041 6.96 2.28 14.36
1/7/2022 1:15:00 PM 2.28 36.104 0.041 6.9 2.25 14.36
1/7/2022 1:30:00 PM 2.27 36.086 0.041 6.97 2.23 14.35
1/7/2022 1:45:00 PM 2.26 36.068 0.041 6.89 2.24 14.34
1/7/2022 2:00:00 PM 2.22 35.996 0.039 6.95 5.4 14.35
1/7/2022 2:15:00 PM 2.27 36.086 0.041 6.97 2.27 14.33
1/7/2022 2:30:00 PM 2.27 36.086 0.041 6.96 2.23 14.34
1/7/2022 2:45:00 PM 2.24 36.032 0.039 6.94 4.96 14.33
1/7/2022 3:00:00 PM 2.27 36.086 0.039 6.95 5.02 14.32
1/7/2022 3:15:00 PM 2.29 36.122 0.041 6.97 2.27 14.3
1/7/2022 3:30:00 PM 2.3 36.14 0.041 6.88 2.29 14.31
1/7/2022 3:45:00 PM 2.27 36.086 0.039 6.94 4.99 14.31
1/7/2022 4:00:00 PM 2.24 36.032 0.041 6.96 2.24 14.3
1/7/2022 4:15:00 PM 2.21 35.978 0.041 6.96 2.25 14.28
1/7/2022 4:30:00 PM 2.18 35.924 0.039 6.82 5.21 14.25
1/7/2022 4:45:00 PM 2.13 35.834 0.039 6.9 4.84 14.21
1/7/2022 5:00:00 PM 2.08 35.744 0.039 6.88 5.38 14.16
1/7/2022 5:15:00 PM 2.02 35.636 0.042 6.89 2.24 14.13
1/7/2022 5:30:00 PM 1.97 35.546 0.042 6.88 2.25 14.1
1/7/2022 5:45:00 PM 1.94 35.492 0.042 6.89 2.22 14.08
1/7/2022 6:00:00 PM 1.89 35.402 0.042 6.85 2.37 14.07
1/7/2022 6:15:00 PM 1.85 35.33 0.042 6.83 2.34 14.08
1/7/2022 6:30:00 PM 1.8 35.24 0.042 6.83 2.34 14.08
1/7/2022 6:45:00 PM 1.77 35.186 0.042 6.77 2.25 14.09
1/7/2022 7:00:00 PM 1.73 35.114 0.042 6.77 2.37 14.1
1/7/2022 7:15:00 PM 1.69 35.042 0.042 6.82 2.29 14.11
1/7/2022 7:30:00 PM 1.65 34.97 0.042 6.82 2.24 14.13
1/7/2022 7:45:00 PM 1.62 34.916 0.042 6.82 2.26 14.14
1/7/2022 8:00:00 PM 1.58 34.844 0.042 6.77 2.26 14.15
1/7/2022 8:15:00 PM 1.55 34.79 0.042 6.81 2.4 14.17
1/7/2022 8:30:00 PM 1.52 34.736 0.042 6.81 2.29 14.18
1/7/2022 8:45:00 PM 1.49 34.682 0.042 6.75 2.25 14.2
1/7/2022 9:00:00 PM 1.47 34.646 0.042 6.81 2.31 14.21
1/7/2022 9:15:00 PM 1.45 34.61 0.042 6.74 2.37 14.22
1/7/2022 9:30:00 PM 1.43 34.574 0.042 6.81 2.36 14.24
1/7/2022 9:45:00 PM 1.4 34.52 0.042 6.8 2.5 14.25
1/7/2022 10:00:00 PM 1.37 34.466 0.042 6.81 2.38 14.27
1/7/2022 10:15:00 PM 1.34 34.412 0.042 6.81 2.29 14.29
1/7/2022 10:30:00 PM 1.31 34.358 0.042 6.81 2.29 14.31
1/7/2022 10:45:00 PM 1.29 34.322 0.042 6.81 2.24 14.32
1/7/2022 11:00:00 PM 1.24 34.232 0.042 6.81 2.29 14.35
1/7/2022 11:15:00 PM 1.21 34.178 0.042 6.72 2.42 14.36
1/7/2022 11:30:00 PM 1.18 34.124 0.042 6.76 2.5 14.37
1/7/2022 11:45:00 PM 1.15 34.07 0.042 6.81 2.25 14.39
1/8/2022 12:00:00 AM 1.11 33.998 0.042 6.81 2.37 14.4
1/8/2022 12:15:00 AM 1.08 33.944 0.042 6.81 2.25 14.41
1/8/2022 12:30:00 AM 1.04 33.872 0.042 6.72 2.37 14.42
1/8/2022 12:45:00 AM 1 33.8 0.042 6.81 2.46 14.44
1/8/2022 1:00:00 AM 0.96 33.728 0.042 6.81 2.4 14.46
1/8/2022 1:15:00 AM 0.93 33.674 0.04 6.81 4.95 14.46
1/8/2022 1:30:00 AM 0.9 33.62 0.04 6.77 5.14 14.49
1/8/2022 1:45:00 AM 0.86 33.548 0.042 6.82 2.28 14.49
1/8/2022 2:00:00 AM 0.82 33.476 0.042 6.8 2.42 14.51
1/8/2022 2:15:00 AM 0.79 33.422 0.042 6.72 2.38 14.53
1/8/2022 2:30:00 AM 0.75 33.35 0.042 6.82 2.28 14.54
1/8/2022 2:45:00 AM 0.71 33.278 0.042 6.82 2.28 14.56
1/8/2022 3:00:00 AM 0.67 33.206 0.042 6.81 2.39 14.57
1/8/2022 3:15:00 AM 0.63 33.134 0.042 6.81 2.37 14.59
1/8/2022 3:30:00 AM 0.59 33.062 0.043 6.81 2.3 14.62
1/8/2022 3:45:00 AM 0.54 32.972 0.043 6.78 2.45 14.64
1/8/2022 4:00:00 AM 0.51 32.918 0.043 6.82 2.35 14.66
1/8/2022 4:15:00 AM 0.47 32.846 0.043 6.81 2.36 14.68
1/8/2022 4:30:00 AM 0.44 32.792 0.043 6.82 2.29 14.7
1/8/2022 4:45:00 AM 0.41 32.738 0.043 6.7 2.3 14.72
1/8/2022 5:00:00 AM 0.37 32.666 0.043 6.82 2.3 14.74
1/8/2022 5:15:00 AM 0.34 32.612 0.043 6.82 2.28 14.76
1/8/2022 5:30:00 AM 0.31 32.558 0.043 6.82 2.26 14.78
1/8/2022 5:45:00 AM 0.28 32.504 0.043 6.82 2.31 14.79
1/8/2022 6:00:00 AM 0.26 32.468 0.043 6.82 2.27 14.81
1/8/2022 6:15:00 AM 0.23 32.414 0.043 6.72 2.31 14.82
1/8/2022 6:30:00 AM 0.2 32.36 0.043 6.82 2.27 14.83
1/8/2022 6:45:00 AM 0.17 32.306 0.043 6.81 2.26 14.85
1/8/2022 7:00:00 AM 0.14 32.252 0.043 6.74 2.38 14.86
1/8/2022 7:15:00 AM 0.11 32.198 0.043 6.82 2.25 14.87
1/8/2022 7:30:00 AM 0.08 32.144 0.043 6.73 2.3 14.89
1/8/2022 7:45:00 AM 0.05 32.09 0.043 6.73 2.33 14.91
1/8/2022 8:00:00 AM 0.02 32.036 0.043 6.83 2.37 14.94
1/8/2022 8:15:00 AM 0 32 0.043 6.83 2.26 14.98
1/8/2022 8:30:00 AM -0.02 31.964 0.043 6.84 2.3 15.03
1/8/2022 8:45:00 AM -0.04 31.928 0.043 6.84 2.26 15.08
1/8/2022 9:00:00 AM -0.06 31.892 0.043 6.76 2.27 15.11
1/8/2022 9:15:00 AM -0.08 31.856 0.043 6.85 2.25 15.16
1/8/2022 9:30:00 AM -0.08 31.856 0.043 6.82 2.26 15.2
1/8/2022 9:45:00 AM -0.07 31.874 0.043 6.88 2.28 15.23
1/8/2022 10:00:00 AM -0.06 31.892 0.043 6.89 2.29 15.25
1/8/2022 10:15:00 AM -0.04 31.928 0.043 6.82 2.29 15.27
1/8/2022 10:30:00 AM -0.01 31.982 0.043 6.91 2.28 15.28
1/8/2022 10:45:00 AM 0.04 32.072 0.043 6.91 2.22 15.29
1/8/2022 11:00:00 AM 0.1 32.18 0.043 6.92 2.24 15.29
1/8/2022 11:15:00 AM 0.17 32.306 0.043 6.92 2.29 15.29
1/8/2022 11:30:00 AM 0.24 32.432 0.042 6.91 2.22 15.28
1/8/2022 11:45:00 AM 0.33 32.594 0.042 6.93 2.25 15.27
1/8/2022 12:00:00 PM 0.42 32.756 0.042 6.93 2.26 15.25
1/8/2022 12:15:00 PM 0.52 32.936 0.04 6.91 5.16 15.22
1/8/2022 12:30:00 PM 0.61 33.098 0.042 6.94 2.27 15.19
1/8/2022 12:45:00 PM 0.71 33.278 0.042 6.87 2.23 15.16
1/8/2022 1:00:00 PM 0.81 33.458 0.042 6.93 2.26 15.12
1/8/2022 1:15:00 PM 0.91 33.638 0.04 6.9 5.03 15.07
1/8/2022 1:30:00 PM 0.99 33.782 0.042 6.92 2.21 15.04
1/8/2022 1:45:00 PM 1.07 33.926 0.042 6.94 2.27 14.99
1/8/2022 2:00:00 PM 1.14 34.052 0.042 6.94 2.24 14.95
1/8/2022 2:15:00 PM 1.21 34.178 0.042 6.84 2.2 14.91
1/8/2022 2:30:00 PM 1.27 34.286 0.042 6.93 2.2 14.88
1/8/2022 2:45:00 PM 1.32 34.376 0.042 6.86 2.21 14.85
1/8/2022 3:00:00 PM 1.36 34.448 0.042 6.93 2.21 14.82
1/8/2022 3:15:00 PM 1.4 34.52 0.042 6.93 2.19 14.79
1/8/2022 3:30:00 PM 1.43 34.574 0.042 6.93 2.22 14.77
1/8/2022 3:45:00 PM 1.44 34.592 0.039 6.91 5.03 14.74
1/8/2022 4:00:00 PM 1.44 34.592 0.042 6.92 2.32 14.73
1/8/2022 4:15:00 PM 1.44 34.592 0.039 6.9 4.79 14.69
1/8/2022 4:30:00 PM 1.43 34.574 0.042 6.89 2.21 14.66
1/8/2022 4:45:00 PM 1.41 34.538 0.042 6.91 2.25 14.64
1/8/2022 5:00:00 PM 1.39 34.502 0.042 6.86 2.27 14.6
1/8/2022 5:15:00 PM 1.37 34.466 0.042 6.89 2.22 14.55
1/8/2022 5:30:00 PM 1.34 34.412 0.042 6.82 2.25 14.52
1/8/2022 5:45:00 PM 1.32 34.376 0.042 6.81 2.35 14.49
1/8/2022 6:00:00 PM 1.29 34.322 0.042 6.81 2.22 14.47
1/8/2022 6:15:00 PM 1.27 34.286 0.042 6.8 2.27 14.45
1/8/2022 6:30:00 PM 1.26 34.268 0.042 6.82 2.27 14.43
1/8/2022 6:45:00 PM 1.25 34.25 0.042 6.83 2.39 14.43
1/8/2022 7:00:00 PM 1.23 34.214 0.042 6.82 2.26 14.42
1/8/2022 7:15:00 PM 1.22 34.196 0.042 6.83 3.1 14.43
1/8/2022 7:30:00 PM 1.22 34.196 0.042 6.83 2.26 14.42
1/8/2022 7:45:00 PM 1.21 34.178 0.042 6.74 2.22 14.41
1/8/2022 8:00:00 PM 1.2 34.16 0.042 6.82 2.31 14.4
1/8/2022 8:15:00 PM 1.18 34.124 0.042 6.82 2.29 14.41
1/8/2022 8:30:00 PM 1.17 34.106 0.042 6.82 2.24 14.41
1/8/2022 8:45:00 PM 1.15 34.07 0.042 6.82 2.28 14.42
1/8/2022 9:00:00 PM 1.14 34.052 0.042 6.77 2.3 14.42
1/8/2022 9:15:00 PM 1.13 34.034 0.042 6.82 2.31 14.42
1/8/2022 9:30:00 PM 1.12 34.016 0.042 6.8 2.26 14.42
1/8/2022 9:45:00 PM 1.12 34.016 0.042 6.76 2.29 14.43
1/8/2022 10:00:00 PM 1.11 33.998 0.042 6.77 2.41 14.43
1/8/2022 10:15:00 PM 1.09 33.962 0.043 6.76 2.27 14.43
1/8/2022 10:30:00 PM 1.09 33.962 0.043 6.82 2.29 14.44
1/8/2022 10:45:00 PM 1.08 33.944 0.043 6.82 2.3 14.44
1/8/2022 11:00:00 PM 1.08 33.944 0.043 6.69 2.43 14.45
1/8/2022 11:15:00 PM 1.08 33.944 0.043 6.82 2.26 14.44
1/8/2022 11:30:00 PM 1.08 33.944 0.043 6.8 2.26 14.44
1/8/2022 11:45:00 PM 1.09 33.962 0.043 6.76 2.48 14.44
1/9/2022 12:00:00 AM 1.1 33.98 0.043 6.81 2.28 14.44
1/9/2022 12:15:00 AM 1.12 34.016 0.043 6.81 2.28 14.43
1/9/2022 12:30:00 AM 1.12 34.016 0.043 6.81 2.33 14.43
1/9/2022 12:45:00 AM 1.12 34.016 0.043 6.74 2.3 14.43
1/9/2022 1:00:00 AM 1.12 34.016 0.043 6.81 2.31 14.43
1/9/2022 1:15:00 AM 1.11 33.998 0.043 6.81 2.27 14.42
1/9/2022 1:30:00 AM 1.12 34.016 0.043 6.81 2.26 14.41
1/9/2022 1:45:00 AM 1.15 34.07 0.043 6.81 2.28 14.41
1/9/2022 2:00:00 AM 1.16 34.088 0.043 6.81 2.24 14.4
1/9/2022 2:15:00 AM 1.18 34.124 0.043 6.82 2.28 14.39
1/9/2022 2:30:00 AM 1.19 34.142 0.043 6.81 2.25 14.37
1/9/2022 2:45:00 AM 1.21 34.178 0.043 6.81 2.25 14.37
1/9/2022 3:00:00 AM 1.24 34.232 0.043 6.81 2.25 14.36
1/9/2022 3:15:00 AM 1.24 34.232 0.043 6.81 2.29 14.36
1/9/2022 3:30:00 AM 1.24 34.232 0.043 6.81 2.25 14.36
1/9/2022 3:45:00 AM 1.24 34.232 0.043 6.72 2.26 14.35
1/9/2022 4:00:00 AM 1.26 34.268 0.043 6.81 2.23 14.34
1/9/2022 4:15:00 AM 1.28 34.304 0.043 6.77 2.25 14.34
1/9/2022 4:30:00 AM 1.3 34.34 0.042 6.8 2.27 14.32
1/9/2022 4:45:00 AM 1.29 34.322 0.042 6.8 2.33 14.31
1/9/2022 5:00:00 AM 1.23 34.214 0.042 6.81 2.35 14.29
1/9/2022 5:15:00 AM 1.24 34.232 0.042 6.81 2.3 14.28
1/9/2022 5:30:00 AM 1.27 34.286 0.042 6.81 2.38 14.28
1/9/2022 5:45:00 AM 1.3 34.34 0.042 6.81 2.26 14.28
1/9/2022 6:00:00 AM 1.34 34.412 0.042 6.8 2.27 14.27
1/9/2022 6:15:00 AM 1.37 34.466 0.042 6.76 2.25 14.27
1/9/2022 6:30:00 AM 1.39 34.502 0.042 6.81 2.32 14.27
1/9/2022 6:45:00 AM 1.39 34.502 0.042 6.72 2.3 14.26
1/9/2022 7:00:00 AM 1.41 34.538 0.042 6.8 2.24 14.25
1/9/2022 7:15:00 AM 1.44 34.592 0.042 6.81 2.43 14.24
1/9/2022 7:30:00 AM 1.46 34.628 0.042 6.78 2.33 14.23
1/9/2022 7:45:00 AM 1.48 34.664 0.042 6.81 2.3 14.23
1/9/2022 8:00:00 AM 1.5 34.7 0.042 6.76 2.44 14.22
1/9/2022 8:15:00 AM 1.52 34.736 0.042 6.77 2.26 14.22
1/9/2022 8:30:00 AM 1.55 34.79 0.04 6.79 4.93 14.23
1/9/2022 8:45:00 AM 1.58 34.844 0.042 6.8 2.3 14.25
1/9/2022 9:00:00 AM 1.63 34.934 0.04 6.8 5.02 14.25
1/9/2022 9:15:00 AM 1.68 35.024 0.042 6.81 2.26 14.28
1/9/2022 9:30:00 AM 1.72 35.096 0.042 6.77 2.34 14.28
1/9/2022 9:45:00 AM 1.77 35.186 0.042 6.84 2.31 14.29
1/9/2022 10:00:00 AM 1.82 35.276 0.042 6.85 2.32 14.3
1/9/2022 10:15:00 AM 1.88 35.384 0.042 6.86 2.26 14.31
1/9/2022 10:30:00 AM 1.94 35.492 0.042 6.88 2.3 14.33
1/9/2022 10:45:00 AM 2 35.6 0.042 6.86 2.31 14.33
1/9/2022 11:00:00 AM 2.07 35.726 0.041 6.9 2.36 14.34
1/9/2022 11:15:00 AM 2.13 35.834 0.041 6.88 2.41 14.33
1/9/2022 11:30:00 AM 2.2 35.96 0.039 6.89 5.09 14.33
1/9/2022 11:45:00 AM 2.26 36.068 0.039 6.89 4.99 14.31
1/9/2022 12:00:00 PM 2.32 36.176 0.041 6.92 2.33 14.27
1/9/2022 12:15:00 PM 2.37 36.266 0.041 6.92 2.31 14.24
1/9/2022 12:30:00 PM 2.43 36.374 0.042 6.91 2.35 14.21
1/9/2022 12:45:00 PM 2.48 36.464 0.042 6.89 2.29 14.18
1/9/2022 1:00:00 PM 2.53 36.554 0.042 6.91 2.39 14.15
1/9/2022 1:15:00 PM 2.58 36.644 0.042 6.91 2.36 14.12
1/9/2022 1:30:00 PM 2.62 36.716 0.042 6.9 2.39 14.09
1/9/2022 1:45:00 PM 2.66 36.788 0.042 6.91 2.29 14.05
1/9/2022 2:00:00 PM 2.7 36.86 0.042 6.81 2.41 14
1/9/2022 2:15:00 PM 2.74 36.932 0.042 6.84 2.32 13.98
1/9/2022 2:30:00 PM 2.77 36.986 0.042 6.89 2.33 13.95
1/9/2022 2:45:00 PM 2.81 37.058 0.042 6.88 2.27 13.94
1/9/2022 3:00:00 PM 2.84 37.112 0.042 6.81 2.3 13.92
1/9/2022 3:15:00 PM 2.87 37.166 0.042 6.88 2.23 13.89
1/9/2022 3:30:00 PM 2.9 37.22 0.042 6.81 2.3 13.86
1/9/2022 3:45:00 PM 2.93 37.274 0.042 6.87 2.27 13.84
1/9/2022 4:00:00 PM 2.96 37.328 0.042 6.87 2.3 13.81
1/9/2022 4:15:00 PM 2.98 37.364 0.042 6.85 2.38 13.78
1/9/2022 4:30:00 PM 3.01 37.418 0.042 6.85 2.48 13.75
1/9/2022 4:45:00 PM 3.03 37.454 0.042 6.76 2.39 13.71
1/9/2022 5:00:00 PM 3.05 37.49 0.042 6.83 2.45 13.68
1/9/2022 5:15:00 PM 3.06 37.508 0.042 6.78 2.4 13.65
1/9/2022 5:30:00 PM 3.07 37.526 0.042 6.82 2.33 13.62
1/9/2022 5:45:00 PM 3.09 37.562 0.042 6.81 2.35 13.6
1/9/2022 6:00:00 PM 3.09 37.562 0.042 6.81 2.33 13.59
1/9/2022 6:15:00 PM 3.07 37.526 0.042 6.8 2.43 13.59
1/9/2022 6:30:00 PM 3.05 37.49 0.042 6.7 2.66 13.58
1/9/2022 6:45:00 PM 3.05 37.49 0.043 6.8 2.8 13.58
1/9/2022 7:00:00 PM 3.04 37.472 0.043 6.71 2.4 13.58
1/9/2022 7:15:00 PM 3.03 37.454 0.043 6.8 2.36 13.58
1/9/2022 7:30:00 PM 3.02 37.436 0.043 6.76 2.44 13.59
1/9/2022 7:45:00 PM 3.02 37.436 0.043 6.7 2.43 13.59
1/9/2022 8:00:00 PM 3.01 37.418 0.043 6.79 2.35 13.59
1/9/2022 8:15:00 PM 3 37.4 0.043 6.76 2.4 13.6
1/9/2022 8:30:00 PM 2.99 37.382 0.043 6.79 2.61 13.6
1/9/2022 8:45:00 PM 2.98 37.364 0.043 6.79 2.57 13.6
1/9/2022 9:00:00 PM 2.96 37.328 0.043 6.74 2.66 13.61
1/9/2022 9:15:00 PM 2.93 37.274 0.043 6.8 2.45 13.62
1/9/2022 9:30:00 PM 2.91 37.238 0.043 6.8 2.37 13.62
1/9/2022 9:45:00 PM 2.89 37.202 0.041 6.79 5.46 13.63
1/9/2022 10:00:00 PM 2.86 37.148 0.041 6.77 5.14 13.64
1/9/2022 10:15:00 PM 2.84 37.112 0.043 6.72 2.46 13.65
1/9/2022 10:30:00 PM 2.79 37.022 0.043 6.79 2.29 13.66
1/9/2022 10:45:00 PM 2.77 36.986 0.041 6.77 5.07 13.66
1/9/2022 11:00:00 PM 2.74 36.932 0.043 6.74 2.75 13.68
1/9/2022 11:15:00 PM 2.67 36.806 0.043 6.75 4.18 13.69
1/9/2022 11:30:00 PM 2.6 36.68 0.043 6.8 2.78 13.72
1/9/2022 11:45:00 PM 2.54 36.572 0.043 6.74 2.54 13.74
1/10/2022 12:00:00 AM 2.5 36.5 0.043 6.81 2.47 13.77
1/10/2022 12:15:00 AM 2.44 36.392 0.043 6.8 2.36 13.79
1/10/2022 12:30:00 AM 2.4 36.32 0.043 6.8 2.69 13.81
1/10/2022 12:45:00 AM 2.34 36.212 0.043 6.81 2.43 13.84
1/10/2022 1:00:00 AM 2.29 36.122 0.041 6.8 5.38 13.87
1/10/2022 1:15:00 AM 2.23 36.014 0.043 6.78 2.63 13.88
1/10/2022 1:30:00 AM 2.2 35.96 0.043 6.73 2.56 13.9
1/10/2022 1:45:00 AM 2.15 35.87 0.043 6.81 2.46 13.92
1/10/2022 2:00:00 AM 2.09 35.762 0.041 6.8 5.08 13.94
1/10/2022 2:15:00 AM 2.04 35.672 0.043 6.81 2.34 13.96
1/10/2022 2:30:00 AM 2.01 35.618 0.043 6.81 2.37 13.97
1/10/2022 2:45:00 AM 1.97 35.546 0.043 6.8 2.41 13.99
1/10/2022 3:00:00 AM 1.92 35.456 0.043 6.82 2.3 14.01
1/10/2022 3:15:00 AM 1.88 35.384 0.044 6.77 2.9 14.02
1/10/2022 3:30:00 AM 1.82 35.276 0.044 6.76 2.55 14.04
1/10/2022 3:45:00 AM 1.78 35.204 0.044 6.76 2.36 14.05
1/10/2022 4:00:00 AM 1.75 35.15 0.044 6.82 2.64 14.07
1/10/2022 4:15:00 AM 1.71 35.078 0.044 6.82 2.42 14.09
1/10/2022 4:30:00 AM 1.66 34.988 0.041 6.79 5.15 14.1
1/10/2022 4:45:00 AM 1.6 34.88 0.041 6.79 5.52 14.13
1/10/2022 5:00:00 AM 1.5 34.7 0.044 6.81 2.48 14.16
1/10/2022 5:15:00 AM 1.42 34.556 0.044 6.82 2.37 14.19
1/10/2022 5:30:00 AM 1.35 34.43 0.044 6.81 2.42 14.22
1/10/2022 5:45:00 AM 1.29 34.322 0.044 6.82 2.68 14.25
1/10/2022 6:00:00 AM 1.23 34.214 0.044 6.81 2.52 14.28
1/10/2022 6:15:00 AM 1.17 34.106 0.044 6.83 2.42 14.31
1/10/2022 6:30:00 AM 1.11 33.998 0.044 6.82 2.6 14.33
1/10/2022 6:45:00 AM 1.05 33.89 0.044 6.83 2.36 14.36
1/10/2022 7:00:00 AM 1.02 33.836 0.044 6.83 2.36 14.37
1/10/2022 7:15:00 AM 0.99 33.782 0.044 6.83 2.36 14.39
1/10/2022 7:30:00 AM 0.96 33.728 0.041 6.67 5.21 14.4
1/10/2022 7:45:00 AM 0.91 33.638 0.041 6.81 4.94 14.43
1/10/2022 8:00:00 AM 0.89 33.602 0.041 6.81 5.55 14.45
1/10/2022 8:15:00 AM 0.86 33.548 0.041 6.82 5.19 14.49
1/10/2022 8:30:00 AM 0.85 33.53 0.041 6.82 5.23 14.54
1/10/2022 8:45:00 AM 0.84 33.512 0.041 6.83 5.07 14.6
1/10/2022 9:00:00 AM 0.83 33.494 0.041 6.84 4.97 14.66
1/10/2022 9:15:00 AM 0.8 33.44 0.044 6.89 2.3 14.72
1/10/2022 9:30:00 AM 0.78 33.404 0.043 6.9 2.51 14.78
1/10/2022 9:45:00 AM 0.77 33.386 0.043 6.92 2.32 14.83
1/10/2022 10:00:00 AM 0.78 33.404 0.043 6.92 2.42 14.87
1/10/2022 10:15:00 AM 0.79 33.422 0.043 6.89 2.48 14.89
1/10/2022 10:30:00 AM 0.81 33.458 0.043 6.94 2.43 14.93
1/10/2022 10:45:00 AM 0.84 33.512 0.041 6.94 5.24 14.95
1/10/2022 11:00:00 AM 0.87 33.566 0.043 6.89 2.3 14.96
1/10/2022 11:15:00 AM 0.9 33.62 0.041 6.95 5.2 14.96
1/10/2022 11:30:00 AM 0.93 33.674 0.041 6.96 4.99 14.95
1/10/2022 11:45:00 AM 0.95 33.71 0.043 6.98 2.45 14.95
1/10/2022 12:00:00 PM 0.97 33.746 0.043 6.98 2.46 14.94
1/10/2022 12:15:00 PM 1.02 33.836 0.043 6.99 2.5 14.93
1/10/2022 12:30:00 PM 1.03 33.854 0.043 6.99 2.48 14.94
1/10/2022 12:45:00 PM 1.1 33.98 0.043 6.99 2.38 14.92
1/10/2022 1:00:00 PM 1.18 34.124 0.043 6.98 2.45 14.9
1/10/2022 1:15:00 PM 1.23 34.214 0.043 6.92 2.56 14.89
1/10/2022 1:30:00 PM 1.28 34.304 0.043 7 2.42 14.87
1/10/2022 1:45:00 PM 1.37 34.466 0.043 7 2.46 14.82
1/10/2022 2:00:00 PM 1.44 34.592 0.043 7 2.41 14.79
1/10/2022 2:15:00 PM 1.43 34.574 0.04 6.97 5.09 14.75
1/10/2022 2:30:00 PM 1.47 34.646 0.041 6.97 5.01 14.7
1/10/2022 2:45:00 PM 1.5 34.7 0.04 6.95 5.78 14.67
1/10/2022 3:00:00 PM 1.46 34.628 0.043 6.99 2.38 14.67
1/10/2022 3:15:00 PM 1.41 34.538 0.043 6.98 2.46 14.67
1/10/2022 3:30:00 PM 1.4 34.52 0.043 6.98 3.71 14.67
1/10/2022 3:45:00 PM 1.38 34.484 0.043 6.98 2.4 14.69
1/10/2022 4:00:00 PM 1.34 34.412 0.043 6.98 2.63 14.69
1/10/2022 4:15:00 PM 1.32 34.376 0.043 6.98 2.4 14.66
1/10/2022 4:30:00 PM 1.28 34.304 0.043 6.85 2.27 14.65
1/10/2022 4:45:00 PM 1.23 34.214 0.043 6.96 2.32 14.6
1/10/2022 5:00:00 PM 1.17 34.106 0.043 6.94 2.45 14.57
1/10/2022 5:15:00 PM 1.13 34.034 0.043 6.83 2.47 14.53
1/10/2022 5:30:00 PM 1.09 33.962 0.043 6.83 3.11 14.49
1/10/2022 5:45:00 PM 1.02 33.836 0.043 6.9 2.35 14.47
1/10/2022 6:00:00 PM 0.96 33.728 0.043 6.88 2.49 14.46
1/10/2022 6:15:00 PM 0.91 33.638 0.041 6.86 5.3 14.45
1/10/2022 6:30:00 PM 0.85 33.53 0.043 6.87 2.3 14.46
1/10/2022 6:45:00 PM 0.8 33.44 0.043 6.78 2.42 14.46
1/10/2022 7:00:00 PM 0.75 33.35 0.043 6.86 2.46 14.47
1/10/2022 7:15:00 PM 0.72 33.296 0.043 6.86 2.5 14.48
1/10/2022 7:30:00 PM 0.7 33.26 0.043 6.76 2.47 14.5
1/10/2022 7:45:00 PM 0.65 33.17 0.043 6.84 2.53 14.5
1/10/2022 8:00:00 PM 0.62 33.116 0.043 6.85 2.62 14.52
1/10/2022 8:15:00 PM 0.6 33.08 0.044 6.85 2.4 14.53
1/10/2022 8:30:00 PM 0.57 33.026 0.044 6.85 2.48 14.55
1/10/2022 8:45:00 PM 0.47 32.846 0.044 6.76 2.48 14.56
1/10/2022 9:00:00 PM 0.46 32.828 0.044 6.84 2.37 14.58
1/10/2022 9:15:00 PM 0.41 32.738 0.044 6.85 2.71 14.61
1/10/2022 9:30:00 PM 0.38 32.684 0.044 6.75 2.46 14.62
1/10/2022 9:45:00 PM 0.35 32.63 0.044 6.85 2.34 14.64
1/10/2022 10:00:00 PM 0.34 32.612 0.041 6.8 5.07 14.66
1/10/2022 10:15:00 PM 0.3 32.54 0.044 6.84 2.38 14.69
1/10/2022 10:30:00 PM 0.28 32.504 0.041 6.83 5.43 14.71
1/10/2022 10:45:00 PM 0.25 32.45 0.044 6.84 2.41 14.71
1/10/2022 11:00:00 PM 0.21 32.378 0.044 6.77 2.44 14.74
1/10/2022 11:15:00 PM 0.17 32.306 0.044 6.79 2.41 14.76
1/10/2022 11:30:00 PM 0.14 32.252 0.044 6.82 2.44 14.77
1/10/2022 11:45:00 PM 0.09 32.162 0.044 6.85 2.37 14.79
1/11/2022 12:00:00 AM 0.07 32.126 0.044 6.76 2.47 14.8
1/11/2022 12:15:00 AM 0.03 32.054 0.044 6.84 2.5 14.81
1/11/2022 12:30:00 AM 0 32 0.044 6.85 2.51 14.83
1/11/2022 12:45:00 AM -0.03 31.946 0.044 6.83 2.4 14.85
1/11/2022 1:00:00 AM -0.05 31.91 0.044 6.78 2.77 14.85
1/11/2022 1:15:00 AM -0.07 31.874 0.044 6.8 2.49 14.87
1/11/2022 1:30:00 AM -0.09 31.838 0.044 6.84 3.63 14.89
1/11/2022 1:45:00 AM -0.09 31.838 0.044 6.84 266.06 14.92
1/11/2022 2:00:00 AM -0.09 31.838 0.044 6.76 168.91 14.92
1/11/2022 2:15:00 AM -0.09 31.838 0.044 6.82 98.38 14.94
1/11/2022 2:30:00 AM -0.09 31.838 0.044 6.79 73.41 14.96
1/11/2022 2:45:00 AM -0.09 31.838 0.044 6.79 54.27 14.96
1/11/2022 3:00:00 AM -0.09 31.838 0.044 6.86 39.54 14.97
1/11/2022 3:15:00 AM -0.09 31.838 0.044 6.74 29.91 14.98
1/11/2022 3:30:00 AM -0.09 31.838 0.044 6.84 22.59 14.99
1/11/2022 3:45:00 AM -0.08 31.856 0.044 6.85 18.35 15
1/11/2022 4:00:00 AM -0.09 31.838 0.044 6.85 15.75 15.02
1/11/2022 4:15:00 AM -0.08 31.856 0.044 6.85 14.08 15.03
1/11/2022 4:30:00 AM -0.08 31.856 0.044 6.81 12.29 15.02
1/11/2022 4:45:00 AM -0.09 31.838 0.044 6.84 11.3 15.02
1/11/2022 5:00:00 AM -0.09 31.838 0.044 6.83 10.55 15.04
1/11/2022 5:15:00 AM -0.09 31.838 0.044 6.84 9.76 15.04
1/11/2022 5:30:00 AM -0.09 31.838 0.044 6.84 9.06 15.05
1/11/2022 5:45:00 AM -0.09 31.838 0.045 6.84 8.45 15.06
1/11/2022 6:00:00 AM -0.08 31.856 0.045 6.85 7.98 15.06
1/11/2022 6:15:00 AM -0.09 31.838 0.045 6.74 7.68 15.06
1/11/2022 6:30:00 AM -0.08 31.856 0.045 6.83 7.38 15.07
1/11/2022 6:45:00 AM -0.08 31.856 0.045 6.74 7.06 15.08
1/11/2022 7:00:00 AM -0.09 31.838 0.045 6.81 6.88 15.08
1/11/2022 7:15:00 AM -0.08 31.856 0.045 6.74 6.89 15.09
1/11/2022 7:30:00 AM -0.09 31.838 0.045 6.77 6.62 15.09
1/11/2022 7:45:00 AM -0.09 31.838 0.045 6.8 6.32 15.11
1/11/2022 8:00:00 AM -0.08 31.856 0.045 6.84 6.22 15.13
1/11/2022 8:15:00 AM -0.08 31.856 0.045 6.85 6.23 15.16
1/11/2022 8:30:00 AM -0.08 31.856 0.045 6.72 6.17 15.19
1/11/2022 8:45:00 AM -0.09 31.838 0.045 6.86 6 15.23
1/11/2022 9:00:00 AM -0.09 31.838 0.045 6.87 6 15.26
1/11/2022 9:15:00 AM -0.09 31.838 0.045 6.87 5.97 15.3
1/11/2022 9:30:00 AM -0.08 31.856 0.045 6.83 5.97 15.32
1/11/2022 9:45:00 AM -0.08 31.856 0.045 6.81 5.86 15.35
1/11/2022 10:00:00 AM -0.09 31.838 0.045 6.9 5.98 15.38
1/11/2022 10:15:00 AM -0.09 31.838 0.045 6.9 5.94 15.4
1/11/2022 10:30:00 AM -0.09 31.838 0.045 6.87 5.87 15.41
1/11/2022 10:45:00 AM -0.08 31.856 0.045 6.92 5.95 15.43
1/11/2022 11:00:00 AM -0.08 31.856 0.045 6.92 6.2 15.44
1/11/2022 11:15:00 AM -0.08 31.856 0.045 6.93 5.76 15.45
1/11/2022 11:30:00 AM -0.08 31.856 0.044 6.94 5.72 15.46
1/11/2022 11:45:00 AM -0.08 31.856 0.044 6.94 5.71 15.46
1/11/2022 12:00:00 PM -0.08 31.856 0.044 6.89 5.73 15.47
1/11/2022 12:15:00 PM -0.08 31.856 0.044 6.94 5.9 15.47
1/11/2022 12:30:00 PM -0.09 31.838 0.044 6.96 5.5 15.47
1/11/2022 12:45:00 PM -0.09 31.838 0.044 6.96 5.42 15.46
1/11/2022 1:00:00 PM -0.08 31.856 0.044 6.95 5.44 15.45
1/11/2022 1:15:00 PM -0.08 31.856 0.044 6.96 5.38 15.44
1/11/2022 1:30:00 PM -0.08 31.856 0.044 6.97 5.43 15.44
1/11/2022 1:45:00 PM -0.09 31.838 0.044 6.92 5.58 15.43
1/11/2022 2:00:00 PM -0.09 31.838 0.044 6.97 5.26 15.43
1/11/2022 2:15:00 PM -0.09 31.838 0.044 6.84 5.23 15.42
1/11/2022 2:30:00 PM -0.09 31.838 0.044 6.93 5.22 15.41
1/11/2022 2:45:00 PM -0.09 31.838 0.044 6.96 7.8 15.41
1/11/2022 3:00:00 PM -0.09 31.838 0.044 6.86 5.47 15.4
1/11/2022 3:15:00 PM -0.08 31.856 0.044 6.89 5.17 15.4
1/11/2022 3:30:00 PM -0.09 31.838 0.044 6.96 5.25 15.39
1/11/2022 3:45:00 PM -0.09 31.838 0.043 6.85 5.31 15.38
1/11/2022 4:00:00 PM -0.09 31.838 0.043 6.96 5.49 15.38
1/11/2022 4:15:00 PM -0.09 31.838 0.044 6.93 4.92 15.36
1/11/2022 4:30:00 PM -0.09 31.838 0.044 6.95 5.1 15.34
1/11/2022 4:45:00 PM -0.09 31.838 0.044 6.92 5.14 15.31
1/11/2022 5:00:00 PM -0.09 31.838 0.044 6.92 5.75 15.28
1/11/2022 5:15:00 PM -0.09 31.838 0.044 6.93 6 15.25
1/11/2022 5:30:00 PM -0.09 31.838 0.044 6.91 6.71 15.21
1/11/2022 5:45:00 PM -0.09 31.838 0.044 6.91 6.29 15.17
1/11/2022 6:00:00 PM -0.09 31.838 0.044 6.9 5.76 15.14
1/11/2022 6:15:00 PM -0.09 31.838 0.044 6.74 5.45 15.12
1/11/2022 6:30:00 PM -0.09 31.838 0.042 6.84 6.69 15.1
1/11/2022 6:45:00 PM -0.08 31.856 0.044 6.85 5.23 15.08
1/11/2022 7:00:00 PM -0.09 31.838 0.044 6.87 5.28 15.07
1/11/2022 7:15:00 PM -0.09 31.838 0.044 6.81 5.35 15.06
1/11/2022 7:30:00 PM -0.09 31.838 0.044 6.86 5.51 15.05
1/11/2022 7:45:00 PM -0.09 31.838 0.044 6.81 5.44 15.05
1/11/2022 8:00:00 PM -0.09 31.838 0.044 6.84 5.23 15.05
1/11/2022 8:15:00 PM -0.09 31.838 0.044 6.85 5.32 15.04
1/11/2022 8:30:00 PM -0.09 31.838 0.044 6.83 5.42 15.03
1/11/2022 8:45:00 PM -0.09 31.838 0.044 6.84 5.24 15.02
1/11/2022 9:00:00 PM -0.09 31.838 0.044 6.84 5.39 15.01
1/11/2022 9:15:00 PM -0.09 31.838 0.044 6.7 5.23 15.01
1/11/2022 9:30:00 PM -0.09 31.838 0.044 6.84 5.24 15.01
1/11/2022 9:45:00 PM -0.09 31.838 0.044 6.77 5.18 15
1/11/2022 10:00:00 PM -0.08 31.856 0.044 6.83 5.12 14.99
1/11/2022 10:15:00 PM -0.09 31.838 0.044 6.74 5.08 14.98
1/11/2022 10:30:00 PM -0.09 31.838 0.044 6.84 5.14 14.98
1/11/2022 10:45:00 PM -0.09 31.838 0.045 6.84 5.01 14.98
1/11/2022 11:00:00 PM -0.09 31.838 0.045 6.84 5.13 14.97
1/11/2022 11:15:00 PM -0.09 31.838 0.045 6.82 5.09 14.97
1/11/2022 11:30:00 PM -0.09 31.838 0.045 6.82 5.12 14.96
1/11/2022 11:45:00 PM -0.09 31.838 0.045 6.84 5.03 14.96
1/12/2022 12:00:00 AM -0.09 31.838 0.045 6.83 5.26 14.97
1/12/2022 12:15:00 AM -0.09 31.838 0.045 6.82 5.06 14.96
1/12/2022 12:30:00 AM -0.09 31.838 0.045 6.81 5.1 14.95
1/12/2022 12:45:00 AM -0.09 31.838 0.045 6.83 4.9 14.94
1/12/2022 1:00:00 AM -0.09 31.838 0.045 6.83 4.91 14.92
1/12/2022 1:15:00 AM -0.09 31.838 0.045 6.83 4.69 14.92
1/12/2022 1:30:00 AM -0.09 31.838 0.045 6.83 5.4 14.92
1/12/2022 1:45:00 AM -0.09 31.838 0.045 6.69 5.88 14.92
1/12/2022 2:00:00 AM -0.09 31.838 0.045 6.83 4.54 14.91
1/12/2022 2:15:00 AM -0.09 31.838 0.045 6.81 4.64 14.91
1/12/2022 2:30:00 AM -0.09 31.838 0.045 6.7 4.59 14.9
1/12/2022 2:45:00 AM -0.09 31.838 0.045 6.83 4.57 14.9
1/12/2022 3:00:00 AM -0.09 31.838 0.045 6.83 4.45 14.9
1/12/2022 3:15:00 AM -0.09 31.838 0.045 6.83 4.37 14.89
1/12/2022 3:30:00 AM -0.09 31.838 0.045 6.83 4.31 14.88
1/12/2022 3:45:00 AM -0.08 31.856 0.045 6.82 4.26 14.88
1/12/2022 4:00:00 AM -0.09 31.838 0.045 6.81 4.34 14.87
1/12/2022 4:15:00 AM -0.09 31.838 0.045 6.82 4.35 14.86
1/12/2022 4:30:00 AM -0.08 31.856 0.045 6.83 4.23 14.86
1/12/2022 4:45:00 AM -0.08 31.856 0.045 6.77 4.2 14.85
1/12/2022 5:00:00 AM -0.08 31.856 0.045 6.72 4.16 14.85
1/12/2022 5:15:00 AM -0.08 31.856 0.045 6.72 4.17 14.85
1/12/2022 5:30:00 AM -0.08 31.856 0.045 6.82 4.19 14.85
1/12/2022 5:45:00 AM -0.08 31.856 0.045 6.82 4.04 14.84
1/12/2022 6:00:00 AM -0.09 31.838 0.045 6.71 4.15 14.85
1/12/2022 6:15:00 AM -0.09 31.838 0.045 6.82 4.12 14.84
1/12/2022 6:30:00 AM -0.09 31.838 0.045 6.71 4.12 14.84
1/12/2022 6:45:00 AM -0.09 31.838 0.045 6.83 4.1 14.84
1/12/2022 7:00:00 AM -0.09 31.838 0.045 6.82 4.01 14.84
1/12/2022 7:15:00 AM -0.09 31.838 0.045 6.83 4.05 14.84
1/12/2022 7:30:00 AM -0.09 31.838 0.045 6.83 4.03 14.83
1/12/2022 7:45:00 AM -0.09 31.838 0.045 6.83 3.98 14.84
1/12/2022 8:00:00 AM -0.09 31.838 0.045 6.82 4.01 14.85
1/12/2022 8:15:00 AM -0.08 31.856 0.045 6.81 3.94 14.86
1/12/2022 8:30:00 AM -0.09 31.838 0.045 6.75 3.76 14.89
1/12/2022 8:45:00 AM -0.08 31.856 0.045 6.78 3.84 14.91
1/12/2022 9:00:00 AM -0.08 31.856 0.045 6.84 3.8 14.93
1/12/2022 9:15:00 AM -0.08 31.856 0.045 6.79 3.82 14.96
1/12/2022 9:30:00 AM -0.08 31.856 0.044 6.85 3.78 14.98
1/12/2022 9:45:00 AM -0.08 31.856 0.044 6.83 3.8 15.02
1/12/2022 10:00:00 AM -0.08 31.856 0.044 6.86 3.85 15.04
1/12/2022 10:15:00 AM -0.08 31.856 0.044 6.85 3.94 15.06
1/12/2022 10:30:00 AM -0.08 31.856 0.044 6.83 3.87 15.08
1/12/2022 10:45:00 AM -0.07 31.874 0.044 6.84 3.96 15.1
1/12/2022 11:00:00 AM -0.06 31.892 0.044 6.81 2.96 15.1
1/12/2022 11:15:00 AM -0.06 31.892 0.044 6.89 2.57 15.1
1/12/2022 11:30:00 AM -0.07 31.874 0.044 6.83 2.64 15.1
1/12/2022 11:45:00 AM -0.06 31.892 0.044 6.91 2.51 15.11
1/12/2022 12:00:00 PM -0.07 31.874 0.044 6.92 2.49 15.11
1/12/2022 12:15:00 PM -0.06 31.892 0.043 6.91 2.56 15.1
1/12/2022 12:30:00 PM -0.06 31.892 0.043 6.84 7.07 15.08
1/12/2022 12:45:00 PM -0.06 31.892 0.043 6.91 2.57 15.08
1/12/2022 1:00:00 PM -0.08 31.856 0.043 6.95 2.73 15.09
1/12/2022 1:15:00 PM -0.08 31.856 0.043 6.94 2.74 15.08
1/12/2022 1:30:00 PM -0.08 31.856 0.043 6.9 2.61 15.09
1/12/2022 1:45:00 PM -0.08 31.856 0.043 6.94 2.59 15.09
1/12/2022 2:00:00 PM -0.07 31.874 0.043 6.95 2.69 15.09
1/12/2022 2:15:00 PM -0.08 31.856 0.043 6.95 2.66 15.06
1/12/2022 2:30:00 PM -0.08 31.856 0.043 6.95 2.57 15.06
1/12/2022 2:45:00 PM -0.08 31.856 0.043 6.89 2.59 15.04
1/12/2022 3:00:00 PM -0.07 31.874 0.042 6.88 2.57 15.03
1/12/2022 3:15:00 PM -0.08 31.856 0.042 6.94 3.03 15.03
1/12/2022 3:30:00 PM -0.07 31.874 0.042 6.94 2.86 14.99
1/12/2022 3:45:00 PM -0.08 31.856 0.042 6.95 2.86 14.94
1/12/2022 4:00:00 PM -0.08 31.856 0.042 6.94 3.02 14.88
1/12/2022 4:15:00 PM -0.08 31.856 0.042 6.86 3.3 14.82
1/12/2022 4:30:00 PM -0.08 31.856 0.042 6.95 3.06 14.75
1/12/2022 4:45:00 PM -0.08 31.856 0.042 6.95 3.42 14.67
1/12/2022 5:00:00 PM -0.08 31.856 0.042 6.94 5.06 14.57
1/12/2022 5:15:00 PM -0.08 31.856 0.042 6.93 3.68 14.48
1/12/2022 5:30:00 PM 0.21 32.378 0.043 6.89 3.4 14.42
1/12/2022 5:45:00 PM 0.41 32.738 0.043 6.86 2.98 14.39
1/12/2022 6:00:00 PM 0.54 32.972 0.043 6.86 3.01 14.35
1/12/2022 6:15:00 PM 0.63 33.134 0.043 6.84 3.09 14.33
1/12/2022 6:30:00 PM 0.78 33.404 0.043 6.83 2.63 14.31
1/12/2022 6:45:00 PM 0.88 33.584 0.043 6.8 2.41 14.29
1/12/2022 7:00:00 PM 0.96 33.728 0.041 6.82 5.54 14.26
1/12/2022 7:15:00 PM 1.01 33.818 0.043 6.82 2.45 14.23
1/12/2022 7:30:00 PM 1.09 33.962 0.043 6.83 2.25 14.23
1/12/2022 7:45:00 PM 1.15 34.07 0.043 6.73 2.19 14.21
1/12/2022 8:00:00 PM 1.19 34.142 0.043 6.76 2.28 14.2
1/12/2022 8:15:00 PM 1.24 34.232 0.043 6.82 2.21 14.19
1/12/2022 8:30:00 PM 1.27 34.286 0.043 6.71 2.18 14.18
1/12/2022 8:45:00 PM 1.3 34.34 0.043 6.81 2.14 14.18
1/12/2022 9:00:00 PM 1.33 34.394 0.043 6.81 2.2 14.17
1/12/2022 9:15:00 PM 1.37 34.466 0.043 6.81 2.18 14.17
1/12/2022 9:30:00 PM 1.4 34.52 0.043 6.81 2.17 14.17
1/12/2022 9:45:00 PM 1.43 34.574 0.043 6.7 2.15 14.16
1/12/2022 10:00:00 PM 1.46 34.628 0.043 6.8 2.14 14.16
1/12/2022 10:15:00 PM 1.48 34.664 0.043 6.77 2.19 14.15
1/12/2022 10:30:00 PM 1.5 34.7 0.043 6.74 2.13 14.15
1/12/2022 10:45:00 PM 1.52 34.736 0.043 6.78 2.18 14.15
1/12/2022 11:00:00 PM 1.53 34.754 0.043 6.81 2.26 14.15
1/12/2022 11:15:00 PM 1.54 34.772 0.041 6.79 4.75 14.14
1/12/2022 11:30:00 PM 1.55 34.79 0.041 6.79 4.7 14.14
1/12/2022 11:45:00 PM 1.56 34.808 0.041 6.67 4.74 14.14
1/13/2022 12:00:00 AM 1.58 34.844 0.041 6.79 4.6 14.14
1/13/2022 12:15:00 AM 1.59 34.862 0.041 6.79 4.66 14.14
1/13/2022 12:30:00 AM 1.6 34.88 0.041 6.79 4.63 14.13
1/13/2022 12:45:00 AM 1.61 34.898 0.041 6.79 4.76 14.13
1/13/2022 1:00:00 AM 1.62 34.916 0.041 6.79 4.66 14.12
1/13/2022 1:15:00 AM 1.63 34.934 0.043 6.81 2.11 14.12
1/13/2022 1:30:00 AM 1.64 34.952 0.041 6.79 4.56 14.12
1/13/2022 1:45:00 AM 1.65 34.97 0.043 6.81 2.09 14.11
1/13/2022 2:00:00 AM 1.66 34.988 0.041 6.79 4.68 14.11
1/13/2022 2:15:00 AM 1.68 35.024 0.043 6.74 2.08 14.1
1/13/2022 2:30:00 AM 1.69 35.042 0.041 6.79 4.7 14.1
1/13/2022 2:45:00 AM 1.71 35.078 0.043 6.81 2.12 14.08
1/13/2022 3:00:00 AM 1.72 35.096 0.043 6.79 2.09 14.08
1/13/2022 3:15:00 AM 1.74 35.132 0.043 6.73 2.1 14.07
1/13/2022 3:30:00 AM 1.76 35.168 0.043 6.76 2.13 14.06
1/13/2022 3:45:00 AM 1.77 35.186 0.043 6.76 2.09 14.06
1/13/2022 4:00:00 AM 1.78 35.204 0.043 6.76 2.11 14.05
1/13/2022 4:15:00 AM 1.8 35.24 0.043 6.8 2.1 14.04
1/13/2022 4:30:00 AM 1.8 35.24 0.043 6.8 2.06 14.04
1/13/2022 4:45:00 AM 1.8 35.24 0.043 6.79 2.12 14.03
1/13/2022 5:00:00 AM 1.81 35.258 0.043 6.8 2.11 14.03
1/13/2022 5:15:00 AM 1.82 35.276 0.043 6.8 2.11 14.02
1/13/2022 5:30:00 AM 1.82 35.276 0.043 6.81 2.13 14.02
1/13/2022 5:45:00 AM 1.83 35.294 0.043 6.81 2.06 14.01
1/13/2022 6:00:00 AM 1.83 35.294 0.043 6.75 2.04 14.01
1/13/2022 6:15:00 AM 1.83 35.294 0.043 6.74 2.08 14.01
1/13/2022 6:30:00 AM 1.84 35.312 0.043 6.76 2.04 14
1/13/2022 6:45:00 AM 1.85 35.33 0.044 6.8 2.06 14
1/13/2022 7:00:00 AM 1.85 35.33 0.044 6.8 2.08 14
1/13/2022 7:15:00 AM 1.85 35.33 0.044 6.68 2.12 14
1/13/2022 7:30:00 AM 1.86 35.348 0.044 6.81 2.07 14
1/13/2022 7:45:00 AM 1.87 35.366 0.044 6.8 2.13 14
1/13/2022 8:00:00 AM 1.88 35.384 0.044 6.72 2.09 14.01
1/13/2022 8:15:00 AM 1.89 35.402 0.043 6.81 2.13 14.03
1/13/2022 8:30:00 AM 1.91 35.438 0.043 6.82 2.1 14.07
1/13/2022 8:45:00 AM 1.93 35.474 0.043 6.81 2.03 14.11
1/13/2022 9:00:00 AM 1.96 35.528 0.043 6.85 2.06 14.15
1/13/2022 9:15:00 AM 1.99 35.582 0.043 6.86 2.08 14.21
1/13/2022 9:30:00 AM 2.02 35.636 0.043 6.87 2.09 14.25
1/13/2022 9:45:00 AM 2.05 35.69 0.043 6.87 2.02 14.28
1/13/2022 10:00:00 AM 2.1 35.78 0.041 6.87 4.61 14.32
1/13/2022 10:15:00 AM 2.12 35.816 0.041 6.9 4.53 14.35
1/13/2022 10:30:00 AM 2.17 35.906 0.043 6.85 2.02 14.36
1/13/2022 10:45:00 AM 2.23 36.014 0.043 6.94 1.99 14.37
1/13/2022 11:00:00 AM 2.29 36.122 0.041 6.93 4.61 14.38
1/13/2022 11:15:00 AM 2.33 36.194 0.041 6.93 4.54 14.37
1/13/2022 11:30:00 AM 2.38 36.284 0.043 6.86 2.03 14.36
1/13/2022 11:45:00 AM 2.47 36.446 0.043 6.93 2.03 14.33
1/13/2022 12:00:00 PM 2.54 36.572 0.043 6.91 2 14.29
1/13/2022 12:15:00 PM 2.6 36.68 0.043 6.92 1.98 14.26
1/13/2022 12:30:00 PM 2.68 36.824 0.043 6.97 1.98 14.22
1/13/2022 12:45:00 PM 2.77 36.986 0.043 6.97 2.02 14.2
1/13/2022 1:00:00 PM 2.87 37.166 0.043 6.97 2.05 14.17
1/13/2022 1:15:00 PM 2.95 37.31 0.043 6.88 2.02 14.15
1/13/2022 1:30:00 PM 3.06 37.508 0.043 6.92 1.99 14.13
1/13/2022 1:45:00 PM 3.24 37.832 0.043 6.98 1.99 14.1
1/13/2022 2:00:00 PM 3.32 37.976 0.042 6.99 2.01 14.06
1/13/2022 2:15:00 PM 3.34 38.012 0.042 6.99 1.97 14.02
1/13/2022 2:30:00 PM 3.45 38.21 0.042 6.99 2 13.97
1/13/2022 2:45:00 PM 3.55 38.39 0.042 6.99 2 13.94
1/13/2022 3:00:00 PM 3.54 38.372 0.042 6.99 2 13.9
1/13/2022 3:15:00 PM 3.58 38.444 0.042 6.99 2.02 13.9
1/13/2022 3:30:00 PM 3.62 38.516 0.042 6.99 2.01 13.87
1/13/2022 3:45:00 PM 3.63 38.534 0.042 6.89 2.01 13.85
1/13/2022 4:00:00 PM 3.65 38.57 0.042 6.97 2.08 13.82
1/13/2022 4:15:00 PM 3.65 38.57 0.042 6.95 2.05 13.78
1/13/2022 4:30:00 PM 3.63 38.534 0.043 6.96 2.12 13.74
1/13/2022 4:45:00 PM 3.61 38.498 0.043 6.94 2.11 13.68
1/13/2022 5:00:00 PM 3.59 38.462 0.043 6.84 2.16 13.62
1/13/2022 5:15:00 PM 3.56 38.408 0.043 6.91 2.14 13.56
1/13/2022 5:30:00 PM 3.53 38.354 0.043 6.89 2.13 13.51
1/13/2022 5:45:00 PM 3.51 38.318 0.041 6.82 4.83 13.47
1/13/2022 6:00:00 PM 3.49 38.282 0.041 6.85 4.71 13.45
1/13/2022 6:15:00 PM 3.46 38.228 0.041 6.83 4.69 13.43
1/13/2022 6:30:00 PM 3.44 38.192 0.043 6.83 2.1 13.42
1/13/2022 6:45:00 PM 3.42 38.156 0.043 6.84 2.17 13.41
1/13/2022 7:00:00 PM 3.4 38.12 0.043 6.83 2.14 13.41
1/13/2022 7:15:00 PM 3.38 38.084 0.041 6.69 4.59 13.41
1/13/2022 7:30:00 PM 3.36 38.048 0.043 6.79 2.18 13.41
1/13/2022 7:45:00 PM 3.34 38.012 0.043 6.81 2.23 13.42
1/13/2022 8:00:00 PM 3.33 37.994 0.043 6.81 2.21 13.42
1/13/2022 8:15:00 PM 3.31 37.958 0.043 6.71 2.23 13.42
1/13/2022 8:30:00 PM 3.3 37.94 0.041 6.8 5.02 13.42
1/13/2022 8:45:00 PM 3.28 37.904 0.043 6.8 2.19 13.43
1/13/2022 9:00:00 PM 3.27 37.886 0.044 6.72 2.15 13.43
1/13/2022 9:15:00 PM 3.26 37.868 0.044 6.8 2.17 13.44
1/13/2022 9:30:00 PM 3.25 37.85 0.044 6.79 2.15 13.45
1/13/2022 9:45:00 PM 3.24 37.832 0.044 6.8 2.06 13.45
1/13/2022 10:00:00 PM 3.23 37.814 0.044 6.8 2.1 13.45
1/13/2022 10:15:00 PM 3.22 37.796 0.044 6.79 2.11 13.45
1/13/2022 10:30:00 PM 3.21 37.778 0.044 6.77 2.14 13.46
1/13/2022 10:45:00 PM 3.2 37.76 0.044 6.71 2.07 13.47
1/13/2022 11:00:00 PM 3.19 37.742 0.044 6.8 2.05 13.47
1/13/2022 11:15:00 PM 3.18 37.724 0.044 6.72 2.06 13.47
1/13/2022 11:30:00 PM 3.17 37.706 0.044 6.78 2.07 13.48
1/13/2022 11:45:00 PM 3.16 37.688 0.044 6.79 2.02 13.48
1/14/2022 12:00:00 AM 3.15 37.67 0.044 6.79 2.1 13.48
1/14/2022 12:15:00 AM 3.14 37.652 0.044 6.79 2.14 13.49
1/14/2022 12:30:00 AM 3.13 37.634 0.044 6.71 2.04 13.49
1/14/2022 12:45:00 AM 3.12 37.616 0.044 6.79 2.07 13.49
1/14/2022 1:00:00 AM 3.11 37.598 0.044 6.79 2.05 13.5
1/14/2022 1:15:00 AM 3.1 37.58 0.044 6.79 2.03 13.5
1/14/2022 1:30:00 AM 3.09 37.562 0.044 6.78 2.04 13.51
1/14/2022 1:45:00 AM 3.09 37.562 0.044 6.76 2.11 13.5
1/14/2022 2:00:00 AM 3.08 37.544 0.044 6.79 1.99 13.51
1/14/2022 2:15:00 AM 3.07 37.526 0.044 6.73 2.09 13.52
1/14/2022 2:30:00 AM 3.07 37.526 0.044 6.79 2.04 13.51
1/14/2022 2:45:00 AM 3.06 37.508 0.044 6.72 2.06 13.51
1/14/2022 3:00:00 AM 3.06 37.508 0.044 6.74 2.02 13.52
1/14/2022 3:15:00 AM 3.05 37.49 0.044 6.79 2.09 13.52
1/14/2022 3:30:00 AM 3.05 37.49 0.044 6.79 2.01 13.52
1/14/2022 3:45:00 AM 3.05 37.49 0.044 6.79 2.01 13.53
1/14/2022 4:00:00 AM 3.04 37.472 0.044 6.79 2 13.53
1/14/2022 4:15:00 AM 3.04 37.472 0.044 6.75 2 13.53
1/14/2022 4:30:00 AM 3.03 37.454 0.044 6.79 2.04 13.53
1/14/2022 4:45:00 AM 3.03 37.454 0.044 6.69 2.02 13.53
1/14/2022 5:00:00 AM 3.02 37.436 0.044 6.8 2.03 13.54
1/14/2022 5:15:00 AM 3.01 37.418 0.044 6.79 2.03 13.54
1/14/2022 5:30:00 AM 3.01 37.418 0.044 6.78 2.05 13.54
1/14/2022 5:45:00 AM 3 37.4 0.044 6.8 2.04 13.55
1/14/2022 6:00:00 AM 2.99 37.382 0.044 6.71 2.06 13.55
1/14/2022 6:15:00 AM 2.98 37.364 0.044 6.8 2.12 13.56
1/14/2022 6:30:00 AM 2.97 37.346 0.044 6.8 2.06 13.56
1/14/2022 6:45:00 AM 2.96 37.328 0.044 6.79 2.04 13.57
1/14/2022 7:00:00 AM 2.94 37.292 0.044 6.8 2.02 13.58
1/14/2022 7:15:00 AM 2.93 37.274 0.044 6.8 2.07 13.59
1/14/2022 7:30:00 AM 2.92 37.256 0.044 6.8 2.07 13.59
1/14/2022 7:45:00 AM 2.9 37.22 0.044 6.8 2.02 13.6
1/14/2022 8:00:00 AM 2.88 37.184 0.044 6.74 2.04 13.62
1/14/2022 8:15:00 AM 2.85 37.13 0.044 6.81 2.02 13.63
1/14/2022 8:30:00 AM 2.83 37.094 0.044 6.71 2.03 13.67
1/14/2022 8:45:00 AM 2.81 37.058 0.042 6.8 4.6 13.68
1/14/2022 9:00:00 AM 2.8 37.04 0.042 6.8 4.63 13.71
1/14/2022 9:15:00 AM 2.79 37.022 0.044 6.77 2.06 13.75
1/14/2022 9:30:00 AM 2.8 37.04 0.044 6.84 2.04 13.81
1/14/2022 9:45:00 AM 2.8 37.04 0.044 6.85 2.01 13.85
1/14/2022 10:00:00 AM 2.8 37.04 0.044 6.86 2 13.89
1/14/2022 10:15:00 AM 2.82 37.076 0.044 6.86 2.03 13.95
1/14/2022 10:30:00 AM 2.81 37.058 0.044 6.81 1.99 13.97
1/14/2022 10:45:00 AM 2.81 37.058 0.044 6.89 2 14
1/14/2022 11:00:00 AM 2.81 37.058 0.041 6.89 4.59 14.04
1/14/2022 11:15:00 AM 2.79 37.022 0.044 6.9 2.03 14.06
1/14/2022 11:30:00 AM 2.79 37.022 0.043 6.93 1.99 14.08
1/14/2022 11:45:00 AM 2.78 37.004 0.043 6.93 2.01 14.09
1/14/2022 12:00:00 PM 2.78 37.004 0.043 6.84 1.98 14.09
1/14/2022 12:15:00 PM 2.76 36.968 0.041 6.92 4.66 14.09
1/14/2022 12:30:00 PM 2.74 36.932 0.043 6.94 1.94 14.09
1/14/2022 12:45:00 PM 2.74 36.932 0.043 6.87 1.97 14.09
1/14/2022 1:00:00 PM 2.73 36.914 0.043 6.94 2.01 14.09
1/14/2022 1:15:00 PM 2.7 36.86 0.043 6.93 1.95 14.09
1/14/2022 1:30:00 PM 2.7 36.86 0.043 6.95 1.98 14.12
1/14/2022 1:45:00 PM 2.68 36.824 0.043 6.94 1.96 14.13
1/14/2022 2:00:00 PM 2.66 36.788 0.043 6.87 1.95 14.12
1/14/2022 2:15:00 PM 2.65 36.77 0.043 6.95 1.95 14.14
1/14/2022 2:30:00 PM 2.65 36.77 0.043 6.96 1.95 14.17
1/14/2022 2:45:00 PM 2.67 36.806 0.043 6.97 2.01 14.2
1/14/2022 3:00:00 PM 2.65 36.77 0.043 6.97 2 14.21
1/14/2022 3:15:00 PM 2.65 36.77 0.043 6.94 1.98 14.22
1/14/2022 3:30:00 PM 2.64 36.752 0.043 6.98 1.95 14.22
1/14/2022 3:45:00 PM 2.62 36.716 0.043 6.98 2.03 14.21
1/14/2022 4:00:00 PM 2.59 36.662 0.043 6.96 1.96 14.2
1/14/2022 4:15:00 PM 2.54 36.572 0.043 6.97 1.95 14.17
1/14/2022 4:30:00 PM 2.51 36.518 0.043 6.96 2.01 14.14
1/14/2022 4:45:00 PM 2.45 36.41 0.043 6.94 1.97 14.12
1/14/2022 5:00:00 PM 2.39 36.302 0.043 6.85 1.95 14.08
1/14/2022 5:15:00 PM 2.32 36.176 0.044 6.93 1.98 14.06
1/14/2022 5:30:00 PM 2.24 36.032 0.041 6.91 4.72 14.03
1/14/2022 5:45:00 PM 2.16 35.888 0.044 6.89 1.97 14.02
1/14/2022 6:00:00 PM 2.08 35.744 0.044 6.85 2.03 14.01
1/14/2022 6:15:00 PM 1.99 35.582 0.044 6.88 1.99 14.02
1/14/2022 6:30:00 PM 1.92 35.456 0.044 6.81 2.01 14.03
1/14/2022 6:45:00 PM 1.83 35.294 0.044 6.82 2 14.05
1/14/2022 7:00:00 PM 1.74 35.132 0.044 6.86 2.04 14.08
1/14/2022 7:15:00 PM 1.66 34.988 0.042 6.84 4.62 14.1
1/14/2022 7:30:00 PM 1.58 34.844 0.042 6.84 4.58 14.12
1/14/2022 7:45:00 PM 1.49 34.682 0.044 6.85 2.02 14.15
1/14/2022 8:00:00 PM 1.41 34.538 0.044 6.83 2.07 14.17
1/14/2022 8:15:00 PM 1.32 34.376 0.044 6.85 2.07 14.2
1/14/2022 8:30:00 PM 1.24 34.232 0.044 6.85 2.04 14.23
1/14/2022 8:45:00 PM 1.17 34.106 0.044 6.78 2.04 14.27
1/14/2022 9:00:00 PM 1.1 33.98 0.044 6.85 2.03 14.3
1/14/2022 9:15:00 PM 1.03 33.854 0.042 6.82 4.59 14.35
1/14/2022 9:30:00 PM 0.93 33.674 0.042 6.83 4.57 14.38
1/14/2022 9:45:00 PM 0.86 33.548 0.042 6.83 4.56 14.42
1/14/2022 10:00:00 PM 0.79 33.422 0.042 6.83 4.62 14.45
1/14/2022 10:15:00 PM 0.7 33.26 0.044 6.77 2.02 14.48
1/14/2022 10:30:00 PM 0.63 33.134 0.044 6.85 2.05 14.51
1/14/2022 10:45:00 PM 0.57 33.026 0.044 6.84 2.03 14.54
1/14/2022 11:00:00 PM 0.5 32.9 0.044 6.86 2.07 14.56
1/14/2022 11:15:00 PM 0.42 32.756 0.044 6.86 2.04 14.59
1/14/2022 11:30:00 PM 0.35 32.63 0.044 6.77 2 14.61
1/14/2022 11:45:00 PM 0.27 32.486 0.044 6.81 2.02 14.65
1/15/2022 12:00:00 AM 0.2 32.36 0.044 6.86 1.97 14.68
1/15/2022 12:15:00 AM 0.13 32.234 0.045 6.86 2.01 14.71
1/15/2022 12:30:00 AM 0.05 32.09 0.045 6.86 2.05 14.75
1/15/2022 12:45:00 AM -0.02 31.964 0.045 6.75 2.06 14.79
1/15/2022 1:00:00 AM -0.1 31.82 0.045 6.86 2.05 14.83
1/15/2022 1:15:00 AM -0.11 31.802 0.042 6.84 4.75 14.86
1/15/2022 1:30:00 AM -0.1 31.82 0.045 6.86 2.15 14.89
1/15/2022 1:45:00 AM -0.1 31.82 0.045 6.86 2.26 14.92
1/15/2022 2:00:00 AM -0.1 31.82 0.045 6.86 2.47 14.94
1/15/2022 2:15:00 AM -0.1 31.82 0.043 6.85 3.65 14.96
1/15/2022 2:30:00 AM -0.1 31.82 0.042 6.71 3.67 14.97
1/15/2022 2:45:00 AM -0.09 31.838 0.043 6.73 3.82 14.98
1/15/2022 3:00:00 AM -0.09 31.838 0.044 6.86 4.97 14.99
1/15/2022 3:15:00 AM -0.09 31.838 0.045 6.88 5.44 15
1/15/2022 3:30:00 AM -0.09 31.838 0.045 6.85 4.32 15.01
1/15/2022 3:45:00 AM -0.09 31.838 0.043 6.88 4.85 15.01
1/15/2022 4:00:00 AM -0.09 31.838 0.046 6.7 8.15 15
1/15/2022 4:15:00 AM -0.09 31.838 0.046 6.87 3.96 15.03
1/15/2022 4:30:00 AM -0.09 31.838 0.046 6.86 3.94 15.02
1/15/2022 4:45:00 AM -0.09 31.838 0.046 6.84 3.41 15.03
1/15/2022 5:00:00 AM -0.09 31.838 0.046 6.88 3.12 15.03
1/15/2022 5:15:00 AM -0.09 31.838 0.032 6.73 3.37 15.02
1/15/2022 5:30:00 AM -0.09 31.838 0.046 6.76 3.28 15.01
1/15/2022 5:45:00 AM -0.09 31.838 0.046 6.85 2.83 15.03
1/15/2022 6:00:00 AM -0.09 31.838 0.045 6.74 2.79 15.02
1/15/2022 6:15:00 AM -0.09 31.838 0.046 6.8 2.59 15.03
1/15/2022 6:30:00 AM -0.09 31.838 0.046 6.75 2.51 15.04
1/15/2022 6:45:00 AM -0.09 31.838 0.046 6.78 2.58 15.05
1/15/2022 7:00:00 AM -0.09 31.838 0.046 6.75 2.83 15.04
1/15/2022 7:15:00 AM -0.09 31.838 0.043 6.82 2.33 15.05
1/15/2022 7:30:00 AM -0.09 31.838 0.046 6.8 2.33 15.04
1/15/2022 7:45:00 AM -0.09 31.838 0.047 6.79 2.27 15.06
1/15/2022 8:00:00 AM -0.09 31.838 0.047 6.75 2.59 15.08
1/15/2022 8:15:00 AM -0.09 31.838 0.047 6.82 2.35 15.1
1/15/2022 8:30:00 AM -0.09 31.838 0.047 6.83 2.35 15.14
1/15/2022 8:45:00 AM -0.09 31.838 0.047 6.75 2.35 15.18
1/15/2022 9:00:00 AM -0.09 31.838 0.047 6.77 2.3 15.22
1/15/2022 9:15:00 AM -0.09 31.838 0.047 6.8 2.29 15.25
1/15/2022 9:30:00 AM -0.09 31.838 0.047 6.86 2.6 15.3
1/15/2022 9:45:00 AM -0.09 31.838 0.047 6.84 2.54 15.33
1/15/2022 10:00:00 AM -0.09 31.838 0.046 6.88 2.43 15.36
1/15/2022 10:15:00 AM -0.09 31.838 0.046 6.88 2.26 15.39
1/15/2022 10:30:00 AM -0.09 31.838 0.046 6.87 2.26 15.4
1/15/2022 10:45:00 AM -0.09 31.838 0.046 6.8 2.24 15.42
1/15/2022 11:00:00 AM -0.09 31.838 0.046 6.89 2.2 15.43
1/15/2022 11:15:00 AM -0.09 31.838 0.046 6.92 2.64 15.44
1/15/2022 11:30:00 AM -0.09 31.838 0.046 6.81 2.28 15.45
1/15/2022 11:45:00 AM -0.09 31.838 0.046 6.92 2.38 15.46
1/15/2022 12:00:00 PM -0.09 31.838 0.046 6.93 2.24 15.46
1/15/2022 12:15:00 PM -0.09 31.838 0.046 6.92 2.22 15.47
1/15/2022 12:30:00 PM -0.09 31.838 0.046 6.86 2.18 15.46
1/15/2022 12:45:00 PM -0.09 31.838 0.046 6.88 2.21 15.46
1/15/2022 1:00:00 PM -0.09 31.838 0.046 6.95 2.29 15.46
1/15/2022 1:15:00 PM -0.09 31.838 0.045 6.94 2.21 15.46
1/15/2022 1:30:00 PM -0.09 31.838 0.046 6.96 2.18 15.46
1/15/2022 1:45:00 PM -0.09 31.838 0.045 6.84 2.2 15.46
1/15/2022 2:00:00 PM -0.09 31.838 0.045 6.89 2.22 15.44
1/15/2022 2:15:00 PM -0.09 31.838 0.045 6.95 2.22 15.45
1/15/2022 2:30:00 PM -0.09 31.838 0.045 6.96 4.65 15.44
1/15/2022 2:45:00 PM -0.09 31.838 0.045 6.85 6.58 15.44
1/15/2022 3:00:00 PM -0.09 31.838 0.045 6.97 2.32 15.44
1/15/2022 3:15:00 PM -0.09 31.838 0.045 6.96 2.32 15.44
1/15/2022 3:30:00 PM -0.09 31.838 0.045 6.96 2.39 15.43
1/15/2022 3:45:00 PM -0.09 31.838 0.045 6.84 2.4 15.42
1/15/2022 4:00:00 PM -0.09 31.838 0.045 6.95 2.37 15.41
1/15/2022 4:15:00 PM -0.09 31.838 0.045 6.95 2.44 15.4
1/15/2022 4:30:00 PM -0.09 31.838 0.044 6.82 2.37 15.37
1/15/2022 4:45:00 PM -0.09 31.838 0.045 6.94 2.28 15.35
1/15/2022 5:00:00 PM -0.09 31.838 0.045 6.8 2.25 15.31
1/15/2022 5:15:00 PM -0.09 31.838 0.045 6.85 2.2 15.28
1/15/2022 5:30:00 PM -0.09 31.838 0.045 6.84 2.18 15.24
1/15/2022 5:45:00 PM -0.09 31.838 0.045 6.84 2.21 15.2
1/15/2022 6:00:00 PM -0.09 31.838 0.046 6.88 2.11 15.17
1/15/2022 6:15:00 PM -0.09 31.838 0.046 6.78 3.07 15.14
1/15/2022 6:30:00 PM -0.09 31.838 0.046 6.81 2.56 15.12
1/15/2022 6:45:00 PM -0.09 31.838 0.046 6.87 2.51 15.11
1/15/2022 7:00:00 PM -0.09 31.838 0.046 6.86 2.47 15.08
1/15/2022 7:15:00 PM -0.09 31.838 0.046 6.86 2.44 15.08
1/15/2022 7:30:00 PM -0.09 31.838 0.046 6.85 2.52 15.07
1/15/2022 7:45:00 PM -0.09 31.838 0.046 6.71 2.54 15.07
1/15/2022 8:00:00 PM -0.09 31.838 0.046 6.8 2.46 15.06
1/15/2022 8:15:00 PM -0.09 31.838 0.046 6.84 2.54 15.06
1/15/2022 8:30:00 PM -0.09 31.838 0.046 6.81 2.41 15.06
1/15/2022 8:45:00 PM -0.09 31.838 0.046 6.83 2.43 15.06
1/15/2022 9:00:00 PM -0.09 31.838 0.046 6.82 2.39 15.06
1/15/2022 9:15:00 PM -0.09 31.838 0.046 6.8 2.43 15.06
1/15/2022 9:30:00 PM -0.09 31.838 0.046 6.72 2.43 15.06
1/15/2022 9:45:00 PM -0.09 31.838 0.046 6.81 2.41 15.06
1/15/2022 10:00:00 PM -0.09 31.838 0.046 6.81 2.44 15.05
1/15/2022 10:15:00 PM -0.09 31.838 0.047 6.69 2.4 15.06
1/15/2022 10:30:00 PM -0.09 31.838 0.047 6.81 2.43 15.06
1/15/2022 10:45:00 PM -0.09 31.838 0.047 6.7 2.64 15.06
1/15/2022 11:00:00 PM -0.09 31.838 0.047 6.81 2.43 15.06
1/15/2022 11:15:00 PM -0.09 31.838 0.047 6.81 2.43 15.05
1/15/2022 11:30:00 PM -0.09 31.838 0.047 6.73 2.37 15.06
1/15/2022 11:45:00 PM -0.09 31.838 0.047 6.8 2.41 15.05
1/16/2022 12:00:00 AM -0.09 31.838 0.047 6.71 2.38 15.06
1/16/2022 12:15:00 AM -0.09 31.838 0.047 6.8 2.41 15.05
1/16/2022 12:30:00 AM -0.09 31.838 0.047 6.8 2.45 15.05
1/16/2022 12:45:00 AM -0.09 31.838 0.047 6.8 2.44 15.04
1/16/2022 1:00:00 AM -0.09 31.838 0.047 6.8 2.47 15.04
1/16/2022 1:15:00 AM -0.09 31.838 0.047 6.8 2.42 15.04
1/16/2022 1:30:00 AM -0.09 31.838 0.047 6.73 3.08 15.05
1/16/2022 1:45:00 AM -0.09 31.838 0.047 6.78 2.37 15.04
1/16/2022 2:00:00 AM -0.09 31.838 0.048 6.8 2.44 15.03
1/16/2022 2:15:00 AM -0.09 31.838 0.048 6.8 2.4 15.04
1/16/2022 2:30:00 AM -0.09 31.838 0.048 6.79 2.36 15.03
1/16/2022 2:45:00 AM -0.09 31.838 0.048 6.69 2.36 15.02
1/16/2022 3:00:00 AM -0.09 31.838 0.048 6.79 2.44 15.02
1/16/2022 3:15:00 AM -0.09 31.838 0.048 6.67 2.41 15.01
1/16/2022 3:30:00 AM -0.09 31.838 0.048 6.71 2.41 15
1/16/2022 3:45:00 AM -0.09 31.838 0.048 6.72 2.37 15.03
1/16/2022 4:00:00 AM -0.09 31.838 0.048 6.72 2.32 15.02
1/16/2022 4:15:00 AM -0.09 31.838 0.049 6.79 2.37 15.04
1/16/2022 4:30:00 AM -0.09 31.838 0.049 6.69 2.34 15.07
1/16/2022 4:45:00 AM -0.09 31.838 0.049 6.75 2.32 15.02
1/16/2022 5:00:00 AM -0.09 31.838 0.049 6.78 2.11 15.04
1/16/2022 5:15:00 AM -0.09 31.838 0.049 6.78 2.12 14.99
1/16/2022 5:30:00 AM -0.09 31.838 0.049 6.77 2.08 14.96
1/16/2022 5:45:00 AM -0.09 31.838 0.049 6.77 2.07 14.96
1/16/2022 6:00:00 AM -0.09 31.838 0.049 6.77 2.14 14.95
1/16/2022 6:15:00 AM -0.09 31.838 0.049 6.76 2.07 14.94
1/16/2022 6:30:00 AM -0.09 31.838 0.049 6.76 2.1 14.93
1/16/2022 6:45:00 AM -0.09 31.838 0.049 6.68 2.07 14.93
1/16/2022 7:00:00 AM -0.09 31.838 0.049 6.75 2.11 14.93
1/16/2022 7:15:00 AM -0.09 31.838 0.049 6.65 2.09 14.95
1/16/2022 7:30:00 AM -0.09 31.838 0.049 6.69 2.09 14.95
1/16/2022 7:45:00 AM -0.09 31.838 0.049 6.75 2.07 14.95
1/16/2022 8:00:00 AM -0.09 31.838 0.049 6.64 2.08 14.97
1/16/2022 8:15:00 AM -0.09 31.838 0.05 6.76 2.12 14.99
1/16/2022 8:30:00 AM -0.09 31.838 0.05 6.75 2.11 15.03
1/16/2022 8:45:00 AM -0.08 31.856 0.047 6.68 5.13 15.08
1/16/2022 9:00:00 AM -0.09 31.838 0.05 6.7 2.1 15.13
1/16/2022 9:15:00 AM -0.09 31.838 0.05 6.71 2.09 15.17
1/16/2022 9:30:00 AM -0.09 31.838 0.05 6.69 2.1 15.21
1/16/2022 9:45:00 AM -0.09 31.838 0.05 6.74 2.08 15.27
1/16/2022 10:00:00 AM -0.09 31.838 0.05 6.77 2.1 15.24
1/16/2022 10:15:00 AM